<?xml version="1.0" encoding="UTF-8" standalone="no" ?>
<gpx xmlns="http://www.topografix.com/GPX/1/1" xmlns:xsi="http://www.w3.org/2001/XMLSchema-instance" xsi:schemaLocation="http://www.topografix.com/GPX/1/1 http://www.topografix.com/GPX/1/1/gpx.xsd" version="1.1" creator="VisuGPX - https://www.visugpx.com">
  <metadata>
    <name>Beaume-de-Transit</name>
    <desc><![CDATA[Randonnée à la 1/2 journée du SCL au programme du Jeudi 15 octobre 2015  ]]></desc>
  </metadata>
  <trk>
    <name><![CDATA[ACTIVE LOG 002-1]]></name>
    <trkseg>
      <trkpt lat="44.33919" lon="4.86714">
        <ele>111.169556</ele>
        <time>2015-10-08T08:29:20Z</time>
      </trkpt>
      <trkpt lat="44.33917" lon="4.8671">
        <ele>108.285645</ele>
        <time>2015-10-08T08:29:41Z</time>
      </trkpt>
      <trkpt lat="44.33919" lon="4.86712">
        <ele>104.921021</ele>
        <time>2015-10-08T08:29:55Z</time>
      </trkpt>
      <trkpt lat="44.33915" lon="4.86709">
        <ele>104.44043</ele>
        <time>2015-10-08T08:32:19Z</time>
      </trkpt>
      <trkpt lat="44.33915" lon="4.86709">
        <ele>104.44043</ele>
        <time>2015-10-08T08:33:26Z</time>
      </trkpt>
      <trkpt lat="44.33908" lon="4.86706">
        <ele>104.921021</ele>
        <time>2015-10-08T08:33:34Z</time>
      </trkpt>
      <trkpt lat="44.33907" lon="4.86698">
        <ele>104.921021</ele>
        <time>2015-10-08T08:33:39Z</time>
      </trkpt>
      <trkpt lat="44.33907" lon="4.86679">
        <ele>104.921021</ele>
        <time>2015-10-08T08:33:50Z</time>
      </trkpt>
      <trkpt lat="44.33908" lon="4.86658">
        <ele>104.921021</ele>
        <time>2015-10-08T08:34:03Z</time>
      </trkpt>
      <trkpt lat="44.33907" lon="4.8665">
        <ele>104.921021</ele>
        <time>2015-10-08T08:34:15Z</time>
      </trkpt>
      <trkpt lat="44.33904" lon="4.8665">
        <ele>104.44043</ele>
        <time>2015-10-08T08:34:19Z</time>
      </trkpt>
      <trkpt lat="44.33888" lon="4.86642">
        <ele>105.401733</ele>
        <time>2015-10-08T08:34:33Z</time>
      </trkpt>
      <trkpt lat="44.33873" lon="4.86643">
        <ele>105.882446</ele>
        <time>2015-10-08T08:34:45Z</time>
      </trkpt>
      <trkpt lat="44.33867" lon="4.86646">
        <ele>106.843628</ele>
        <time>2015-10-08T08:34:55Z</time>
      </trkpt>
      <trkpt lat="44.33856" lon="4.86651">
        <ele>107.324341</ele>
        <time>2015-10-08T08:35:05Z</time>
      </trkpt>
      <trkpt lat="44.33853" lon="4.86648">
        <ele>107.805054</ele>
        <time>2015-10-08T08:35:12Z</time>
      </trkpt>
      <trkpt lat="44.33852" lon="4.86645">
        <ele>109.727661</ele>
        <time>2015-10-08T08:35:26Z</time>
      </trkpt>
      <trkpt lat="44.33853" lon="4.86642">
        <ele>109.727661</ele>
        <time>2015-10-08T08:35:27Z</time>
      </trkpt>
      <trkpt lat="44.3386" lon="4.86629">
        <ele>109.246948</ele>
        <time>2015-10-08T08:35:32Z</time>
      </trkpt>
      <trkpt lat="44.33864" lon="4.86613">
        <ele>110.208252</ele>
        <time>2015-10-08T08:35:42Z</time>
      </trkpt>
      <trkpt lat="44.33863" lon="4.86605">
        <ele>110.688843</ele>
        <time>2015-10-08T08:35:47Z</time>
      </trkpt>
      <trkpt lat="44.33871" lon="4.86593">
        <ele>111.169556</ele>
        <time>2015-10-08T08:35:56Z</time>
      </trkpt>
      <trkpt lat="44.33874" lon="4.86579">
        <ele>111.650269</ele>
        <time>2015-10-08T08:36:05Z</time>
      </trkpt>
      <trkpt lat="44.33876" lon="4.86577">
        <ele>111.650269</ele>
        <time>2015-10-08T08:36:07Z</time>
      </trkpt>
      <trkpt lat="44.33874" lon="4.86567">
        <ele>111.650269</ele>
        <time>2015-10-08T08:36:13Z</time>
      </trkpt>
      <trkpt lat="44.33873" lon="4.86559">
        <ele>112.130981</ele>
        <time>2015-10-08T08:36:18Z</time>
      </trkpt>
      <trkpt lat="44.33873" lon="4.86543">
        <ele>111.169556</ele>
        <time>2015-10-08T08:36:27Z</time>
      </trkpt>
      <trkpt lat="44.33873" lon="4.86536">
        <ele>111.169556</ele>
        <time>2015-10-08T08:36:34Z</time>
      </trkpt>
      <trkpt lat="44.33868" lon="4.86527">
        <ele>113.572998</ele>
        <time>2015-10-08T08:36:42Z</time>
      </trkpt>
      <trkpt lat="44.33868" lon="4.86526">
        <ele>112.611572</ele>
        <time>2015-10-08T08:36:43Z</time>
      </trkpt>
      <trkpt lat="44.33868" lon="4.86521">
        <ele>111.169556</ele>
        <time>2015-10-08T08:36:46Z</time>
      </trkpt>
      <trkpt lat="44.33869" lon="4.86502">
        <ele>110.208252</ele>
        <time>2015-10-08T08:36:59Z</time>
      </trkpt>
      <trkpt lat="44.33871" lon="4.86476">
        <ele>109.246948</ele>
        <time>2015-10-08T08:37:13Z</time>
      </trkpt>
      <trkpt lat="44.33873" lon="4.86464">
        <ele>108.285645</ele>
        <time>2015-10-08T08:37:20Z</time>
      </trkpt>
      <trkpt lat="44.33872" lon="4.86453">
        <ele>106.843628</ele>
        <time>2015-10-08T08:37:26Z</time>
      </trkpt>
      <trkpt lat="44.33868" lon="4.86434">
        <ele>106.843628</ele>
        <time>2015-10-08T08:37:38Z</time>
      </trkpt>
      <trkpt lat="44.33868" lon="4.86425">
        <ele>106.843628</ele>
        <time>2015-10-08T08:37:42Z</time>
      </trkpt>
      <trkpt lat="44.33864" lon="4.8641">
        <ele>106.363037</ele>
        <time>2015-10-08T08:37:52Z</time>
      </trkpt>
      <trkpt lat="44.33863" lon="4.86401">
        <ele>106.363037</ele>
        <time>2015-10-08T08:37:58Z</time>
      </trkpt>
      <trkpt lat="44.3386" lon="4.86388">
        <ele>106.363037</ele>
        <time>2015-10-08T08:38:07Z</time>
      </trkpt>
      <trkpt lat="44.33862" lon="4.86373">
        <ele>104.921021</ele>
        <time>2015-10-08T08:38:17Z</time>
      </trkpt>
      <trkpt lat="44.33862" lon="4.86355">
        <ele>105.401733</ele>
        <time>2015-10-08T08:38:29Z</time>
      </trkpt>
      <trkpt lat="44.33861" lon="4.86348">
        <ele>105.882446</ele>
        <time>2015-10-08T08:38:34Z</time>
      </trkpt>
      <trkpt lat="44.33863" lon="4.86343">
        <ele>105.882446</ele>
        <time>2015-10-08T08:38:38Z</time>
      </trkpt>
      <trkpt lat="44.33865" lon="4.86332">
        <ele>105.882446</ele>
        <time>2015-10-08T08:38:45Z</time>
      </trkpt>
      <trkpt lat="44.33872" lon="4.86323">
        <ele>105.401733</ele>
        <time>2015-10-08T08:38:54Z</time>
      </trkpt>
      <trkpt lat="44.33882" lon="4.86315">
        <ele>105.401733</ele>
        <time>2015-10-08T08:39:04Z</time>
      </trkpt>
      <trkpt lat="44.33894" lon="4.86306">
        <ele>105.401733</ele>
        <time>2015-10-08T08:39:17Z</time>
      </trkpt>
      <trkpt lat="44.339" lon="4.86303">
        <ele>105.401733</ele>
        <time>2015-10-08T08:39:24Z</time>
      </trkpt>
      <trkpt lat="44.3391" lon="4.86297">
        <ele>105.401733</ele>
        <time>2015-10-08T08:39:32Z</time>
      </trkpt>
      <trkpt lat="44.3392" lon="4.86293">
        <ele>106.843628</ele>
        <time>2015-10-08T08:39:39Z</time>
      </trkpt>
      <trkpt lat="44.33921" lon="4.86294">
        <ele>106.843628</ele>
        <time>2015-10-08T08:39:41Z</time>
      </trkpt>
      <trkpt lat="44.33933" lon="4.86284">
        <ele>105.882446</ele>
        <time>2015-10-08T08:39:52Z</time>
      </trkpt>
      <trkpt lat="44.33947" lon="4.86279">
        <ele>105.401733</ele>
        <time>2015-10-08T08:40:01Z</time>
      </trkpt>
      <trkpt lat="44.33958" lon="4.86273">
        <ele>105.882446</ele>
        <time>2015-10-08T08:40:09Z</time>
      </trkpt>
      <trkpt lat="44.33965" lon="4.86269">
        <ele>105.401733</ele>
        <time>2015-10-08T08:40:16Z</time>
      </trkpt>
      <trkpt lat="44.33979" lon="4.86261">
        <ele>105.882446</ele>
        <time>2015-10-08T08:40:26Z</time>
      </trkpt>
      <trkpt lat="44.33987" lon="4.86257">
        <ele>104.921021</ele>
        <time>2015-10-08T08:40:34Z</time>
      </trkpt>
      <trkpt lat="44.33999" lon="4.86248">
        <ele>105.882446</ele>
        <time>2015-10-08T08:40:44Z</time>
      </trkpt>
      <trkpt lat="44.34006" lon="4.86243">
        <ele>105.401733</ele>
        <time>2015-10-08T08:40:53Z</time>
      </trkpt>
      <trkpt lat="44.34012" lon="4.86238">
        <ele>106.363037</ele>
        <time>2015-10-08T08:41:12Z</time>
      </trkpt>
      <trkpt lat="44.34026" lon="4.86228">
        <ele>106.363037</ele>
        <time>2015-10-08T08:41:25Z</time>
      </trkpt>
      <trkpt lat="44.34042" lon="4.8622">
        <ele>105.882446</ele>
        <time>2015-10-08T08:41:37Z</time>
      </trkpt>
      <trkpt lat="44.34055" lon="4.86223">
        <ele>105.882446</ele>
        <time>2015-10-08T08:41:47Z</time>
      </trkpt>
      <trkpt lat="44.34074" lon="4.8624">
        <ele>106.363037</ele>
        <time>2015-10-08T08:42:02Z</time>
      </trkpt>
      <trkpt lat="44.34084" lon="4.86246">
        <ele>106.843628</ele>
        <time>2015-10-08T08:42:09Z</time>
      </trkpt>
      <trkpt lat="44.34098" lon="4.86255">
        <ele>106.363037</ele>
        <time>2015-10-08T08:42:20Z</time>
      </trkpt>
      <trkpt lat="44.34109" lon="4.86264">
        <ele>106.363037</ele>
        <time>2015-10-08T08:42:29Z</time>
      </trkpt>
      <trkpt lat="44.3412" lon="4.8626">
        <ele>106.363037</ele>
        <time>2015-10-08T08:42:38Z</time>
      </trkpt>
      <trkpt lat="44.3413" lon="4.86248">
        <ele>107.805054</ele>
        <time>2015-10-08T08:42:49Z</time>
      </trkpt>
      <trkpt lat="44.3414" lon="4.8623">
        <ele>108.285645</ele>
        <time>2015-10-08T08:43:02Z</time>
      </trkpt>
      <trkpt lat="44.34148" lon="4.8621">
        <ele>107.805054</ele>
        <time>2015-10-08T08:43:15Z</time>
      </trkpt>
      <trkpt lat="44.34158" lon="4.86192">
        <ele>108.766235</ele>
        <time>2015-10-08T08:43:27Z</time>
      </trkpt>
      <trkpt lat="44.34161" lon="4.8619">
        <ele>108.766235</ele>
        <time>2015-10-08T08:43:30Z</time>
      </trkpt>
      <trkpt lat="44.34171" lon="4.86189">
        <ele>109.246948</ele>
        <time>2015-10-08T08:43:37Z</time>
      </trkpt>
      <trkpt lat="44.34176" lon="4.8619">
        <ele>109.727661</ele>
        <time>2015-10-08T08:43:41Z</time>
      </trkpt>
      <trkpt lat="44.34187" lon="4.86189">
        <ele>110.688843</ele>
        <time>2015-10-08T08:43:50Z</time>
      </trkpt>
      <trkpt lat="44.34191" lon="4.86189">
        <ele>110.688843</ele>
        <time>2015-10-08T08:43:52Z</time>
      </trkpt>
      <trkpt lat="44.34196" lon="4.86189">
        <ele>110.688843</ele>
        <time>2015-10-08T08:43:56Z</time>
      </trkpt>
      <trkpt lat="44.34211" lon="4.86189">
        <ele>110.688843</ele>
        <time>2015-10-08T08:44:06Z</time>
      </trkpt>
      <trkpt lat="44.34223" lon="4.86188">
        <ele>110.208252</ele>
        <time>2015-10-08T08:44:15Z</time>
      </trkpt>
      <trkpt lat="44.34231" lon="4.8619">
        <ele>111.650269</ele>
        <time>2015-10-08T08:44:21Z</time>
      </trkpt>
      <trkpt lat="44.34244" lon="4.86189">
        <ele>112.130981</ele>
        <time>2015-10-08T08:44:31Z</time>
      </trkpt>
      <trkpt lat="44.34255" lon="4.86182">
        <ele>112.611572</ele>
        <time>2015-10-08T08:44:40Z</time>
      </trkpt>
      <trkpt lat="44.34261" lon="4.86182">
        <ele>112.611572</ele>
        <time>2015-10-08T08:44:45Z</time>
      </trkpt>
      <trkpt lat="44.34271" lon="4.86181">
        <ele>114.053589</ele>
        <time>2015-10-08T08:44:56Z</time>
      </trkpt>
      <trkpt lat="44.34283" lon="4.86173">
        <ele>115.495605</ele>
        <time>2015-10-08T08:45:09Z</time>
      </trkpt>
      <trkpt lat="44.34291" lon="4.8616">
        <ele>116.456787</ele>
        <time>2015-10-08T08:45:21Z</time>
      </trkpt>
      <trkpt lat="44.34295" lon="4.86155">
        <ele>116.456787</ele>
        <time>2015-10-08T08:45:25Z</time>
      </trkpt>
      <trkpt lat="44.34301" lon="4.8615">
        <ele>116.456787</ele>
        <time>2015-10-08T08:45:30Z</time>
      </trkpt>
      <trkpt lat="44.34305" lon="4.86137">
        <ele>117.418213</ele>
        <time>2015-10-08T08:45:40Z</time>
      </trkpt>
      <trkpt lat="44.34307" lon="4.86133">
        <ele>117.418213</ele>
        <time>2015-10-08T08:45:43Z</time>
      </trkpt>
      <trkpt lat="44.34314" lon="4.86122">
        <ele>117.418213</ele>
        <time>2015-10-08T08:45:53Z</time>
      </trkpt>
      <trkpt lat="44.34315" lon="4.86119">
        <ele>117.418213</ele>
        <time>2015-10-08T08:45:55Z</time>
      </trkpt>
      <trkpt lat="44.34317" lon="4.86116">
        <ele>116.9375</ele>
        <time>2015-10-08T08:45:58Z</time>
      </trkpt>
      <trkpt lat="44.34325" lon="4.86103">
        <ele>117.898804</ele>
        <time>2015-10-08T08:46:08Z</time>
      </trkpt>
      <trkpt lat="44.34326" lon="4.86101">
        <ele>117.418213</ele>
        <time>2015-10-08T08:46:10Z</time>
      </trkpt>
      <trkpt lat="44.3433" lon="4.86094">
        <ele>116.9375</ele>
        <time>2015-10-08T08:46:15Z</time>
      </trkpt>
      <trkpt lat="44.34336" lon="4.86085">
        <ele>117.418213</ele>
        <time>2015-10-08T08:46:23Z</time>
      </trkpt>
      <trkpt lat="44.34337" lon="4.86082">
        <ele>116.9375</ele>
        <time>2015-10-08T08:46:25Z</time>
      </trkpt>
      <trkpt lat="44.34342" lon="4.86075">
        <ele>116.9375</ele>
        <time>2015-10-08T08:46:31Z</time>
      </trkpt>
      <trkpt lat="44.34346" lon="4.8607">
        <ele>116.456787</ele>
        <time>2015-10-08T08:46:35Z</time>
      </trkpt>
      <trkpt lat="44.34355" lon="4.86059">
        <ele>115.976196</ele>
        <time>2015-10-08T08:46:44Z</time>
      </trkpt>
      <trkpt lat="44.34364" lon="4.86045">
        <ele>115.495605</ele>
        <time>2015-10-08T08:46:54Z</time>
      </trkpt>
      <trkpt lat="44.34376" lon="4.86033">
        <ele>115.014893</ele>
        <time>2015-10-08T08:47:06Z</time>
      </trkpt>
      <trkpt lat="44.34387" lon="4.86019">
        <ele>115.495605</ele>
        <time>2015-10-08T08:47:16Z</time>
      </trkpt>
      <trkpt lat="44.34401" lon="4.85998">
        <ele>116.456787</ele>
        <time>2015-10-08T08:47:32Z</time>
      </trkpt>
      <trkpt lat="44.34413" lon="4.8598">
        <ele>115.976196</ele>
        <time>2015-10-08T08:47:46Z</time>
      </trkpt>
      <trkpt lat="44.34419" lon="4.85972">
        <ele>115.976196</ele>
        <time>2015-10-08T08:47:53Z</time>
      </trkpt>
      <trkpt lat="44.34428" lon="4.85968">
        <ele>115.976196</ele>
        <time>2015-10-08T08:47:59Z</time>
      </trkpt>
      <trkpt lat="44.34438" lon="4.85964">
        <ele>116.456787</ele>
        <time>2015-10-08T08:48:05Z</time>
      </trkpt>
      <trkpt lat="44.34443" lon="4.85959">
        <ele>116.9375</ele>
        <time>2015-10-08T08:48:11Z</time>
      </trkpt>
      <trkpt lat="44.34457" lon="4.85953">
        <ele>117.418213</ele>
        <time>2015-10-08T08:48:23Z</time>
      </trkpt>
      <trkpt lat="44.34463" lon="4.85951">
        <ele>116.9375</ele>
        <time>2015-10-08T08:48:28Z</time>
      </trkpt>
      <trkpt lat="44.34472" lon="4.85947">
        <ele>117.418213</ele>
        <time>2015-10-08T08:48:35Z</time>
      </trkpt>
      <trkpt lat="44.34479" lon="4.85945">
        <ele>117.418213</ele>
        <time>2015-10-08T08:48:40Z</time>
      </trkpt>
      <trkpt lat="44.3448" lon="4.85944">
        <ele>117.418213</ele>
        <time>2015-10-08T08:48:42Z</time>
      </trkpt>
      <trkpt lat="44.34492" lon="4.85939">
        <ele>117.898804</ele>
        <time>2015-10-08T08:48:52Z</time>
      </trkpt>
      <trkpt lat="44.34495" lon="4.85939">
        <ele>117.418213</ele>
        <time>2015-10-08T08:48:56Z</time>
      </trkpt>
      <trkpt lat="44.34504" lon="4.85937">
        <ele>117.418213</ele>
        <time>2015-10-08T08:49:03Z</time>
      </trkpt>
      <trkpt lat="44.34516" lon="4.85933">
        <ele>117.418213</ele>
        <time>2015-10-08T08:49:13Z</time>
      </trkpt>
      <trkpt lat="44.34524" lon="4.85932">
        <ele>117.418213</ele>
        <time>2015-10-08T08:49:20Z</time>
      </trkpt>
      <trkpt lat="44.34532" lon="4.8593">
        <ele>117.418213</ele>
        <time>2015-10-08T08:49:26Z</time>
      </trkpt>
      <trkpt lat="44.34534" lon="4.8593">
        <ele>116.9375</ele>
        <time>2015-10-08T08:49:28Z</time>
      </trkpt>
      <trkpt lat="44.34542" lon="4.8593">
        <ele>116.9375</ele>
        <time>2015-10-08T08:49:34Z</time>
      </trkpt>
      <trkpt lat="44.34554" lon="4.8593">
        <ele>116.456787</ele>
        <time>2015-10-08T08:49:40Z</time>
      </trkpt>
      <trkpt lat="44.34558" lon="4.85929">
        <ele>116.456787</ele>
        <time>2015-10-08T08:49:45Z</time>
      </trkpt>
      <trkpt lat="44.34563" lon="4.85924">
        <ele>116.456787</ele>
        <time>2015-10-08T08:49:48Z</time>
      </trkpt>
      <trkpt lat="44.34567" lon="4.85925">
        <ele>115.495605</ele>
        <time>2015-10-08T08:49:51Z</time>
      </trkpt>
      <trkpt lat="44.34569" lon="4.85926">
        <ele>115.976196</ele>
        <time>2015-10-08T08:49:53Z</time>
      </trkpt>
      <trkpt lat="44.34579" lon="4.85921">
        <ele>116.456787</ele>
        <time>2015-10-08T08:50:03Z</time>
      </trkpt>
      <trkpt lat="44.3459" lon="4.85918">
        <ele>115.976196</ele>
        <time>2015-10-08T08:50:11Z</time>
      </trkpt>
      <trkpt lat="44.346" lon="4.85912">
        <ele>115.976196</ele>
        <time>2015-10-08T08:50:18Z</time>
      </trkpt>
      <trkpt lat="44.34616" lon="4.85906">
        <ele>116.456787</ele>
        <time>2015-10-08T08:50:28Z</time>
      </trkpt>
      <trkpt lat="44.34624" lon="4.85899">
        <ele>116.456787</ele>
        <time>2015-10-08T08:50:36Z</time>
      </trkpt>
      <trkpt lat="44.34625" lon="4.85898">
        <ele>116.456787</ele>
        <time>2015-10-08T08:50:37Z</time>
      </trkpt>
      <trkpt lat="44.34641" lon="4.85891">
        <ele>115.976196</ele>
        <time>2015-10-08T08:50:47Z</time>
      </trkpt>
      <trkpt lat="44.34651" lon="4.85883">
        <ele>116.456787</ele>
        <time>2015-10-08T08:50:56Z</time>
      </trkpt>
      <trkpt lat="44.34657" lon="4.8588">
        <ele>116.456787</ele>
        <time>2015-10-08T08:51:00Z</time>
      </trkpt>
      <trkpt lat="44.34658" lon="4.85878">
        <ele>118.379395</ele>
        <time>2015-10-08T08:51:02Z</time>
      </trkpt>
      <trkpt lat="44.34659" lon="4.85878">
        <ele>117.898804</ele>
        <time>2015-10-08T08:51:04Z</time>
      </trkpt>
      <trkpt lat="44.34662" lon="4.85877">
        <ele>116.9375</ele>
        <time>2015-10-08T08:51:06Z</time>
      </trkpt>
      <trkpt lat="44.34671" lon="4.85872">
        <ele>117.898804</ele>
        <time>2015-10-08T08:51:13Z</time>
      </trkpt>
      <trkpt lat="44.34679" lon="4.85864">
        <ele>117.418213</ele>
        <time>2015-10-08T08:51:21Z</time>
      </trkpt>
      <trkpt lat="44.3469" lon="4.85852">
        <ele>116.9375</ele>
        <time>2015-10-08T08:51:31Z</time>
      </trkpt>
      <trkpt lat="44.34699" lon="4.85843">
        <ele>116.456787</ele>
        <time>2015-10-08T08:51:41Z</time>
      </trkpt>
      <trkpt lat="44.34712" lon="4.85824">
        <ele>116.456787</ele>
        <time>2015-10-08T08:51:55Z</time>
      </trkpt>
      <trkpt lat="44.3472" lon="4.85807">
        <ele>115.976196</ele>
        <time>2015-10-08T08:52:05Z</time>
      </trkpt>
      <trkpt lat="44.34726" lon="4.85791">
        <ele>115.976196</ele>
        <time>2015-10-08T08:52:14Z</time>
      </trkpt>
      <trkpt lat="44.34735" lon="4.85772">
        <ele>116.456787</ele>
        <time>2015-10-08T08:52:27Z</time>
      </trkpt>
      <trkpt lat="44.34742" lon="4.85756">
        <ele>116.456787</ele>
        <time>2015-10-08T08:52:37Z</time>
      </trkpt>
      <trkpt lat="44.34749" lon="4.85738">
        <ele>115.976196</ele>
        <time>2015-10-08T08:52:48Z</time>
      </trkpt>
      <trkpt lat="44.34756" lon="4.85716">
        <ele>115.495605</ele>
        <time>2015-10-08T08:53:00Z</time>
      </trkpt>
      <trkpt lat="44.34763" lon="4.85696">
        <ele>115.976196</ele>
        <time>2015-10-08T08:53:12Z</time>
      </trkpt>
      <trkpt lat="44.3477" lon="4.85675">
        <ele>115.495605</ele>
        <time>2015-10-08T08:53:24Z</time>
      </trkpt>
      <trkpt lat="44.34779" lon="4.85645">
        <ele>114.53418</ele>
        <time>2015-10-08T08:53:41Z</time>
      </trkpt>
      <trkpt lat="44.34787" lon="4.8562">
        <ele>114.53418</ele>
        <time>2015-10-08T08:53:56Z</time>
      </trkpt>
      <trkpt lat="44.3479" lon="4.85598">
        <ele>114.53418</ele>
        <time>2015-10-08T08:54:08Z</time>
      </trkpt>
      <trkpt lat="44.34793" lon="4.85583">
        <ele>114.53418</ele>
        <time>2015-10-08T08:54:16Z</time>
      </trkpt>
      <trkpt lat="44.34795" lon="4.85557">
        <ele>115.495605</ele>
        <time>2015-10-08T08:54:31Z</time>
      </trkpt>
      <trkpt lat="44.34798" lon="4.85525">
        <ele>115.014893</ele>
        <time>2015-10-08T08:54:48Z</time>
      </trkpt>
      <trkpt lat="44.34801" lon="4.85496">
        <ele>115.495605</ele>
        <time>2015-10-08T08:55:03Z</time>
      </trkpt>
      <trkpt lat="44.34805" lon="4.85469">
        <ele>116.456787</ele>
        <time>2015-10-08T08:55:18Z</time>
      </trkpt>
      <trkpt lat="44.34808" lon="4.85438">
        <ele>115.014893</ele>
        <time>2015-10-08T08:55:35Z</time>
      </trkpt>
      <trkpt lat="44.34809" lon="4.8543">
        <ele>115.976196</ele>
        <time>2015-10-08T08:55:40Z</time>
      </trkpt>
      <trkpt lat="44.34811" lon="4.85408">
        <ele>115.976196</ele>
        <time>2015-10-08T08:55:52Z</time>
      </trkpt>
      <trkpt lat="44.34814" lon="4.85381">
        <ele>116.9375</ele>
        <time>2015-10-08T08:56:06Z</time>
      </trkpt>
      <trkpt lat="44.34815" lon="4.85354">
        <ele>116.456787</ele>
        <time>2015-10-08T08:56:20Z</time>
      </trkpt>
      <trkpt lat="44.34818" lon="4.85319">
        <ele>118.379395</ele>
        <time>2015-10-08T08:56:39Z</time>
      </trkpt>
      <trkpt lat="44.34819" lon="4.85316">
        <ele>116.9375</ele>
        <time>2015-10-08T08:56:41Z</time>
      </trkpt>
      <trkpt lat="44.34821" lon="4.85309">
        <ele>117.898804</ele>
        <time>2015-10-08T08:56:45Z</time>
      </trkpt>
      <trkpt lat="44.34822" lon="4.85297">
        <ele>116.456787</ele>
        <time>2015-10-08T08:56:51Z</time>
      </trkpt>
      <trkpt lat="44.34823" lon="4.8529">
        <ele>118.860107</ele>
        <time>2015-10-08T08:56:55Z</time>
      </trkpt>
      <trkpt lat="44.34825" lon="4.85286">
        <ele>116.9375</ele>
        <time>2015-10-08T08:56:58Z</time>
      </trkpt>
      <trkpt lat="44.34827" lon="4.85269">
        <ele>116.9375</ele>
        <time>2015-10-08T08:57:07Z</time>
      </trkpt>
      <trkpt lat="44.34831" lon="4.85247">
        <ele>117.418213</ele>
        <time>2015-10-08T08:57:18Z</time>
      </trkpt>
      <trkpt lat="44.34835" lon="4.85236">
        <ele>117.418213</ele>
        <time>2015-10-08T08:57:23Z</time>
      </trkpt>
      <trkpt lat="44.34838" lon="4.8523">
        <ele>117.898804</ele>
        <time>2015-10-08T08:57:26Z</time>
      </trkpt>
      <trkpt lat="44.34838" lon="4.85226">
        <ele>117.418213</ele>
        <time>2015-10-08T08:57:28Z</time>
      </trkpt>
      <trkpt lat="44.34838" lon="4.85222">
        <ele>117.418213</ele>
        <time>2015-10-08T08:57:31Z</time>
      </trkpt>
      <trkpt lat="44.3484" lon="4.85214">
        <ele>117.898804</ele>
        <time>2015-10-08T08:57:36Z</time>
      </trkpt>
      <trkpt lat="44.34841" lon="4.85204">
        <ele>117.418213</ele>
        <time>2015-10-08T08:57:41Z</time>
      </trkpt>
      <trkpt lat="44.34842" lon="4.85199">
        <ele>117.418213</ele>
        <time>2015-10-08T08:57:44Z</time>
      </trkpt>
      <trkpt lat="44.34842" lon="4.85195">
        <ele>117.898804</ele>
        <time>2015-10-08T08:57:46Z</time>
      </trkpt>
      <trkpt lat="44.34841" lon="4.85181">
        <ele>117.898804</ele>
        <time>2015-10-08T08:57:53Z</time>
      </trkpt>
      <trkpt lat="44.34843" lon="4.85159">
        <ele>117.898804</ele>
        <time>2015-10-08T08:58:04Z</time>
      </trkpt>
      <trkpt lat="44.34845" lon="4.8515">
        <ele>118.379395</ele>
        <time>2015-10-08T08:58:09Z</time>
      </trkpt>
      <trkpt lat="44.34845" lon="4.85139">
        <ele>119.34082</ele>
        <time>2015-10-08T08:58:14Z</time>
      </trkpt>
      <trkpt lat="44.34846" lon="4.85134">
        <ele>118.379395</ele>
        <time>2015-10-08T08:58:17Z</time>
      </trkpt>
      <trkpt lat="44.34847" lon="4.85123">
        <ele>118.860107</ele>
        <time>2015-10-08T08:58:24Z</time>
      </trkpt>
      <trkpt lat="44.3485" lon="4.85112">
        <ele>118.379395</ele>
        <time>2015-10-08T08:58:30Z</time>
      </trkpt>
      <trkpt lat="44.3485" lon="4.85094">
        <ele>118.860107</ele>
        <time>2015-10-08T08:58:38Z</time>
      </trkpt>
      <trkpt lat="44.34849" lon="4.85091">
        <ele>118.860107</ele>
        <time>2015-10-08T08:58:39Z</time>
      </trkpt>
      <trkpt lat="44.34853" lon="4.85082">
        <ele>119.821411</ele>
        <time>2015-10-08T08:58:46Z</time>
      </trkpt>
      <trkpt lat="44.34854" lon="4.85069">
        <ele>119.821411</ele>
        <time>2015-10-08T08:58:54Z</time>
      </trkpt>
      <trkpt lat="44.34855" lon="4.85066">
        <ele>120.302124</ele>
        <time>2015-10-08T08:58:57Z</time>
      </trkpt>
      <trkpt lat="44.34856" lon="4.85052">
        <ele>119.821411</ele>
        <time>2015-10-08T08:59:03Z</time>
      </trkpt>
      <trkpt lat="44.34856" lon="4.85048">
        <ele>120.782837</ele>
        <time>2015-10-08T08:59:05Z</time>
      </trkpt>
      <trkpt lat="44.34859" lon="4.85037">
        <ele>121.26355</ele>
        <time>2015-10-08T08:59:12Z</time>
      </trkpt>
      <trkpt lat="44.34859" lon="4.85032">
        <ele>121.26355</ele>
        <time>2015-10-08T08:59:14Z</time>
      </trkpt>
      <trkpt lat="44.34861" lon="4.85024">
        <ele>121.26355</ele>
        <time>2015-10-08T08:59:18Z</time>
      </trkpt>
      <trkpt lat="44.34857" lon="4.85016">
        <ele>121.744141</ele>
        <time>2015-10-08T08:59:23Z</time>
      </trkpt>
      <trkpt lat="44.3486" lon="4.85012">
        <ele>122.224731</ele>
        <time>2015-10-08T08:59:27Z</time>
      </trkpt>
      <trkpt lat="44.34863" lon="4.85002">
        <ele>122.705444</ele>
        <time>2015-10-08T08:59:32Z</time>
      </trkpt>
      <trkpt lat="44.34863" lon="4.84989">
        <ele>124.147339</ele>
        <time>2015-10-08T08:59:39Z</time>
      </trkpt>
      <trkpt lat="44.34862" lon="4.84979">
        <ele>124.147339</ele>
        <time>2015-10-08T08:59:44Z</time>
      </trkpt>
      <trkpt lat="44.3486" lon="4.84967">
        <ele>124.147339</ele>
        <time>2015-10-08T08:59:51Z</time>
      </trkpt>
      <trkpt lat="44.3486" lon="4.84966">
        <ele>124.628052</ele>
        <time>2015-10-08T08:59:52Z</time>
      </trkpt>
      <trkpt lat="44.34858" lon="4.8495">
        <ele>125.108765</ele>
        <time>2015-10-08T09:00:01Z</time>
      </trkpt>
      <trkpt lat="44.34859" lon="4.84935">
        <ele>126.069946</ele>
        <time>2015-10-08T09:00:10Z</time>
      </trkpt>
      <trkpt lat="44.34859" lon="4.84921">
        <ele>126.550659</ele>
        <time>2015-10-08T09:00:19Z</time>
      </trkpt>
      <trkpt lat="44.34862" lon="4.84902">
        <ele>126.069946</ele>
        <time>2015-10-08T09:00:31Z</time>
      </trkpt>
      <trkpt lat="44.34863" lon="4.84898">
        <ele>125.108765</ele>
        <time>2015-10-08T09:00:33Z</time>
      </trkpt>
      <trkpt lat="44.34865" lon="4.84881">
        <ele>125.108765</ele>
        <time>2015-10-08T09:00:44Z</time>
      </trkpt>
      <trkpt lat="44.34868" lon="4.84872">
        <ele>125.108765</ele>
        <time>2015-10-08T09:00:49Z</time>
      </trkpt>
      <trkpt lat="44.34868" lon="4.8486">
        <ele>125.108765</ele>
        <time>2015-10-08T09:00:55Z</time>
      </trkpt>
      <trkpt lat="44.34869" lon="4.84856">
        <ele>125.589355</ele>
        <time>2015-10-08T09:00:57Z</time>
      </trkpt>
      <trkpt lat="44.34871" lon="4.84852">
        <ele>125.589355</ele>
        <time>2015-10-08T09:01:00Z</time>
      </trkpt>
      <trkpt lat="44.34872" lon="4.84846">
        <ele>125.108765</ele>
        <time>2015-10-08T09:01:04Z</time>
      </trkpt>
      <trkpt lat="44.34871" lon="4.84826">
        <ele>125.108765</ele>
        <time>2015-10-08T09:01:13Z</time>
      </trkpt>
      <trkpt lat="44.34872" lon="4.84816">
        <ele>125.108765</ele>
        <time>2015-10-08T09:01:21Z</time>
      </trkpt>
      <trkpt lat="44.34876" lon="4.84805">
        <ele>124.147339</ele>
        <time>2015-10-08T09:01:27Z</time>
      </trkpt>
      <trkpt lat="44.34878" lon="4.84798">
        <ele>124.628052</ele>
        <time>2015-10-08T09:01:32Z</time>
      </trkpt>
      <trkpt lat="44.34881" lon="4.84791">
        <ele>125.108765</ele>
        <time>2015-10-08T09:01:37Z</time>
      </trkpt>
      <trkpt lat="44.34882" lon="4.84783">
        <ele>125.108765</ele>
        <time>2015-10-08T09:01:41Z</time>
      </trkpt>
      <trkpt lat="44.34884" lon="4.84774">
        <ele>124.628052</ele>
        <time>2015-10-08T09:01:46Z</time>
      </trkpt>
      <trkpt lat="44.34883" lon="4.84769">
        <ele>124.628052</ele>
        <time>2015-10-08T09:01:48Z</time>
      </trkpt>
      <trkpt lat="44.34887" lon="4.84761">
        <ele>124.628052</ele>
        <time>2015-10-08T09:01:53Z</time>
      </trkpt>
      <trkpt lat="44.34886" lon="4.84748">
        <ele>124.628052</ele>
        <time>2015-10-08T09:02:00Z</time>
      </trkpt>
      <trkpt lat="44.34888" lon="4.84737">
        <ele>124.147339</ele>
        <time>2015-10-08T09:02:06Z</time>
      </trkpt>
      <trkpt lat="44.34888" lon="4.84728">
        <ele>124.628052</ele>
        <time>2015-10-08T09:02:11Z</time>
      </trkpt>
      <trkpt lat="44.34888" lon="4.84723">
        <ele>124.147339</ele>
        <time>2015-10-08T09:02:14Z</time>
      </trkpt>
      <trkpt lat="44.34888" lon="4.84715">
        <ele>124.628052</ele>
        <time>2015-10-08T09:02:19Z</time>
      </trkpt>
      <trkpt lat="44.34891" lon="4.84696">
        <ele>124.628052</ele>
        <time>2015-10-08T09:02:30Z</time>
      </trkpt>
      <trkpt lat="44.34891" lon="4.84695">
        <ele>125.108765</ele>
        <time>2015-10-08T09:02:31Z</time>
      </trkpt>
      <trkpt lat="44.34894" lon="4.8468">
        <ele>124.628052</ele>
        <time>2015-10-08T09:02:41Z</time>
      </trkpt>
      <trkpt lat="44.34892" lon="4.84666">
        <ele>124.628052</ele>
        <time>2015-10-08T09:02:47Z</time>
      </trkpt>
      <trkpt lat="44.34891" lon="4.84661">
        <ele>124.628052</ele>
        <time>2015-10-08T09:02:49Z</time>
      </trkpt>
      <trkpt lat="44.34893" lon="4.84647">
        <ele>124.628052</ele>
        <time>2015-10-08T09:02:58Z</time>
      </trkpt>
      <trkpt lat="44.34894" lon="4.84641">
        <ele>124.628052</ele>
        <time>2015-10-08T09:03:02Z</time>
      </trkpt>
      <trkpt lat="44.34895" lon="4.84626">
        <ele>124.628052</ele>
        <time>2015-10-08T09:03:10Z</time>
      </trkpt>
      <trkpt lat="44.34894" lon="4.84612">
        <ele>123.666748</ele>
        <time>2015-10-08T09:03:19Z</time>
      </trkpt>
      <trkpt lat="44.34895" lon="4.8461">
        <ele>124.147339</ele>
        <time>2015-10-08T09:03:20Z</time>
      </trkpt>
      <trkpt lat="44.34896" lon="4.84601">
        <ele>124.147339</ele>
        <time>2015-10-08T09:03:25Z</time>
      </trkpt>
      <trkpt lat="44.34897" lon="4.84582">
        <ele>124.147339</ele>
        <time>2015-10-08T09:03:36Z</time>
      </trkpt>
      <trkpt lat="44.34897" lon="4.8458">
        <ele>124.147339</ele>
        <time>2015-10-08T09:03:37Z</time>
      </trkpt>
      <trkpt lat="44.34897" lon="4.84568">
        <ele>124.147339</ele>
        <time>2015-10-08T09:03:44Z</time>
      </trkpt>
      <trkpt lat="44.34899" lon="4.84562">
        <ele>124.628052</ele>
        <time>2015-10-08T09:03:48Z</time>
      </trkpt>
      <trkpt lat="44.349" lon="4.84543">
        <ele>124.147339</ele>
        <time>2015-10-08T09:03:56Z</time>
      </trkpt>
      <trkpt lat="44.34897" lon="4.84537">
        <ele>124.147339</ele>
        <time>2015-10-08T09:03:59Z</time>
      </trkpt>
      <trkpt lat="44.34898" lon="4.84529">
        <ele>123.666748</ele>
        <time>2015-10-08T09:04:04Z</time>
      </trkpt>
      <trkpt lat="44.34899" lon="4.84524">
        <ele>124.147339</ele>
        <time>2015-10-08T09:04:08Z</time>
      </trkpt>
      <trkpt lat="44.34902" lon="4.8451">
        <ele>124.147339</ele>
        <time>2015-10-08T09:04:17Z</time>
      </trkpt>
      <trkpt lat="44.34903" lon="4.84505">
        <ele>124.628052</ele>
        <time>2015-10-08T09:04:19Z</time>
      </trkpt>
      <trkpt lat="44.34899" lon="4.84491">
        <ele>124.628052</ele>
        <time>2015-10-08T09:04:26Z</time>
      </trkpt>
      <trkpt lat="44.34899" lon="4.84489">
        <ele>124.628052</ele>
        <time>2015-10-08T09:04:27Z</time>
      </trkpt>
      <trkpt lat="44.34899" lon="4.84476">
        <ele>123.666748</ele>
        <time>2015-10-08T09:04:36Z</time>
      </trkpt>
      <trkpt lat="44.349" lon="4.84472">
        <ele>124.147339</ele>
        <time>2015-10-08T09:04:38Z</time>
      </trkpt>
      <trkpt lat="44.34899" lon="4.84461">
        <ele>124.147339</ele>
        <time>2015-10-08T09:04:44Z</time>
      </trkpt>
      <trkpt lat="44.349" lon="4.84454">
        <ele>123.666748</ele>
        <time>2015-10-08T09:04:48Z</time>
      </trkpt>
      <trkpt lat="44.349" lon="4.84447">
        <ele>124.628052</ele>
        <time>2015-10-08T09:04:52Z</time>
      </trkpt>
      <trkpt lat="44.34901" lon="4.8444">
        <ele>123.186157</ele>
        <time>2015-10-08T09:04:56Z</time>
      </trkpt>
      <trkpt lat="44.34899" lon="4.84414">
        <ele>124.147339</ele>
        <time>2015-10-08T09:05:12Z</time>
      </trkpt>
      <trkpt lat="44.34894" lon="4.84414">
        <ele>124.147339</ele>
        <time>2015-10-08T09:05:18Z</time>
      </trkpt>
      <trkpt lat="44.34873" lon="4.84411">
        <ele>125.108765</ele>
        <time>2015-10-08T09:05:35Z</time>
      </trkpt>
      <trkpt lat="44.34869" lon="4.84409">
        <ele>123.186157</ele>
        <time>2015-10-08T09:05:39Z</time>
      </trkpt>
      <trkpt lat="44.34855" lon="4.84402">
        <ele>123.186157</ele>
        <time>2015-10-08T09:05:51Z</time>
      </trkpt>
      <trkpt lat="44.3485" lon="4.84397">
        <ele>123.666748</ele>
        <time>2015-10-08T09:05:57Z</time>
      </trkpt>
      <trkpt lat="44.34837" lon="4.84389">
        <ele>122.224731</ele>
        <time>2015-10-08T09:06:08Z</time>
      </trkpt>
      <trkpt lat="44.34826" lon="4.84385">
        <ele>122.705444</ele>
        <time>2015-10-08T09:06:15Z</time>
      </trkpt>
      <trkpt lat="44.34818" lon="4.84377">
        <ele>123.186157</ele>
        <time>2015-10-08T09:06:23Z</time>
      </trkpt>
      <trkpt lat="44.34809" lon="4.8437">
        <ele>123.186157</ele>
        <time>2015-10-08T09:06:30Z</time>
      </trkpt>
      <trkpt lat="44.34802" lon="4.84361">
        <ele>122.224731</ele>
        <time>2015-10-08T09:06:37Z</time>
      </trkpt>
      <trkpt lat="44.34798" lon="4.84356">
        <ele>122.224731</ele>
        <time>2015-10-08T09:06:42Z</time>
      </trkpt>
      <trkpt lat="44.34798" lon="4.84352">
        <ele>122.224731</ele>
        <time>2015-10-08T09:06:44Z</time>
      </trkpt>
      <trkpt lat="44.34796" lon="4.84349">
        <ele>122.224731</ele>
        <time>2015-10-08T09:06:46Z</time>
      </trkpt>
      <trkpt lat="44.34794" lon="4.84347">
        <ele>122.224731</ele>
        <time>2015-10-08T09:06:49Z</time>
      </trkpt>
      <trkpt lat="44.3479" lon="4.84342">
        <ele>121.744141</ele>
        <time>2015-10-08T09:06:54Z</time>
      </trkpt>
      <trkpt lat="44.34787" lon="4.84337">
        <ele>122.224731</ele>
        <time>2015-10-08T09:06:57Z</time>
      </trkpt>
      <trkpt lat="44.34787" lon="4.84333">
        <ele>122.224731</ele>
        <time>2015-10-08T09:06:59Z</time>
      </trkpt>
      <trkpt lat="44.34777" lon="4.84318">
        <ele>122.224731</ele>
        <time>2015-10-08T09:07:09Z</time>
      </trkpt>
      <trkpt lat="44.34772" lon="4.84301">
        <ele>123.186157</ele>
        <time>2015-10-08T09:07:20Z</time>
      </trkpt>
      <trkpt lat="44.34768" lon="4.84282">
        <ele>123.186157</ele>
        <time>2015-10-08T09:07:32Z</time>
      </trkpt>
      <trkpt lat="44.34766" lon="4.84265">
        <ele>123.186157</ele>
        <time>2015-10-08T09:07:42Z</time>
      </trkpt>
      <trkpt lat="44.34764" lon="4.84252">
        <ele>122.705444</ele>
        <time>2015-10-08T09:07:50Z</time>
      </trkpt>
      <trkpt lat="44.3476" lon="4.84234">
        <ele>122.705444</ele>
        <time>2015-10-08T09:08:00Z</time>
      </trkpt>
      <trkpt lat="44.34757" lon="4.84226">
        <ele>122.705444</ele>
        <time>2015-10-08T09:08:09Z</time>
      </trkpt>
      <trkpt lat="44.34757" lon="4.84222">
        <ele>122.705444</ele>
        <time>2015-10-08T09:08:17Z</time>
      </trkpt>
      <trkpt lat="44.34752" lon="4.84211">
        <ele>122.224731</ele>
        <time>2015-10-08T09:08:25Z</time>
      </trkpt>
      <trkpt lat="44.34746" lon="4.84199">
        <ele>121.26355</ele>
        <time>2015-10-08T09:08:33Z</time>
      </trkpt>
      <trkpt lat="44.34739" lon="4.84186">
        <ele>122.224731</ele>
        <time>2015-10-08T09:08:44Z</time>
      </trkpt>
      <trkpt lat="44.34732" lon="4.84174">
        <ele>121.26355</ele>
        <time>2015-10-08T09:08:53Z</time>
      </trkpt>
      <trkpt lat="44.34728" lon="4.84166">
        <ele>121.744141</ele>
        <time>2015-10-08T09:09:00Z</time>
      </trkpt>
      <trkpt lat="44.34726" lon="4.84163">
        <ele>121.744141</ele>
        <time>2015-10-08T09:09:02Z</time>
      </trkpt>
      <trkpt lat="44.34713" lon="4.84153">
        <ele>121.744141</ele>
        <time>2015-10-08T09:09:11Z</time>
      </trkpt>
      <trkpt lat="44.34703" lon="4.84142">
        <ele>120.782837</ele>
        <time>2015-10-08T09:09:21Z</time>
      </trkpt>
      <trkpt lat="44.34697" lon="4.84136">
        <ele>121.26355</ele>
        <time>2015-10-08T09:09:24Z</time>
      </trkpt>
      <trkpt lat="44.34695" lon="4.84132">
        <ele>121.26355</ele>
        <time>2015-10-08T09:09:27Z</time>
      </trkpt>
      <trkpt lat="44.34687" lon="4.84118">
        <ele>120.782837</ele>
        <time>2015-10-08T09:09:36Z</time>
      </trkpt>
      <trkpt lat="44.34681" lon="4.84112">
        <ele>120.302124</ele>
        <time>2015-10-08T09:09:42Z</time>
      </trkpt>
      <trkpt lat="44.34676" lon="4.84105">
        <ele>120.302124</ele>
        <time>2015-10-08T09:09:48Z</time>
      </trkpt>
      <trkpt lat="44.34673" lon="4.84101">
        <ele>119.821411</ele>
        <time>2015-10-08T09:09:52Z</time>
      </trkpt>
      <trkpt lat="44.34663" lon="4.84085">
        <ele>119.34082</ele>
        <time>2015-10-08T09:10:02Z</time>
      </trkpt>
      <trkpt lat="44.34661" lon="4.84084">
        <ele>119.34082</ele>
        <time>2015-10-08T09:10:03Z</time>
      </trkpt>
      <trkpt lat="44.34658" lon="4.84079">
        <ele>119.34082</ele>
        <time>2015-10-08T09:10:06Z</time>
      </trkpt>
      <trkpt lat="44.34657" lon="4.84076">
        <ele>119.34082</ele>
        <time>2015-10-08T09:10:08Z</time>
      </trkpt>
      <trkpt lat="44.34648" lon="4.84063">
        <ele>119.34082</ele>
        <time>2015-10-08T09:10:15Z</time>
      </trkpt>
      <trkpt lat="44.34646" lon="4.84062">
        <ele>119.34082</ele>
        <time>2015-10-08T09:10:16Z</time>
      </trkpt>
      <trkpt lat="44.34641" lon="4.84053">
        <ele>118.860107</ele>
        <time>2015-10-08T09:10:22Z</time>
      </trkpt>
      <trkpt lat="44.34638" lon="4.84043">
        <ele>118.379395</ele>
        <time>2015-10-08T09:10:29Z</time>
      </trkpt>
      <trkpt lat="44.34632" lon="4.84025">
        <ele>116.9375</ele>
        <time>2015-10-08T09:10:39Z</time>
      </trkpt>
      <trkpt lat="44.34628" lon="4.84021">
        <ele>117.418213</ele>
        <time>2015-10-08T09:10:47Z</time>
      </trkpt>
      <trkpt lat="44.34623" lon="4.8402">
        <ele>117.898804</ele>
        <time>2015-10-08T09:10:54Z</time>
      </trkpt>
      <trkpt lat="44.3462" lon="4.84021">
        <ele>117.898804</ele>
        <time>2015-10-08T09:11:01Z</time>
      </trkpt>
      <trkpt lat="44.34619" lon="4.84023">
        <ele>116.9375</ele>
        <time>2015-10-08T09:11:11Z</time>
      </trkpt>
      <trkpt lat="44.34619" lon="4.84023">
        <ele>118.860107</ele>
        <time>2015-10-08T09:11:15Z</time>
      </trkpt>
      <trkpt lat="44.34609" lon="4.84014">
        <ele>118.860107</ele>
        <time>2015-10-08T09:13:25Z</time>
      </trkpt>
      <trkpt lat="44.34596" lon="4.84006">
        <ele>118.860107</ele>
        <time>2015-10-08T09:13:33Z</time>
      </trkpt>
      <trkpt lat="44.34589" lon="4.84003">
        <ele>119.821411</ele>
        <time>2015-10-08T09:13:38Z</time>
      </trkpt>
      <trkpt lat="44.34579" lon="4.83994">
        <ele>119.34082</ele>
        <time>2015-10-08T09:13:46Z</time>
      </trkpt>
      <trkpt lat="44.34572" lon="4.83988">
        <ele>118.860107</ele>
        <time>2015-10-08T09:13:53Z</time>
      </trkpt>
      <trkpt lat="44.34569" lon="4.83983">
        <ele>118.860107</ele>
        <time>2015-10-08T09:13:59Z</time>
      </trkpt>
      <trkpt lat="44.34567" lon="4.83979">
        <ele>118.379395</ele>
        <time>2015-10-08T09:14:02Z</time>
      </trkpt>
      <trkpt lat="44.34559" lon="4.83973">
        <ele>118.379395</ele>
        <time>2015-10-08T09:14:08Z</time>
      </trkpt>
      <trkpt lat="44.34553" lon="4.83964">
        <ele>118.379395</ele>
        <time>2015-10-08T09:14:14Z</time>
      </trkpt>
      <trkpt lat="44.34549" lon="4.8396">
        <ele>117.898804</ele>
        <time>2015-10-08T09:14:17Z</time>
      </trkpt>
      <trkpt lat="44.34542" lon="4.83952">
        <ele>117.898804</ele>
        <time>2015-10-08T09:14:21Z</time>
      </trkpt>
      <trkpt lat="44.34533" lon="4.83943">
        <ele>117.898804</ele>
        <time>2015-10-08T09:14:30Z</time>
      </trkpt>
      <trkpt lat="44.34529" lon="4.8394">
        <ele>117.898804</ele>
        <time>2015-10-08T09:14:34Z</time>
      </trkpt>
      <trkpt lat="44.34522" lon="4.83931">
        <ele>117.898804</ele>
        <time>2015-10-08T09:14:41Z</time>
      </trkpt>
      <trkpt lat="44.34512" lon="4.83923">
        <ele>117.898804</ele>
        <time>2015-10-08T09:14:49Z</time>
      </trkpt>
      <trkpt lat="44.34502" lon="4.83918">
        <ele>117.898804</ele>
        <time>2015-10-08T09:14:56Z</time>
      </trkpt>
      <trkpt lat="44.34496" lon="4.83914">
        <ele>118.379395</ele>
        <time>2015-10-08T09:15:01Z</time>
      </trkpt>
      <trkpt lat="44.34485" lon="4.8391">
        <ele>117.898804</ele>
        <time>2015-10-08T09:15:10Z</time>
      </trkpt>
      <trkpt lat="44.34477" lon="4.83908">
        <ele>117.898804</ele>
        <time>2015-10-08T09:15:16Z</time>
      </trkpt>
      <trkpt lat="44.34469" lon="4.83903">
        <ele>117.898804</ele>
        <time>2015-10-08T09:15:23Z</time>
      </trkpt>
      <trkpt lat="44.34462" lon="4.83901">
        <ele>117.898804</ele>
        <time>2015-10-08T09:15:28Z</time>
      </trkpt>
      <trkpt lat="44.34458" lon="4.83898">
        <ele>117.418213</ele>
        <time>2015-10-08T09:15:32Z</time>
      </trkpt>
      <trkpt lat="44.34449" lon="4.83895">
        <ele>117.418213</ele>
        <time>2015-10-08T09:15:38Z</time>
      </trkpt>
      <trkpt lat="44.34443" lon="4.83892">
        <ele>116.9375</ele>
        <time>2015-10-08T09:15:42Z</time>
      </trkpt>
      <trkpt lat="44.34436" lon="4.83891">
        <ele>116.9375</ele>
        <time>2015-10-08T09:15:49Z</time>
      </trkpt>
      <trkpt lat="44.34426" lon="4.83897">
        <ele>116.9375</ele>
        <time>2015-10-08T09:15:55Z</time>
      </trkpt>
      <trkpt lat="44.3441" lon="4.83896">
        <ele>116.9375</ele>
        <time>2015-10-08T09:16:05Z</time>
      </trkpt>
      <trkpt lat="44.34398" lon="4.83894">
        <ele>116.9375</ele>
        <time>2015-10-08T09:16:13Z</time>
      </trkpt>
      <trkpt lat="44.34393" lon="4.83893">
        <ele>116.9375</ele>
        <time>2015-10-08T09:16:17Z</time>
      </trkpt>
      <trkpt lat="44.34382" lon="4.8389">
        <ele>117.418213</ele>
        <time>2015-10-08T09:16:24Z</time>
      </trkpt>
      <trkpt lat="44.34373" lon="4.83889">
        <ele>116.9375</ele>
        <time>2015-10-08T09:16:30Z</time>
      </trkpt>
      <trkpt lat="44.34364" lon="4.83887">
        <ele>116.9375</ele>
        <time>2015-10-08T09:16:38Z</time>
      </trkpt>
      <trkpt lat="44.34356" lon="4.83888">
        <ele>116.9375</ele>
        <time>2015-10-08T09:16:43Z</time>
      </trkpt>
      <trkpt lat="44.34352" lon="4.83886">
        <ele>116.9375</ele>
        <time>2015-10-08T09:16:48Z</time>
      </trkpt>
      <trkpt lat="44.34344" lon="4.83888">
        <ele>116.9375</ele>
        <time>2015-10-08T09:16:54Z</time>
      </trkpt>
      <trkpt lat="44.34329" lon="4.83885">
        <ele>116.9375</ele>
        <time>2015-10-08T09:17:06Z</time>
      </trkpt>
      <trkpt lat="44.34317" lon="4.83879">
        <ele>116.9375</ele>
        <time>2015-10-08T09:17:15Z</time>
      </trkpt>
      <trkpt lat="44.34308" lon="4.8387">
        <ele>116.9375</ele>
        <time>2015-10-08T09:17:24Z</time>
      </trkpt>
      <trkpt lat="44.34302" lon="4.83859">
        <ele>115.976196</ele>
        <time>2015-10-08T09:17:33Z</time>
      </trkpt>
      <trkpt lat="44.3429" lon="4.83844">
        <ele>115.976196</ele>
        <time>2015-10-08T09:17:45Z</time>
      </trkpt>
      <trkpt lat="44.34282" lon="4.83832">
        <ele>115.976196</ele>
        <time>2015-10-08T09:17:53Z</time>
      </trkpt>
      <trkpt lat="44.34281" lon="4.83831">
        <ele>115.976196</ele>
        <time>2015-10-08T09:17:54Z</time>
      </trkpt>
      <trkpt lat="44.34276" lon="4.83823">
        <ele>115.976196</ele>
        <time>2015-10-08T09:18:00Z</time>
      </trkpt>
      <trkpt lat="44.34274" lon="4.83823">
        <ele>115.495605</ele>
        <time>2015-10-08T09:18:03Z</time>
      </trkpt>
      <trkpt lat="44.34271" lon="4.8382">
        <ele>115.495605</ele>
        <time>2015-10-08T09:18:05Z</time>
      </trkpt>
      <trkpt lat="44.34266" lon="4.8381">
        <ele>115.976196</ele>
        <time>2015-10-08T09:18:11Z</time>
      </trkpt>
      <trkpt lat="44.34267" lon="4.83803">
        <ele>115.976196</ele>
        <time>2015-10-08T09:18:17Z</time>
      </trkpt>
      <trkpt lat="44.34274" lon="4.83788">
        <ele>115.495605</ele>
        <time>2015-10-08T09:18:28Z</time>
      </trkpt>
      <trkpt lat="44.34279" lon="4.83774">
        <ele>114.53418</ele>
        <time>2015-10-08T09:18:38Z</time>
      </trkpt>
      <trkpt lat="44.34278" lon="4.83757">
        <ele>115.014893</ele>
        <time>2015-10-08T09:18:48Z</time>
      </trkpt>
      <trkpt lat="44.34278" lon="4.83748">
        <ele>115.976196</ele>
        <time>2015-10-08T09:18:54Z</time>
      </trkpt>
      <trkpt lat="44.34278" lon="4.83718">
        <ele>115.495605</ele>
        <time>2015-10-08T09:19:09Z</time>
      </trkpt>
      <trkpt lat="44.3428" lon="4.83702">
        <ele>115.014893</ele>
        <time>2015-10-08T09:19:17Z</time>
      </trkpt>
      <trkpt lat="44.34275" lon="4.83698">
        <ele>115.495605</ele>
        <time>2015-10-08T09:19:23Z</time>
      </trkpt>
      <trkpt lat="44.34267" lon="4.83699">
        <ele>116.456787</ele>
        <time>2015-10-08T09:19:31Z</time>
      </trkpt>
      <trkpt lat="44.34257" lon="4.83697">
        <ele>116.456787</ele>
        <time>2015-10-08T09:19:39Z</time>
      </trkpt>
      <trkpt lat="44.34249" lon="4.83695">
        <ele>116.456787</ele>
        <time>2015-10-08T09:19:45Z</time>
      </trkpt>
      <trkpt lat="44.34238" lon="4.83691">
        <ele>116.456787</ele>
        <time>2015-10-08T09:19:55Z</time>
      </trkpt>
      <trkpt lat="44.34234" lon="4.83692">
        <ele>115.976196</ele>
        <time>2015-10-08T09:19:59Z</time>
      </trkpt>
      <trkpt lat="44.34225" lon="4.83689">
        <ele>115.976196</ele>
        <time>2015-10-08T09:20:06Z</time>
      </trkpt>
      <trkpt lat="44.34218" lon="4.83687">
        <ele>115.495605</ele>
        <time>2015-10-08T09:20:12Z</time>
      </trkpt>
      <trkpt lat="44.3421" lon="4.83685">
        <ele>115.495605</ele>
        <time>2015-10-08T09:20:17Z</time>
      </trkpt>
      <trkpt lat="44.34206" lon="4.83685">
        <ele>115.976196</ele>
        <time>2015-10-08T09:20:21Z</time>
      </trkpt>
      <trkpt lat="44.34201" lon="4.83684">
        <ele>115.495605</ele>
        <time>2015-10-08T09:20:29Z</time>
      </trkpt>
      <trkpt lat="44.34189" lon="4.83682">
        <ele>115.495605</ele>
        <time>2015-10-08T09:20:37Z</time>
      </trkpt>
      <trkpt lat="44.34184" lon="4.83683">
        <ele>115.495605</ele>
        <time>2015-10-08T09:20:41Z</time>
      </trkpt>
      <trkpt lat="44.3417" lon="4.83684">
        <ele>116.9375</ele>
        <time>2015-10-08T09:20:50Z</time>
      </trkpt>
      <trkpt lat="44.34153" lon="4.83682">
        <ele>115.976196</ele>
        <time>2015-10-08T09:21:02Z</time>
      </trkpt>
      <trkpt lat="44.34152" lon="4.83682">
        <ele>115.976196</ele>
        <time>2015-10-08T09:21:03Z</time>
      </trkpt>
      <trkpt lat="44.34137" lon="4.83681">
        <ele>115.976196</ele>
        <time>2015-10-08T09:21:11Z</time>
      </trkpt>
      <trkpt lat="44.34129" lon="4.83679">
        <ele>116.9375</ele>
        <time>2015-10-08T09:21:17Z</time>
      </trkpt>
      <trkpt lat="44.34123" lon="4.83678">
        <ele>115.495605</ele>
        <time>2015-10-08T09:21:21Z</time>
      </trkpt>
      <trkpt lat="44.34112" lon="4.83677">
        <ele>115.014893</ele>
        <time>2015-10-08T09:21:30Z</time>
      </trkpt>
      <trkpt lat="44.34103" lon="4.83677">
        <ele>116.9375</ele>
        <time>2015-10-08T09:21:38Z</time>
      </trkpt>
      <trkpt lat="44.34091" lon="4.83676">
        <ele>116.456787</ele>
        <time>2015-10-08T09:21:47Z</time>
      </trkpt>
      <trkpt lat="44.34081" lon="4.83675">
        <ele>115.976196</ele>
        <time>2015-10-08T09:21:54Z</time>
      </trkpt>
      <trkpt lat="44.34068" lon="4.83675">
        <ele>116.456787</ele>
        <time>2015-10-08T09:22:04Z</time>
      </trkpt>
      <trkpt lat="44.34057" lon="4.83675">
        <ele>115.976196</ele>
        <time>2015-10-08T09:22:13Z</time>
      </trkpt>
      <trkpt lat="44.34045" lon="4.83676">
        <ele>115.976196</ele>
        <time>2015-10-08T09:22:21Z</time>
      </trkpt>
      <trkpt lat="44.34035" lon="4.83676">
        <ele>116.9375</ele>
        <time>2015-10-08T09:22:28Z</time>
      </trkpt>
      <trkpt lat="44.34022" lon="4.83676">
        <ele>117.418213</ele>
        <time>2015-10-08T09:22:36Z</time>
      </trkpt>
      <trkpt lat="44.34014" lon="4.83675">
        <ele>116.9375</ele>
        <time>2015-10-08T09:22:42Z</time>
      </trkpt>
      <trkpt lat="44.34006" lon="4.83675">
        <ele>116.9375</ele>
        <time>2015-10-08T09:22:50Z</time>
      </trkpt>
      <trkpt lat="44.34006" lon="4.83675">
        <ele>116.456787</ele>
        <time>2015-10-08T09:22:51Z</time>
      </trkpt>
      <trkpt lat="44.34002" lon="4.83677">
        <ele>116.9375</ele>
        <time>2015-10-08T09:22:55Z</time>
      </trkpt>
      <trkpt lat="44.33996" lon="4.83679">
        <ele>117.418213</ele>
        <time>2015-10-08T09:23:01Z</time>
      </trkpt>
      <trkpt lat="44.33985" lon="4.83677">
        <ele>117.418213</ele>
        <time>2015-10-08T09:23:09Z</time>
      </trkpt>
      <trkpt lat="44.33984" lon="4.83677">
        <ele>116.9375</ele>
        <time>2015-10-08T09:23:10Z</time>
      </trkpt>
      <trkpt lat="44.3398" lon="4.83677">
        <ele>118.379395</ele>
        <time>2015-10-08T09:23:13Z</time>
      </trkpt>
      <trkpt lat="44.33968" lon="4.83677">
        <ele>117.898804</ele>
        <time>2015-10-08T09:23:22Z</time>
      </trkpt>
      <trkpt lat="44.33967" lon="4.83677">
        <ele>117.898804</ele>
        <time>2015-10-08T09:23:23Z</time>
      </trkpt>
      <trkpt lat="44.33957" lon="4.83677">
        <ele>117.418213</ele>
        <time>2015-10-08T09:23:29Z</time>
      </trkpt>
      <trkpt lat="44.33947" lon="4.83678">
        <ele>117.898804</ele>
        <time>2015-10-08T09:23:37Z</time>
      </trkpt>
      <trkpt lat="44.33933" lon="4.83679">
        <ele>117.898804</ele>
        <time>2015-10-08T09:23:46Z</time>
      </trkpt>
      <trkpt lat="44.33932" lon="4.83678">
        <ele>117.898804</ele>
        <time>2015-10-08T09:23:47Z</time>
      </trkpt>
      <trkpt lat="44.33922" lon="4.83678">
        <ele>117.418213</ele>
        <time>2015-10-08T09:23:54Z</time>
      </trkpt>
      <trkpt lat="44.33909" lon="4.83677">
        <ele>117.898804</ele>
        <time>2015-10-08T09:24:01Z</time>
      </trkpt>
      <trkpt lat="44.33901" lon="4.83676">
        <ele>118.379395</ele>
        <time>2015-10-08T09:24:07Z</time>
      </trkpt>
      <trkpt lat="44.33891" lon="4.83675">
        <ele>118.379395</ele>
        <time>2015-10-08T09:24:15Z</time>
      </trkpt>
      <trkpt lat="44.3389" lon="4.83673">
        <ele>118.379395</ele>
        <time>2015-10-08T09:24:16Z</time>
      </trkpt>
      <trkpt lat="44.33878" lon="4.83672">
        <ele>118.860107</ele>
        <time>2015-10-08T09:24:23Z</time>
      </trkpt>
      <trkpt lat="44.33873" lon="4.83673">
        <ele>118.860107</ele>
        <time>2015-10-08T09:24:27Z</time>
      </trkpt>
      <trkpt lat="44.33863" lon="4.83674">
        <ele>119.34082</ele>
        <time>2015-10-08T09:24:32Z</time>
      </trkpt>
      <trkpt lat="44.33856" lon="4.83673">
        <ele>119.34082</ele>
        <time>2015-10-08T09:24:37Z</time>
      </trkpt>
      <trkpt lat="44.33849" lon="4.83673">
        <ele>120.302124</ele>
        <time>2015-10-08T09:24:43Z</time>
      </trkpt>
      <trkpt lat="44.33842" lon="4.83674">
        <ele>119.821411</ele>
        <time>2015-10-08T09:24:50Z</time>
      </trkpt>
      <trkpt lat="44.33838" lon="4.83674">
        <ele>120.302124</ele>
        <time>2015-10-08T09:24:53Z</time>
      </trkpt>
      <trkpt lat="44.33824" lon="4.83676">
        <ele>120.302124</ele>
        <time>2015-10-08T09:25:03Z</time>
      </trkpt>
      <trkpt lat="44.33815" lon="4.83678">
        <ele>119.821411</ele>
        <time>2015-10-08T09:25:11Z</time>
      </trkpt>
      <trkpt lat="44.33805" lon="4.83683">
        <ele>120.302124</ele>
        <time>2015-10-08T09:25:20Z</time>
      </trkpt>
      <trkpt lat="44.33797" lon="4.83687">
        <ele>120.782837</ele>
        <time>2015-10-08T09:25:27Z</time>
      </trkpt>
      <trkpt lat="44.33794" lon="4.83687">
        <ele>120.782837</ele>
        <time>2015-10-08T09:25:30Z</time>
      </trkpt>
      <trkpt lat="44.33791" lon="4.83688">
        <ele>121.26355</ele>
        <time>2015-10-08T09:25:33Z</time>
      </trkpt>
      <trkpt lat="44.3378" lon="4.83691">
        <ele>120.782837</ele>
        <time>2015-10-08T09:25:41Z</time>
      </trkpt>
      <trkpt lat="44.33772" lon="4.83693">
        <ele>122.224731</ele>
        <time>2015-10-08T09:25:48Z</time>
      </trkpt>
      <trkpt lat="44.33763" lon="4.83696">
        <ele>122.224731</ele>
        <time>2015-10-08T09:25:53Z</time>
      </trkpt>
      <trkpt lat="44.3375" lon="4.83696">
        <ele>122.705444</ele>
        <time>2015-10-08T09:26:04Z</time>
      </trkpt>
      <trkpt lat="44.33744" lon="4.83701">
        <ele>122.224731</ele>
        <time>2015-10-08T09:26:09Z</time>
      </trkpt>
      <trkpt lat="44.33736" lon="4.83708">
        <ele>122.224731</ele>
        <time>2015-10-08T09:26:17Z</time>
      </trkpt>
      <trkpt lat="44.33727" lon="4.83712">
        <ele>122.224731</ele>
        <time>2015-10-08T09:26:25Z</time>
      </trkpt>
      <trkpt lat="44.33716" lon="4.83715">
        <ele>122.705444</ele>
        <time>2015-10-08T09:26:33Z</time>
      </trkpt>
      <trkpt lat="44.33715" lon="4.83715">
        <ele>122.705444</ele>
        <time>2015-10-08T09:26:34Z</time>
      </trkpt>
      <trkpt lat="44.33703" lon="4.83718">
        <ele>122.224731</ele>
        <time>2015-10-08T09:26:44Z</time>
      </trkpt>
      <trkpt lat="44.33695" lon="4.8372">
        <ele>122.224731</ele>
        <time>2015-10-08T09:26:49Z</time>
      </trkpt>
      <trkpt lat="44.33694" lon="4.83721">
        <ele>122.705444</ele>
        <time>2015-10-08T09:26:51Z</time>
      </trkpt>
      <trkpt lat="44.33688" lon="4.83722">
        <ele>122.224731</ele>
        <time>2015-10-08T09:26:58Z</time>
      </trkpt>
      <trkpt lat="44.33677" lon="4.83722">
        <ele>122.705444</ele>
        <time>2015-10-08T09:27:04Z</time>
      </trkpt>
      <trkpt lat="44.33668" lon="4.83725">
        <ele>123.666748</ele>
        <time>2015-10-08T09:27:11Z</time>
      </trkpt>
      <trkpt lat="44.33662" lon="4.83728">
        <ele>123.186157</ele>
        <time>2015-10-08T09:27:18Z</time>
      </trkpt>
      <trkpt lat="44.33654" lon="4.83727">
        <ele>124.147339</ele>
        <time>2015-10-08T09:27:25Z</time>
      </trkpt>
      <trkpt lat="44.33643" lon="4.83731">
        <ele>125.108765</ele>
        <time>2015-10-08T09:27:34Z</time>
      </trkpt>
      <trkpt lat="44.33632" lon="4.83733">
        <ele>125.589355</ele>
        <time>2015-10-08T09:27:42Z</time>
      </trkpt>
      <trkpt lat="44.33626" lon="4.83736">
        <ele>125.589355</ele>
        <time>2015-10-08T09:27:49Z</time>
      </trkpt>
      <trkpt lat="44.33613" lon="4.83747">
        <ele>125.108765</ele>
        <time>2015-10-08T09:27:59Z</time>
      </trkpt>
      <trkpt lat="44.33601" lon="4.83752">
        <ele>125.108765</ele>
        <time>2015-10-08T09:28:08Z</time>
      </trkpt>
      <trkpt lat="44.33591" lon="4.83757">
        <ele>127.031372</ele>
        <time>2015-10-08T09:28:16Z</time>
      </trkpt>
      <trkpt lat="44.33586" lon="4.83762">
        <ele>127.031372</ele>
        <time>2015-10-08T09:28:22Z</time>
      </trkpt>
      <trkpt lat="44.33579" lon="4.83765">
        <ele>127.992554</ele>
        <time>2015-10-08T09:28:28Z</time>
      </trkpt>
      <trkpt lat="44.33576" lon="4.83765">
        <ele>127.992554</ele>
        <time>2015-10-08T09:28:30Z</time>
      </trkpt>
      <trkpt lat="44.33562" lon="4.83768">
        <ele>128.954102</ele>
        <time>2015-10-08T09:28:40Z</time>
      </trkpt>
      <trkpt lat="44.33559" lon="4.8377">
        <ele>128.954102</ele>
        <time>2015-10-08T09:28:45Z</time>
      </trkpt>
      <trkpt lat="44.33546" lon="4.83771">
        <ele>128.954102</ele>
        <time>2015-10-08T09:28:55Z</time>
      </trkpt>
      <trkpt lat="44.33536" lon="4.83776">
        <ele>128.954102</ele>
        <time>2015-10-08T09:29:01Z</time>
      </trkpt>
      <trkpt lat="44.3353" lon="4.83777">
        <ele>128.954102</ele>
        <time>2015-10-08T09:29:05Z</time>
      </trkpt>
      <trkpt lat="44.33522" lon="4.83778">
        <ele>129.434692</ele>
        <time>2015-10-08T09:29:14Z</time>
      </trkpt>
      <trkpt lat="44.33507" lon="4.8378">
        <ele>128.954102</ele>
        <time>2015-10-08T09:29:30Z</time>
      </trkpt>
      <trkpt lat="44.33497" lon="4.83781">
        <ele>131.3573</ele>
        <time>2015-10-08T09:29:40Z</time>
      </trkpt>
      <trkpt lat="44.33493" lon="4.8378">
        <ele>130.876709</ele>
        <time>2015-10-08T09:29:43Z</time>
      </trkpt>
      <trkpt lat="44.33482" lon="4.83784">
        <ele>129.915283</ele>
        <time>2015-10-08T09:29:47Z</time>
      </trkpt>
      <trkpt lat="44.33472" lon="4.83791">
        <ele>130.395996</ele>
        <time>2015-10-08T09:29:55Z</time>
      </trkpt>
      <trkpt lat="44.33467" lon="4.8379">
        <ele>129.915283</ele>
        <time>2015-10-08T09:30:02Z</time>
      </trkpt>
      <trkpt lat="44.33465" lon="4.83791">
        <ele>129.915283</ele>
        <time>2015-10-08T09:30:04Z</time>
      </trkpt>
      <trkpt lat="44.33458" lon="4.8379">
        <ele>130.395996</ele>
        <time>2015-10-08T09:30:10Z</time>
      </trkpt>
      <trkpt lat="44.33447" lon="4.83792">
        <ele>129.434692</ele>
        <time>2015-10-08T09:30:19Z</time>
      </trkpt>
      <trkpt lat="44.33441" lon="4.83793">
        <ele>129.915283</ele>
        <time>2015-10-08T09:30:25Z</time>
      </trkpt>
      <trkpt lat="44.33427" lon="4.83794">
        <ele>130.395996</ele>
        <time>2015-10-08T09:30:31Z</time>
      </trkpt>
      <trkpt lat="44.33415" lon="4.83798">
        <ele>130.395996</ele>
        <time>2015-10-08T09:30:40Z</time>
      </trkpt>
      <trkpt lat="44.33409" lon="4.83798">
        <ele>130.395996</ele>
        <time>2015-10-08T09:30:46Z</time>
      </trkpt>
      <trkpt lat="44.33404" lon="4.83799">
        <ele>129.915283</ele>
        <time>2015-10-08T09:30:50Z</time>
      </trkpt>
      <trkpt lat="44.33397" lon="4.83801">
        <ele>129.434692</ele>
        <time>2015-10-08T09:30:56Z</time>
      </trkpt>
      <trkpt lat="44.33386" lon="4.83809">
        <ele>128.473389</ele>
        <time>2015-10-08T09:31:04Z</time>
      </trkpt>
      <trkpt lat="44.33383" lon="4.8381">
        <ele>128.473389</ele>
        <time>2015-10-08T09:31:06Z</time>
      </trkpt>
      <trkpt lat="44.33382" lon="4.83813">
        <ele>128.954102</ele>
        <time>2015-10-08T09:31:08Z</time>
      </trkpt>
      <trkpt lat="44.33372" lon="4.83823">
        <ele>127.992554</ele>
        <time>2015-10-08T09:31:16Z</time>
      </trkpt>
      <trkpt lat="44.33368" lon="4.83825">
        <ele>127.031372</ele>
        <time>2015-10-08T09:31:21Z</time>
      </trkpt>
      <trkpt lat="44.3336" lon="4.83827">
        <ele>126.550659</ele>
        <time>2015-10-08T09:31:29Z</time>
      </trkpt>
      <trkpt lat="44.33353" lon="4.83829">
        <ele>126.550659</ele>
        <time>2015-10-08T09:31:35Z</time>
      </trkpt>
      <trkpt lat="44.33343" lon="4.83834">
        <ele>126.069946</ele>
        <time>2015-10-08T09:31:42Z</time>
      </trkpt>
      <trkpt lat="44.33334" lon="4.83831">
        <ele>126.550659</ele>
        <time>2015-10-08T09:31:48Z</time>
      </trkpt>
      <trkpt lat="44.33327" lon="4.8383">
        <ele>125.108765</ele>
        <time>2015-10-08T09:31:55Z</time>
      </trkpt>
      <trkpt lat="44.33325" lon="4.83829">
        <ele>125.108765</ele>
        <time>2015-10-08T09:31:57Z</time>
      </trkpt>
      <trkpt lat="44.33323" lon="4.83828">
        <ele>124.628052</ele>
        <time>2015-10-08T09:31:59Z</time>
      </trkpt>
      <trkpt lat="44.33313" lon="4.83823">
        <ele>124.628052</ele>
        <time>2015-10-08T09:32:08Z</time>
      </trkpt>
      <trkpt lat="44.333" lon="4.83819">
        <ele>124.147339</ele>
        <time>2015-10-08T09:32:15Z</time>
      </trkpt>
      <trkpt lat="44.33297" lon="4.83818">
        <ele>124.628052</ele>
        <time>2015-10-08T09:32:22Z</time>
      </trkpt>
      <trkpt lat="44.33298" lon="4.83819">
        <ele>124.147339</ele>
        <time>2015-10-08T09:32:34Z</time>
      </trkpt>
      <trkpt lat="44.33297" lon="4.8382">
        <ele>124.147339</ele>
        <time>2015-10-08T09:33:23Z</time>
      </trkpt>
      <trkpt lat="44.33288" lon="4.83819">
        <ele>124.147339</ele>
        <time>2015-10-08T09:33:31Z</time>
      </trkpt>
      <trkpt lat="44.3328" lon="4.83818">
        <ele>123.666748</ele>
        <time>2015-10-08T09:33:38Z</time>
      </trkpt>
      <trkpt lat="44.33263" lon="4.83818">
        <ele>123.186157</ele>
        <time>2015-10-08T09:33:51Z</time>
      </trkpt>
      <trkpt lat="44.33257" lon="4.83816">
        <ele>122.705444</ele>
        <time>2015-10-08T09:33:56Z</time>
      </trkpt>
      <trkpt lat="44.33249" lon="4.83817">
        <ele>122.224731</ele>
        <time>2015-10-08T09:34:03Z</time>
      </trkpt>
      <trkpt lat="44.33235" lon="4.83814">
        <ele>122.224731</ele>
        <time>2015-10-08T09:34:12Z</time>
      </trkpt>
      <trkpt lat="44.33223" lon="4.83812">
        <ele>121.744141</ele>
        <time>2015-10-08T09:34:18Z</time>
      </trkpt>
      <trkpt lat="44.3322" lon="4.83813">
        <ele>121.26355</ele>
        <time>2015-10-08T09:34:23Z</time>
      </trkpt>
      <trkpt lat="44.33212" lon="4.83818">
        <ele>120.782837</ele>
        <time>2015-10-08T09:34:30Z</time>
      </trkpt>
      <trkpt lat="44.33206" lon="4.83822">
        <ele>120.782837</ele>
        <time>2015-10-08T09:34:37Z</time>
      </trkpt>
      <trkpt lat="44.332" lon="4.83824">
        <ele>120.302124</ele>
        <time>2015-10-08T09:34:41Z</time>
      </trkpt>
      <trkpt lat="44.33193" lon="4.83823">
        <ele>119.34082</ele>
        <time>2015-10-08T09:34:49Z</time>
      </trkpt>
      <trkpt lat="44.33188" lon="4.83819">
        <ele>119.34082</ele>
        <time>2015-10-08T09:34:56Z</time>
      </trkpt>
      <trkpt lat="44.33175" lon="4.83809">
        <ele>118.860107</ele>
        <time>2015-10-08T09:35:04Z</time>
      </trkpt>
      <trkpt lat="44.33167" lon="4.83806">
        <ele>118.860107</ele>
        <time>2015-10-08T09:35:11Z</time>
      </trkpt>
      <trkpt lat="44.33161" lon="4.83808">
        <ele>118.379395</ele>
        <time>2015-10-08T09:35:17Z</time>
      </trkpt>
      <trkpt lat="44.33149" lon="4.83805">
        <ele>118.379395</ele>
        <time>2015-10-08T09:35:26Z</time>
      </trkpt>
      <trkpt lat="44.33139" lon="4.83803">
        <ele>117.898804</ele>
        <time>2015-10-08T09:35:35Z</time>
      </trkpt>
      <trkpt lat="44.33131" lon="4.83803">
        <ele>118.379395</ele>
        <time>2015-10-08T09:35:41Z</time>
      </trkpt>
      <trkpt lat="44.3313" lon="4.83799">
        <ele>117.898804</ele>
        <time>2015-10-08T09:35:49Z</time>
      </trkpt>
      <trkpt lat="44.33131" lon="4.83799">
        <ele>118.379395</ele>
        <time>2015-10-08T09:36:00Z</time>
      </trkpt>
      <trkpt lat="44.33125" lon="4.83803">
        <ele>118.860107</ele>
        <time>2015-10-08T09:36:10Z</time>
      </trkpt>
      <trkpt lat="44.33116" lon="4.83811">
        <ele>118.379395</ele>
        <time>2015-10-08T09:36:18Z</time>
      </trkpt>
      <trkpt lat="44.33105" lon="4.83812">
        <ele>117.898804</ele>
        <time>2015-10-08T09:36:25Z</time>
      </trkpt>
      <trkpt lat="44.33094" lon="4.83813">
        <ele>116.9375</ele>
        <time>2015-10-08T09:36:32Z</time>
      </trkpt>
      <trkpt lat="44.33091" lon="4.83812">
        <ele>116.9375</ele>
        <time>2015-10-08T09:36:36Z</time>
      </trkpt>
      <trkpt lat="44.33085" lon="4.83813">
        <ele>117.418213</ele>
        <time>2015-10-08T09:36:42Z</time>
      </trkpt>
      <trkpt lat="44.33082" lon="4.83813">
        <ele>116.9375</ele>
        <time>2015-10-08T09:36:45Z</time>
      </trkpt>
      <trkpt lat="44.33069" lon="4.83812">
        <ele>116.456787</ele>
        <time>2015-10-08T09:36:53Z</time>
      </trkpt>
      <trkpt lat="44.33064" lon="4.83813">
        <ele>115.976196</ele>
        <time>2015-10-08T09:36:59Z</time>
      </trkpt>
      <trkpt lat="44.33061" lon="4.83815">
        <ele>115.976196</ele>
        <time>2015-10-08T09:37:01Z</time>
      </trkpt>
      <trkpt lat="44.33048" lon="4.83815">
        <ele>115.976196</ele>
        <time>2015-10-08T09:37:08Z</time>
      </trkpt>
      <trkpt lat="44.3304" lon="4.83816">
        <ele>115.495605</ele>
        <time>2015-10-08T09:37:15Z</time>
      </trkpt>
      <trkpt lat="44.33036" lon="4.83817">
        <ele>115.014893</ele>
        <time>2015-10-08T09:37:18Z</time>
      </trkpt>
      <trkpt lat="44.33026" lon="4.83817">
        <ele>115.014893</ele>
        <time>2015-10-08T09:37:26Z</time>
      </trkpt>
      <trkpt lat="44.33024" lon="4.83815">
        <ele>115.014893</ele>
        <time>2015-10-08T09:37:30Z</time>
      </trkpt>
      <trkpt lat="44.3302" lon="4.83812">
        <ele>114.53418</ele>
        <time>2015-10-08T09:37:34Z</time>
      </trkpt>
      <trkpt lat="44.33013" lon="4.83811">
        <ele>114.053589</ele>
        <time>2015-10-08T09:37:39Z</time>
      </trkpt>
      <trkpt lat="44.33003" lon="4.83808">
        <ele>114.053589</ele>
        <time>2015-10-08T09:37:46Z</time>
      </trkpt>
      <trkpt lat="44.32991" lon="4.83807">
        <ele>113.572998</ele>
        <time>2015-10-08T09:37:55Z</time>
      </trkpt>
      <trkpt lat="44.32977" lon="4.83799">
        <ele>113.572998</ele>
        <time>2015-10-08T09:38:07Z</time>
      </trkpt>
      <trkpt lat="44.32966" lon="4.83796">
        <ele>113.092285</ele>
        <time>2015-10-08T09:38:16Z</time>
      </trkpt>
      <trkpt lat="44.32946" lon="4.83795">
        <ele>112.611572</ele>
        <time>2015-10-08T09:38:32Z</time>
      </trkpt>
      <trkpt lat="44.32933" lon="4.83795">
        <ele>112.130981</ele>
        <time>2015-10-08T09:38:44Z</time>
      </trkpt>
      <trkpt lat="44.32921" lon="4.83793">
        <ele>111.650269</ele>
        <time>2015-10-08T09:38:53Z</time>
      </trkpt>
      <trkpt lat="44.32909" lon="4.8379">
        <ele>112.130981</ele>
        <time>2015-10-08T09:39:03Z</time>
      </trkpt>
      <trkpt lat="44.32908" lon="4.8379">
        <ele>112.130981</ele>
        <time>2015-10-08T09:39:04Z</time>
      </trkpt>
      <trkpt lat="44.32898" lon="4.83793">
        <ele>111.650269</ele>
        <time>2015-10-08T09:39:12Z</time>
      </trkpt>
      <trkpt lat="44.32885" lon="4.83794">
        <ele>110.688843</ele>
        <time>2015-10-08T09:39:23Z</time>
      </trkpt>
      <trkpt lat="44.32872" lon="4.83794">
        <ele>109.727661</ele>
        <time>2015-10-08T09:39:33Z</time>
      </trkpt>
      <trkpt lat="44.32868" lon="4.83796">
        <ele>109.246948</ele>
        <time>2015-10-08T09:39:36Z</time>
      </trkpt>
      <trkpt lat="44.32862" lon="4.83797">
        <ele>108.766235</ele>
        <time>2015-10-08T09:39:42Z</time>
      </trkpt>
      <trkpt lat="44.32846" lon="4.83803">
        <ele>109.246948</ele>
        <time>2015-10-08T09:39:54Z</time>
      </trkpt>
      <trkpt lat="44.32836" lon="4.83804">
        <ele>108.285645</ele>
        <time>2015-10-08T09:40:03Z</time>
      </trkpt>
      <trkpt lat="44.32824" lon="4.8381">
        <ele>107.805054</ele>
        <time>2015-10-08T09:40:13Z</time>
      </trkpt>
      <trkpt lat="44.32809" lon="4.83819">
        <ele>107.805054</ele>
        <time>2015-10-08T09:40:25Z</time>
      </trkpt>
      <trkpt lat="44.32798" lon="4.83819">
        <ele>107.324341</ele>
        <time>2015-10-08T09:40:33Z</time>
      </trkpt>
      <trkpt lat="44.32783" lon="4.83812">
        <ele>107.324341</ele>
        <time>2015-10-08T09:40:44Z</time>
      </trkpt>
      <trkpt lat="44.32765" lon="4.83804">
        <ele>107.805054</ele>
        <time>2015-10-08T09:40:58Z</time>
      </trkpt>
      <trkpt lat="44.32757" lon="4.83807">
        <ele>107.324341</ele>
        <time>2015-10-08T09:41:09Z</time>
      </trkpt>
      <trkpt lat="44.32755" lon="4.83809">
        <ele>107.805054</ele>
        <time>2015-10-08T09:41:22Z</time>
      </trkpt>
      <trkpt lat="44.3275" lon="4.8381">
        <ele>107.324341</ele>
        <time>2015-10-08T09:41:28Z</time>
      </trkpt>
      <trkpt lat="44.32744" lon="4.83803">
        <ele>106.843628</ele>
        <time>2015-10-08T09:41:36Z</time>
      </trkpt>
      <trkpt lat="44.32737" lon="4.83786">
        <ele>106.363037</ele>
        <time>2015-10-08T09:41:49Z</time>
      </trkpt>
      <trkpt lat="44.3273" lon="4.83767">
        <ele>106.363037</ele>
        <time>2015-10-08T09:42:00Z</time>
      </trkpt>
      <trkpt lat="44.32722" lon="4.83741">
        <ele>104.44043</ele>
        <time>2015-10-08T09:42:15Z</time>
      </trkpt>
      <trkpt lat="44.3272" lon="4.83715">
        <ele>102.998291</ele>
        <time>2015-10-08T09:42:29Z</time>
      </trkpt>
      <trkpt lat="44.32719" lon="4.83706">
        <ele>102.5177</ele>
        <time>2015-10-08T09:42:34Z</time>
      </trkpt>
      <trkpt lat="44.3272" lon="4.83683">
        <ele>102.037109</ele>
        <time>2015-10-08T09:42:48Z</time>
      </trkpt>
      <trkpt lat="44.32718" lon="4.83666">
        <ele>101.556396</ele>
        <time>2015-10-08T09:42:57Z</time>
      </trkpt>
      <trkpt lat="44.32718" lon="4.83646">
        <ele>101.075684</ele>
        <time>2015-10-08T09:43:09Z</time>
      </trkpt>
      <trkpt lat="44.32717" lon="4.83633">
        <ele>101.075684</ele>
        <time>2015-10-08T09:43:17Z</time>
      </trkpt>
      <trkpt lat="44.32719" lon="4.83611">
        <ele>99.633789</ele>
        <time>2015-10-08T09:43:29Z</time>
      </trkpt>
      <trkpt lat="44.32726" lon="4.83585">
        <ele>98.191895</ele>
        <time>2015-10-08T09:43:44Z</time>
      </trkpt>
      <trkpt lat="44.32726" lon="4.83582">
        <ele>97.711182</ele>
        <time>2015-10-08T09:43:46Z</time>
      </trkpt>
      <trkpt lat="44.32729" lon="4.83573">
        <ele>98.191895</ele>
        <time>2015-10-08T09:43:51Z</time>
      </trkpt>
      <trkpt lat="44.32736" lon="4.83557">
        <ele>97.711182</ele>
        <time>2015-10-08T09:44:00Z</time>
      </trkpt>
      <trkpt lat="44.32742" lon="4.83543">
        <ele>97.230469</ele>
        <time>2015-10-08T09:44:10Z</time>
      </trkpt>
      <trkpt lat="44.32744" lon="4.83539">
        <ele>95.788452</ele>
        <time>2015-10-08T09:44:13Z</time>
      </trkpt>
      <trkpt lat="44.32753" lon="4.83523">
        <ele>95.307739</ele>
        <time>2015-10-08T09:44:23Z</time>
      </trkpt>
      <trkpt lat="44.3276" lon="4.83511">
        <ele>94.346558</ele>
        <time>2015-10-08T09:44:32Z</time>
      </trkpt>
      <trkpt lat="44.3277" lon="4.83499">
        <ele>94.346558</ele>
        <time>2015-10-08T09:44:43Z</time>
      </trkpt>
      <trkpt lat="44.3278" lon="4.83489">
        <ele>93.865845</ele>
        <time>2015-10-08T09:44:52Z</time>
      </trkpt>
      <trkpt lat="44.3279" lon="4.83474">
        <ele>93.865845</ele>
        <time>2015-10-08T09:45:02Z</time>
      </trkpt>
      <trkpt lat="44.32791" lon="4.83472">
        <ele>93.865845</ele>
        <time>2015-10-08T09:45:04Z</time>
      </trkpt>
      <trkpt lat="44.32793" lon="4.83467">
        <ele>93.385132</ele>
        <time>2015-10-08T09:45:08Z</time>
      </trkpt>
      <trkpt lat="44.32809" lon="4.83444">
        <ele>92.42395</ele>
        <time>2015-10-08T09:45:25Z</time>
      </trkpt>
      <trkpt lat="44.32816" lon="4.83434">
        <ele>92.904541</ele>
        <time>2015-10-08T09:45:31Z</time>
      </trkpt>
      <trkpt lat="44.32824" lon="4.83424">
        <ele>92.42395</ele>
        <time>2015-10-08T09:45:40Z</time>
      </trkpt>
      <trkpt lat="44.32829" lon="4.83418">
        <ele>91.943237</ele>
        <time>2015-10-08T09:45:44Z</time>
      </trkpt>
      <trkpt lat="44.32838" lon="4.83402">
        <ele>91.943237</ele>
        <time>2015-10-08T09:45:53Z</time>
      </trkpt>
      <trkpt lat="44.32839" lon="4.83397">
        <ele>92.42395</ele>
        <time>2015-10-08T09:45:57Z</time>
      </trkpt>
      <trkpt lat="44.32841" lon="4.83394">
        <ele>92.42395</ele>
        <time>2015-10-08T09:45:59Z</time>
      </trkpt>
      <trkpt lat="44.32847" lon="4.83385">
        <ele>92.42395</ele>
        <time>2015-10-08T09:46:07Z</time>
      </trkpt>
      <trkpt lat="44.32853" lon="4.83376">
        <ele>92.42395</ele>
        <time>2015-10-08T09:46:12Z</time>
      </trkpt>
      <trkpt lat="44.32861" lon="4.83365">
        <ele>91.943237</ele>
        <time>2015-10-08T09:46:19Z</time>
      </trkpt>
      <trkpt lat="44.32868" lon="4.83354">
        <ele>91.462524</ele>
        <time>2015-10-08T09:46:28Z</time>
      </trkpt>
      <trkpt lat="44.32873" lon="4.83349">
        <ele>90.981934</ele>
        <time>2015-10-08T09:46:31Z</time>
      </trkpt>
      <trkpt lat="44.32874" lon="4.83345">
        <ele>90.981934</ele>
        <time>2015-10-08T09:46:34Z</time>
      </trkpt>
      <trkpt lat="44.32876" lon="4.83334">
        <ele>90.981934</ele>
        <time>2015-10-08T09:46:40Z</time>
      </trkpt>
      <trkpt lat="44.32877" lon="4.83333">
        <ele>90.981934</ele>
        <time>2015-10-08T09:46:41Z</time>
      </trkpt>
      <trkpt lat="44.3288" lon="4.83318">
        <ele>91.462524</ele>
        <time>2015-10-08T09:46:48Z</time>
      </trkpt>
      <trkpt lat="44.3288" lon="4.83309">
        <ele>91.462524</ele>
        <time>2015-10-08T09:46:54Z</time>
      </trkpt>
      <trkpt lat="44.32886" lon="4.83291">
        <ele>90.501343</ele>
        <time>2015-10-08T09:47:04Z</time>
      </trkpt>
      <trkpt lat="44.32888" lon="4.8328">
        <ele>90.02063</ele>
        <time>2015-10-08T09:47:09Z</time>
      </trkpt>
      <trkpt lat="44.32893" lon="4.83271">
        <ele>90.02063</ele>
        <time>2015-10-08T09:47:16Z</time>
      </trkpt>
      <trkpt lat="44.32897" lon="4.83255">
        <ele>89.059326</ele>
        <time>2015-10-08T09:47:25Z</time>
      </trkpt>
      <trkpt lat="44.329" lon="4.8325">
        <ele>89.059326</ele>
        <time>2015-10-08T09:47:29Z</time>
      </trkpt>
      <trkpt lat="44.32908" lon="4.83242">
        <ele>89.539917</ele>
        <time>2015-10-08T09:47:35Z</time>
      </trkpt>
      <trkpt lat="44.3291" lon="4.83233">
        <ele>89.059326</ele>
        <time>2015-10-08T09:47:43Z</time>
      </trkpt>
      <trkpt lat="44.32914" lon="4.83219">
        <ele>88.578735</ele>
        <time>2015-10-08T09:47:52Z</time>
      </trkpt>
      <trkpt lat="44.32919" lon="4.83209">
        <ele>88.098022</ele>
        <time>2015-10-08T09:47:59Z</time>
      </trkpt>
      <trkpt lat="44.32925" lon="4.83183">
        <ele>89.059326</ele>
        <time>2015-10-08T09:48:10Z</time>
      </trkpt>
      <trkpt lat="44.32935" lon="4.83173">
        <ele>89.059326</ele>
        <time>2015-10-08T09:48:18Z</time>
      </trkpt>
      <trkpt lat="44.32934" lon="4.8317">
        <ele>89.059326</ele>
        <time>2015-10-08T09:48:21Z</time>
      </trkpt>
      <trkpt lat="44.32938" lon="4.83161">
        <ele>89.539917</ele>
        <time>2015-10-08T09:48:27Z</time>
      </trkpt>
      <trkpt lat="44.32941" lon="4.83148">
        <ele>89.539917</ele>
        <time>2015-10-08T09:48:35Z</time>
      </trkpt>
      <trkpt lat="44.32946" lon="4.83139">
        <ele>88.578735</ele>
        <time>2015-10-08T09:48:41Z</time>
      </trkpt>
      <trkpt lat="44.32943" lon="4.83128">
        <ele>88.098022</ele>
        <time>2015-10-08T09:48:48Z</time>
      </trkpt>
      <trkpt lat="44.32945" lon="4.83107">
        <ele>88.578735</ele>
        <time>2015-10-08T09:48:59Z</time>
      </trkpt>
      <trkpt lat="44.32945" lon="4.83098">
        <ele>89.059326</ele>
        <time>2015-10-08T09:49:03Z</time>
      </trkpt>
      <trkpt lat="44.32943" lon="4.83092">
        <ele>89.059326</ele>
        <time>2015-10-08T09:49:06Z</time>
      </trkpt>
      <trkpt lat="44.32943" lon="4.83079">
        <ele>88.098022</ele>
        <time>2015-10-08T09:49:14Z</time>
      </trkpt>
      <trkpt lat="44.32942" lon="4.83069">
        <ele>88.578735</ele>
        <time>2015-10-08T09:49:22Z</time>
      </trkpt>
      <trkpt lat="44.32943" lon="4.8305">
        <ele>89.539917</ele>
        <time>2015-10-08T09:49:31Z</time>
      </trkpt>
      <trkpt lat="44.32943" lon="4.83049">
        <ele>89.539917</ele>
        <time>2015-10-08T09:49:32Z</time>
      </trkpt>
      <trkpt lat="44.32943" lon="4.83032">
        <ele>89.539917</ele>
        <time>2015-10-08T09:49:38Z</time>
      </trkpt>
      <trkpt lat="44.32943" lon="4.83027">
        <ele>89.539917</ele>
        <time>2015-10-08T09:49:41Z</time>
      </trkpt>
      <trkpt lat="44.32942" lon="4.83016">
        <ele>89.539917</ele>
        <time>2015-10-08T09:49:48Z</time>
      </trkpt>
      <trkpt lat="44.32941" lon="4.83011">
        <ele>89.059326</ele>
        <time>2015-10-08T09:49:51Z</time>
      </trkpt>
      <trkpt lat="44.3294" lon="4.83006">
        <ele>89.539917</ele>
        <time>2015-10-08T09:49:54Z</time>
      </trkpt>
      <trkpt lat="44.32936" lon="4.8299">
        <ele>89.539917</ele>
        <time>2015-10-08T09:50:03Z</time>
      </trkpt>
      <trkpt lat="44.32936" lon="4.82977">
        <ele>89.539917</ele>
        <time>2015-10-08T09:50:11Z</time>
      </trkpt>
      <trkpt lat="44.32936" lon="4.82962">
        <ele>89.539917</ele>
        <time>2015-10-08T09:50:19Z</time>
      </trkpt>
      <trkpt lat="44.32937" lon="4.82953">
        <ele>89.539917</ele>
        <time>2015-10-08T09:50:25Z</time>
      </trkpt>
      <trkpt lat="44.32934" lon="4.8294">
        <ele>89.539917</ele>
        <time>2015-10-08T09:50:30Z</time>
      </trkpt>
      <trkpt lat="44.32934" lon="4.82936">
        <ele>89.059326</ele>
        <time>2015-10-08T09:50:32Z</time>
      </trkpt>
      <trkpt lat="44.32933" lon="4.82926">
        <ele>89.059326</ele>
        <time>2015-10-08T09:50:37Z</time>
      </trkpt>
      <trkpt lat="44.32931" lon="4.82922">
        <ele>89.059326</ele>
        <time>2015-10-08T09:50:40Z</time>
      </trkpt>
      <trkpt lat="44.32929" lon="4.82911">
        <ele>89.539917</ele>
        <time>2015-10-08T09:50:47Z</time>
      </trkpt>
      <trkpt lat="44.32925" lon="4.82902">
        <ele>90.02063</ele>
        <time>2015-10-08T09:50:52Z</time>
      </trkpt>
      <trkpt lat="44.32925" lon="4.82901">
        <ele>90.02063</ele>
        <time>2015-10-08T09:50:53Z</time>
      </trkpt>
      <trkpt lat="44.32925" lon="4.8289">
        <ele>90.02063</ele>
        <time>2015-10-08T09:50:59Z</time>
      </trkpt>
      <trkpt lat="44.32923" lon="4.82886">
        <ele>90.501343</ele>
        <time>2015-10-08T09:51:02Z</time>
      </trkpt>
      <trkpt lat="44.32924" lon="4.82879">
        <ele>90.501343</ele>
        <time>2015-10-08T09:51:07Z</time>
      </trkpt>
      <trkpt lat="44.32924" lon="4.82864">
        <ele>90.02063</ele>
        <time>2015-10-08T09:51:15Z</time>
      </trkpt>
      <trkpt lat="44.32915" lon="4.82858">
        <ele>90.501343</ele>
        <time>2015-10-08T09:51:24Z</time>
      </trkpt>
      <trkpt lat="44.32913" lon="4.82859">
        <ele>90.501343</ele>
        <time>2015-10-08T09:51:26Z</time>
      </trkpt>
      <trkpt lat="44.32907" lon="4.82865">
        <ele>90.501343</ele>
        <time>2015-10-08T09:51:32Z</time>
      </trkpt>
      <trkpt lat="44.32904" lon="4.82871">
        <ele>90.02063</ele>
        <time>2015-10-08T09:51:37Z</time>
      </trkpt>
      <trkpt lat="44.32902" lon="4.8288">
        <ele>89.539917</ele>
        <time>2015-10-08T09:51:43Z</time>
      </trkpt>
      <trkpt lat="44.32894" lon="4.8289">
        <ele>89.539917</ele>
        <time>2015-10-08T09:51:51Z</time>
      </trkpt>
      <trkpt lat="44.32888" lon="4.82896">
        <ele>89.539917</ele>
        <time>2015-10-08T09:51:58Z</time>
      </trkpt>
      <trkpt lat="44.32887" lon="4.82898">
        <ele>89.539917</ele>
        <time>2015-10-08T09:52:00Z</time>
      </trkpt>
      <trkpt lat="44.32884" lon="4.82903">
        <ele>90.501343</ele>
        <time>2015-10-08T09:52:07Z</time>
      </trkpt>
      <trkpt lat="44.32882" lon="4.82905">
        <ele>90.02063</ele>
        <time>2015-10-08T09:52:10Z</time>
      </trkpt>
      <trkpt lat="44.32873" lon="4.82917">
        <ele>90.02063</ele>
        <time>2015-10-08T09:52:19Z</time>
      </trkpt>
      <trkpt lat="44.32871" lon="4.82919">
        <ele>89.539917</ele>
        <time>2015-10-08T09:52:21Z</time>
      </trkpt>
      <trkpt lat="44.32862" lon="4.82927">
        <ele>90.501343</ele>
        <time>2015-10-08T09:52:30Z</time>
      </trkpt>
      <trkpt lat="44.32855" lon="4.82935">
        <ele>90.02063</ele>
        <time>2015-10-08T09:52:36Z</time>
      </trkpt>
      <trkpt lat="44.32854" lon="4.82937">
        <ele>90.501343</ele>
        <time>2015-10-08T09:52:37Z</time>
      </trkpt>
      <trkpt lat="44.32848" lon="4.82948">
        <ele>90.02063</ele>
        <time>2015-10-08T09:52:45Z</time>
      </trkpt>
      <trkpt lat="44.32844" lon="4.82956">
        <ele>90.501343</ele>
        <time>2015-10-08T09:52:52Z</time>
      </trkpt>
      <trkpt lat="44.32832" lon="4.8296">
        <ele>91.462524</ele>
        <time>2015-10-08T09:53:01Z</time>
      </trkpt>
      <trkpt lat="44.32822" lon="4.8296">
        <ele>92.42395</ele>
        <time>2015-10-08T09:53:09Z</time>
      </trkpt>
      <trkpt lat="44.32811" lon="4.82956">
        <ele>91.462524</ele>
        <time>2015-10-08T09:53:21Z</time>
      </trkpt>
      <trkpt lat="44.32794" lon="4.82957">
        <ele>90.981934</ele>
        <time>2015-10-08T09:53:32Z</time>
      </trkpt>
      <trkpt lat="44.32789" lon="4.82963">
        <ele>90.981934</ele>
        <time>2015-10-08T09:53:37Z</time>
      </trkpt>
      <trkpt lat="44.32778" lon="4.82971">
        <ele>90.981934</ele>
        <time>2015-10-08T09:53:47Z</time>
      </trkpt>
      <trkpt lat="44.32768" lon="4.82979">
        <ele>92.42395</ele>
        <time>2015-10-08T09:54:01Z</time>
      </trkpt>
      <trkpt lat="44.32755" lon="4.82984">
        <ele>92.42395</ele>
        <time>2015-10-08T09:54:12Z</time>
      </trkpt>
      <trkpt lat="44.32733" lon="4.82993">
        <ele>93.385132</ele>
        <time>2015-10-08T09:54:26Z</time>
      </trkpt>
      <trkpt lat="44.32719" lon="4.83001">
        <ele>93.385132</ele>
        <time>2015-10-08T09:54:35Z</time>
      </trkpt>
      <trkpt lat="44.32707" lon="4.83008">
        <ele>93.385132</ele>
        <time>2015-10-08T09:54:46Z</time>
      </trkpt>
      <trkpt lat="44.32696" lon="4.83023">
        <ele>92.904541</ele>
        <time>2015-10-08T09:54:56Z</time>
      </trkpt>
      <trkpt lat="44.32691" lon="4.83028">
        <ele>93.385132</ele>
        <time>2015-10-08T09:55:04Z</time>
      </trkpt>
      <trkpt lat="44.32682" lon="4.83036">
        <ele>93.385132</ele>
        <time>2015-10-08T09:55:12Z</time>
      </trkpt>
      <trkpt lat="44.32671" lon="4.83051">
        <ele>93.385132</ele>
        <time>2015-10-08T09:55:24Z</time>
      </trkpt>
      <trkpt lat="44.32662" lon="4.83067">
        <ele>92.904541</ele>
        <time>2015-10-08T09:55:33Z</time>
      </trkpt>
      <trkpt lat="44.32655" lon="4.83076">
        <ele>92.42395</ele>
        <time>2015-10-08T09:55:39Z</time>
      </trkpt>
      <trkpt lat="44.32647" lon="4.83086">
        <ele>92.904541</ele>
        <time>2015-10-08T09:55:48Z</time>
      </trkpt>
      <trkpt lat="44.32641" lon="4.83093">
        <ele>93.385132</ele>
        <time>2015-10-08T09:55:57Z</time>
      </trkpt>
      <trkpt lat="44.32628" lon="4.83099">
        <ele>93.865845</ele>
        <time>2015-10-08T09:56:09Z</time>
      </trkpt>
      <trkpt lat="44.32617" lon="4.8311">
        <ele>93.385132</ele>
        <time>2015-10-08T09:56:17Z</time>
      </trkpt>
      <trkpt lat="44.32611" lon="4.83116">
        <ele>93.385132</ele>
        <time>2015-10-08T09:56:22Z</time>
      </trkpt>
      <trkpt lat="44.32602" lon="4.83128">
        <ele>92.904541</ele>
        <time>2015-10-08T09:56:30Z</time>
      </trkpt>
      <trkpt lat="44.32598" lon="4.8313">
        <ele>92.904541</ele>
        <time>2015-10-08T09:56:32Z</time>
      </trkpt>
      <trkpt lat="44.32585" lon="4.83128">
        <ele>92.42395</ele>
        <time>2015-10-08T09:56:42Z</time>
      </trkpt>
      <trkpt lat="44.32574" lon="4.83127">
        <ele>92.42395</ele>
        <time>2015-10-08T09:56:50Z</time>
      </trkpt>
      <trkpt lat="44.32563" lon="4.83118">
        <ele>92.42395</ele>
        <time>2015-10-08T09:57:01Z</time>
      </trkpt>
      <trkpt lat="44.32551" lon="4.83112">
        <ele>93.385132</ele>
        <time>2015-10-08T09:57:12Z</time>
      </trkpt>
      <trkpt lat="44.32541" lon="4.83105">
        <ele>93.385132</ele>
        <time>2015-10-08T09:57:20Z</time>
      </trkpt>
      <trkpt lat="44.32533" lon="4.83098">
        <ele>93.385132</ele>
        <time>2015-10-08T09:57:28Z</time>
      </trkpt>
      <trkpt lat="44.32531" lon="4.83098">
        <ele>93.385132</ele>
        <time>2015-10-08T09:57:29Z</time>
      </trkpt>
      <trkpt lat="44.32521" lon="4.83092">
        <ele>93.865845</ele>
        <time>2015-10-08T09:57:39Z</time>
      </trkpt>
      <trkpt lat="44.32505" lon="4.83085">
        <ele>93.865845</ele>
        <time>2015-10-08T09:57:50Z</time>
      </trkpt>
      <trkpt lat="44.32493" lon="4.83077">
        <ele>94.346558</ele>
        <time>2015-10-08T09:57:59Z</time>
      </trkpt>
      <trkpt lat="44.32484" lon="4.83077">
        <ele>94.346558</ele>
        <time>2015-10-08T09:58:05Z</time>
      </trkpt>
      <trkpt lat="44.32474" lon="4.83073">
        <ele>94.346558</ele>
        <time>2015-10-08T09:58:13Z</time>
      </trkpt>
      <trkpt lat="44.32467" lon="4.83071">
        <ele>93.865845</ele>
        <time>2015-10-08T09:58:21Z</time>
      </trkpt>
      <trkpt lat="44.3246" lon="4.83072">
        <ele>93.865845</ele>
        <time>2015-10-08T09:58:27Z</time>
      </trkpt>
      <trkpt lat="44.32452" lon="4.83065">
        <ele>94.346558</ele>
        <time>2015-10-08T09:58:35Z</time>
      </trkpt>
      <trkpt lat="44.32442" lon="4.83063">
        <ele>94.827148</ele>
        <time>2015-10-08T09:58:45Z</time>
      </trkpt>
      <trkpt lat="44.32425" lon="4.83066">
        <ele>95.307739</ele>
        <time>2015-10-08T09:58:58Z</time>
      </trkpt>
      <trkpt lat="44.32411" lon="4.83067">
        <ele>95.307739</ele>
        <time>2015-10-08T09:59:11Z</time>
      </trkpt>
      <trkpt lat="44.32397" lon="4.83069">
        <ele>95.788452</ele>
        <time>2015-10-08T09:59:24Z</time>
      </trkpt>
      <trkpt lat="44.32378" lon="4.8307">
        <ele>95.307739</ele>
        <time>2015-10-08T09:59:37Z</time>
      </trkpt>
      <trkpt lat="44.32369" lon="4.83071">
        <ele>94.827148</ele>
        <time>2015-10-08T09:59:46Z</time>
      </trkpt>
      <trkpt lat="44.3236" lon="4.83079">
        <ele>94.827148</ele>
        <time>2015-10-08T09:59:54Z</time>
      </trkpt>
      <trkpt lat="44.32356" lon="4.83087">
        <ele>94.827148</ele>
        <time>2015-10-08T09:59:58Z</time>
      </trkpt>
      <trkpt lat="44.32347" lon="4.8309">
        <ele>93.865845</ele>
        <time>2015-10-08T10:00:04Z</time>
      </trkpt>
      <trkpt lat="44.32344" lon="4.8309">
        <ele>93.865845</ele>
        <time>2015-10-08T10:00:06Z</time>
      </trkpt>
      <trkpt lat="44.32337" lon="4.83095">
        <ele>93.385132</ele>
        <time>2015-10-08T10:00:12Z</time>
      </trkpt>
      <trkpt lat="44.32334" lon="4.83096">
        <ele>93.385132</ele>
        <time>2015-10-08T10:00:14Z</time>
      </trkpt>
      <trkpt lat="44.32318" lon="4.83097">
        <ele>94.827148</ele>
        <time>2015-10-08T10:00:24Z</time>
      </trkpt>
      <trkpt lat="44.32316" lon="4.83097">
        <ele>94.827148</ele>
        <time>2015-10-08T10:00:26Z</time>
      </trkpt>
      <trkpt lat="44.32306" lon="4.83103">
        <ele>95.307739</ele>
        <time>2015-10-08T10:00:34Z</time>
      </trkpt>
      <trkpt lat="44.323" lon="4.83105">
        <ele>95.788452</ele>
        <time>2015-10-08T10:00:40Z</time>
      </trkpt>
      <trkpt lat="44.32289" lon="4.83108">
        <ele>95.307739</ele>
        <time>2015-10-08T10:00:49Z</time>
      </trkpt>
      <trkpt lat="44.3228" lon="4.83109">
        <ele>94.827148</ele>
        <time>2015-10-08T10:00:55Z</time>
      </trkpt>
      <trkpt lat="44.32273" lon="4.8311">
        <ele>95.307739</ele>
        <time>2015-10-08T10:01:03Z</time>
      </trkpt>
      <trkpt lat="44.32261" lon="4.83112">
        <ele>95.788452</ele>
        <time>2015-10-08T10:01:11Z</time>
      </trkpt>
      <trkpt lat="44.32259" lon="4.83113">
        <ele>96.269287</ele>
        <time>2015-10-08T10:01:17Z</time>
      </trkpt>
      <trkpt lat="44.32258" lon="4.83113">
        <ele>96.269287</ele>
        <time>2015-10-08T10:01:31Z</time>
      </trkpt>
      <trkpt lat="44.32256" lon="4.83113">
        <ele>96.269287</ele>
        <time>2015-10-08T10:01:45Z</time>
      </trkpt>
      <trkpt lat="44.32251" lon="4.8311">
        <ele>96.749878</ele>
        <time>2015-10-08T10:02:57Z</time>
      </trkpt>
      <trkpt lat="44.32242" lon="4.83109">
        <ele>96.749878</ele>
        <time>2015-10-08T10:03:05Z</time>
      </trkpt>
      <trkpt lat="44.32236" lon="4.83109">
        <ele>97.711182</ele>
        <time>2015-10-08T10:03:12Z</time>
      </trkpt>
      <trkpt lat="44.32227" lon="4.83112">
        <ele>97.711182</ele>
        <time>2015-10-08T10:03:19Z</time>
      </trkpt>
      <trkpt lat="44.32226" lon="4.83113">
        <ele>97.711182</ele>
        <time>2015-10-08T10:03:22Z</time>
      </trkpt>
      <trkpt lat="44.32224" lon="4.83113">
        <ele>97.711182</ele>
        <time>2015-10-08T10:03:24Z</time>
      </trkpt>
      <trkpt lat="44.32217" lon="4.83112">
        <ele>97.711182</ele>
        <time>2015-10-08T10:03:31Z</time>
      </trkpt>
      <trkpt lat="44.32211" lon="4.83111">
        <ele>98.191895</ele>
        <time>2015-10-08T10:03:37Z</time>
      </trkpt>
      <trkpt lat="44.32206" lon="4.83112">
        <ele>99.153076</ele>
        <time>2015-10-08T10:03:41Z</time>
      </trkpt>
      <trkpt lat="44.32198" lon="4.83107">
        <ele>99.633789</ele>
        <time>2015-10-08T10:03:48Z</time>
      </trkpt>
      <trkpt lat="44.32191" lon="4.83106">
        <ele>101.075684</ele>
        <time>2015-10-08T10:03:55Z</time>
      </trkpt>
      <trkpt lat="44.32187" lon="4.83114">
        <ele>100.595093</ele>
        <time>2015-10-08T10:04:04Z</time>
      </trkpt>
      <trkpt lat="44.32182" lon="4.83125">
        <ele>99.633789</ele>
        <time>2015-10-08T10:04:14Z</time>
      </trkpt>
      <trkpt lat="44.32181" lon="4.8313">
        <ele>100.114502</ele>
        <time>2015-10-08T10:04:23Z</time>
      </trkpt>
      <trkpt lat="44.32181" lon="4.83138">
        <ele>99.153076</ele>
        <time>2015-10-08T10:05:10Z</time>
      </trkpt>
      <trkpt lat="44.32189" lon="4.83147">
        <ele>98.191895</ele>
        <time>2015-10-08T10:05:19Z</time>
      </trkpt>
      <trkpt lat="44.32193" lon="4.83157">
        <ele>97.230469</ele>
        <time>2015-10-08T10:05:29Z</time>
      </trkpt>
      <trkpt lat="44.32193" lon="4.83157">
        <ele>97.230469</ele>
        <time>2015-10-08T10:05:39Z</time>
      </trkpt>
      <trkpt lat="44.32199" lon="4.83162">
        <ele>96.749878</ele>
        <time>2015-10-08T10:05:46Z</time>
      </trkpt>
      <trkpt lat="44.32205" lon="4.83173">
        <ele>96.269287</ele>
        <time>2015-10-08T10:05:56Z</time>
      </trkpt>
      <trkpt lat="44.32215" lon="4.83179">
        <ele>95.307739</ele>
        <time>2015-10-08T10:06:07Z</time>
      </trkpt>
      <trkpt lat="44.32221" lon="4.83183">
        <ele>95.788452</ele>
        <time>2015-10-08T10:06:13Z</time>
      </trkpt>
      <trkpt lat="44.32237" lon="4.83192">
        <ele>94.827148</ele>
        <time>2015-10-08T10:06:25Z</time>
      </trkpt>
      <trkpt lat="44.3224" lon="4.83193">
        <ele>94.827148</ele>
        <time>2015-10-08T10:06:34Z</time>
      </trkpt>
      <trkpt lat="44.32244" lon="4.83196">
        <ele>94.346558</ele>
        <time>2015-10-08T10:06:42Z</time>
      </trkpt>
      <trkpt lat="44.32255" lon="4.83205">
        <ele>94.346558</ele>
        <time>2015-10-08T10:06:49Z</time>
      </trkpt>
      <trkpt lat="44.32266" lon="4.83215">
        <ele>93.385132</ele>
        <time>2015-10-08T10:06:57Z</time>
      </trkpt>
      <trkpt lat="44.32273" lon="4.83225">
        <ele>93.385132</ele>
        <time>2015-10-08T10:07:06Z</time>
      </trkpt>
      <trkpt lat="44.32278" lon="4.83237">
        <ele>92.904541</ele>
        <time>2015-10-08T10:07:16Z</time>
      </trkpt>
      <trkpt lat="44.32278" lon="4.83246">
        <ele>93.385132</ele>
        <time>2015-10-08T10:07:23Z</time>
      </trkpt>
      <trkpt lat="44.32278" lon="4.83249">
        <ele>93.385132</ele>
        <time>2015-10-08T10:07:25Z</time>
      </trkpt>
      <trkpt lat="44.32281" lon="4.83255">
        <ele>92.904541</ele>
        <time>2015-10-08T10:07:31Z</time>
      </trkpt>
      <trkpt lat="44.32283" lon="4.83262">
        <ele>92.42395</ele>
        <time>2015-10-08T10:07:36Z</time>
      </trkpt>
      <trkpt lat="44.32294" lon="4.83287">
        <ele>91.943237</ele>
        <time>2015-10-08T10:07:50Z</time>
      </trkpt>
      <trkpt lat="44.32299" lon="4.83305">
        <ele>91.943237</ele>
        <time>2015-10-08T10:08:00Z</time>
      </trkpt>
      <trkpt lat="44.32306" lon="4.83323">
        <ele>91.943237</ele>
        <time>2015-10-08T10:08:11Z</time>
      </trkpt>
      <trkpt lat="44.32308" lon="4.83333">
        <ele>92.42395</ele>
        <time>2015-10-08T10:08:18Z</time>
      </trkpt>
      <trkpt lat="44.32307" lon="4.83349">
        <ele>91.943237</ele>
        <time>2015-10-08T10:08:27Z</time>
      </trkpt>
      <trkpt lat="44.32306" lon="4.83351">
        <ele>91.943237</ele>
        <time>2015-10-08T10:08:28Z</time>
      </trkpt>
      <trkpt lat="44.32305" lon="4.83359">
        <ele>92.42395</ele>
        <time>2015-10-08T10:08:33Z</time>
      </trkpt>
      <trkpt lat="44.32307" lon="4.83371">
        <ele>92.42395</ele>
        <time>2015-10-08T10:08:39Z</time>
      </trkpt>
      <trkpt lat="44.32311" lon="4.83384">
        <ele>92.42395</ele>
        <time>2015-10-08T10:08:45Z</time>
      </trkpt>
      <trkpt lat="44.32311" lon="4.83386">
        <ele>92.42395</ele>
        <time>2015-10-08T10:08:46Z</time>
      </trkpt>
      <trkpt lat="44.32314" lon="4.83394">
        <ele>91.943237</ele>
        <time>2015-10-08T10:08:50Z</time>
      </trkpt>
      <trkpt lat="44.32316" lon="4.83396">
        <ele>91.943237</ele>
        <time>2015-10-08T10:08:52Z</time>
      </trkpt>
      <trkpt lat="44.32317" lon="4.83399">
        <ele>91.943237</ele>
        <time>2015-10-08T10:08:54Z</time>
      </trkpt>
      <trkpt lat="44.32324" lon="4.83405">
        <ele>93.385132</ele>
        <time>2015-10-08T10:09:00Z</time>
      </trkpt>
      <trkpt lat="44.32326" lon="4.83406">
        <ele>93.385132</ele>
        <time>2015-10-08T10:09:02Z</time>
      </trkpt>
      <trkpt lat="44.32335" lon="4.83417">
        <ele>92.904541</ele>
        <time>2015-10-08T10:09:12Z</time>
      </trkpt>
      <trkpt lat="44.32345" lon="4.83428">
        <ele>91.943237</ele>
        <time>2015-10-08T10:09:22Z</time>
      </trkpt>
      <trkpt lat="44.32351" lon="4.83434">
        <ele>91.943237</ele>
        <time>2015-10-08T10:09:29Z</time>
      </trkpt>
      <trkpt lat="44.32356" lon="4.83443">
        <ele>91.943237</ele>
        <time>2015-10-08T10:09:35Z</time>
      </trkpt>
      <trkpt lat="44.3236" lon="4.83454">
        <ele>91.943237</ele>
        <time>2015-10-08T10:09:42Z</time>
      </trkpt>
      <trkpt lat="44.3236" lon="4.83456">
        <ele>91.943237</ele>
        <time>2015-10-08T10:09:43Z</time>
      </trkpt>
      <trkpt lat="44.32363" lon="4.83472">
        <ele>92.42395</ele>
        <time>2015-10-08T10:09:53Z</time>
      </trkpt>
      <trkpt lat="44.32364" lon="4.83472">
        <ele>92.42395</ele>
        <time>2015-10-08T10:09:54Z</time>
      </trkpt>
      <trkpt lat="44.32371" lon="4.83484">
        <ele>92.42395</ele>
        <time>2015-10-08T10:10:02Z</time>
      </trkpt>
      <trkpt lat="44.32381" lon="4.835">
        <ele>91.943237</ele>
        <time>2015-10-08T10:10:13Z</time>
      </trkpt>
      <trkpt lat="44.32392" lon="4.83514">
        <ele>92.904541</ele>
        <time>2015-10-08T10:10:24Z</time>
      </trkpt>
      <trkpt lat="44.32397" lon="4.83519">
        <ele>91.462524</ele>
        <time>2015-10-08T10:10:28Z</time>
      </trkpt>
      <trkpt lat="44.32411" lon="4.83541">
        <ele>92.42395</ele>
        <time>2015-10-08T10:10:44Z</time>
      </trkpt>
      <trkpt lat="44.32421" lon="4.8356">
        <ele>91.943237</ele>
        <time>2015-10-08T10:10:57Z</time>
      </trkpt>
      <trkpt lat="44.32426" lon="4.83568">
        <ele>92.42395</ele>
        <time>2015-10-08T10:11:05Z</time>
      </trkpt>
      <trkpt lat="44.3243" lon="4.83575">
        <ele>92.42395</ele>
        <time>2015-10-08T10:11:13Z</time>
      </trkpt>
      <trkpt lat="44.3244" lon="4.83583">
        <ele>92.42395</ele>
        <time>2015-10-08T10:11:28Z</time>
      </trkpt>
      <trkpt lat="44.32451" lon="4.83596">
        <ele>92.42395</ele>
        <time>2015-10-08T10:11:41Z</time>
      </trkpt>
      <trkpt lat="44.32462" lon="4.83605">
        <ele>91.943237</ele>
        <time>2015-10-08T10:11:54Z</time>
      </trkpt>
      <trkpt lat="44.32465" lon="4.83605">
        <ele>92.42395</ele>
        <time>2015-10-08T10:11:57Z</time>
      </trkpt>
      <trkpt lat="44.32479" lon="4.83613">
        <ele>92.42395</ele>
        <time>2015-10-08T10:12:08Z</time>
      </trkpt>
      <trkpt lat="44.32489" lon="4.83618">
        <ele>92.42395</ele>
        <time>2015-10-08T10:12:15Z</time>
      </trkpt>
      <trkpt lat="44.325" lon="4.83618">
        <ele>91.943237</ele>
        <time>2015-10-08T10:12:26Z</time>
      </trkpt>
      <trkpt lat="44.32507" lon="4.83618">
        <ele>92.42395</ele>
        <time>2015-10-08T10:12:33Z</time>
      </trkpt>
      <trkpt lat="44.32508" lon="4.83618">
        <ele>92.42395</ele>
        <time>2015-10-08T10:12:52Z</time>
      </trkpt>
      <trkpt lat="44.32517" lon="4.83625">
        <ele>92.42395</ele>
        <time>2015-10-08T10:13:08Z</time>
      </trkpt>
      <trkpt lat="44.32529" lon="4.83634">
        <ele>92.904541</ele>
        <time>2015-10-08T10:13:16Z</time>
      </trkpt>
      <trkpt lat="44.32545" lon="4.83635">
        <ele>92.904541</ele>
        <time>2015-10-08T10:13:27Z</time>
      </trkpt>
      <trkpt lat="44.32552" lon="4.83631">
        <ele>92.904541</ele>
        <time>2015-10-08T10:13:35Z</time>
      </trkpt>
      <trkpt lat="44.32558" lon="4.8363">
        <ele>92.904541</ele>
        <time>2015-10-08T10:13:42Z</time>
      </trkpt>
      <trkpt lat="44.3256" lon="4.83633">
        <ele>93.385132</ele>
        <time>2015-10-08T10:13:44Z</time>
      </trkpt>
      <trkpt lat="44.3257" lon="4.83643">
        <ele>93.865845</ele>
        <time>2015-10-08T10:13:52Z</time>
      </trkpt>
      <trkpt lat="44.32578" lon="4.83642">
        <ele>94.346558</ele>
        <time>2015-10-08T10:13:57Z</time>
      </trkpt>
      <trkpt lat="44.3259" lon="4.83639">
        <ele>94.346558</ele>
        <time>2015-10-08T10:14:06Z</time>
      </trkpt>
      <trkpt lat="44.326" lon="4.83646">
        <ele>94.346558</ele>
        <time>2015-10-08T10:14:14Z</time>
      </trkpt>
      <trkpt lat="44.3261" lon="4.8365">
        <ele>95.307739</ele>
        <time>2015-10-08T10:14:25Z</time>
      </trkpt>
      <trkpt lat="44.3261" lon="4.8365">
        <ele>95.307739</ele>
        <time>2015-10-08T10:14:42Z</time>
      </trkpt>
      <trkpt lat="44.3261" lon="4.8365">
        <ele>95.307739</ele>
        <time>2015-10-08T10:14:55Z</time>
      </trkpt>
      <trkpt lat="44.32622" lon="4.83647">
        <ele>95.788452</ele>
        <time>2015-10-08T10:15:04Z</time>
      </trkpt>
      <trkpt lat="44.32627" lon="4.83651">
        <ele>96.269287</ele>
        <time>2015-10-08T10:15:08Z</time>
      </trkpt>
      <trkpt lat="44.32627" lon="4.83659">
        <ele>96.749878</ele>
        <time>2015-10-08T10:15:15Z</time>
      </trkpt>
      <trkpt lat="44.32626" lon="4.83658">
        <ele>96.269287</ele>
        <time>2015-10-08T10:15:21Z</time>
      </trkpt>
      <trkpt lat="44.32626" lon="4.83657">
        <ele>96.749878</ele>
        <time>2015-10-08T10:15:23Z</time>
      </trkpt>
      <trkpt lat="44.32626" lon="4.83647">
        <ele>96.269287</ele>
        <time>2015-10-08T10:15:32Z</time>
      </trkpt>
      <trkpt lat="44.32626" lon="4.83647">
        <ele>95.788452</ele>
        <time>2015-10-08T10:15:38Z</time>
      </trkpt>
      <trkpt lat="44.32632" lon="4.83631">
        <ele>95.307739</ele>
        <time>2015-10-08T10:15:48Z</time>
      </trkpt>
      <trkpt lat="44.32634" lon="4.83622">
        <ele>94.827148</ele>
        <time>2015-10-08T10:15:53Z</time>
      </trkpt>
      <trkpt lat="44.3264" lon="4.83612">
        <ele>94.827148</ele>
        <time>2015-10-08T10:15:59Z</time>
      </trkpt>
      <trkpt lat="44.32647" lon="4.83599">
        <ele>94.827148</ele>
        <time>2015-10-08T10:16:06Z</time>
      </trkpt>
      <trkpt lat="44.32653" lon="4.83587">
        <ele>94.827148</ele>
        <time>2015-10-08T10:16:15Z</time>
      </trkpt>
      <trkpt lat="44.32657" lon="4.83588">
        <ele>95.307739</ele>
        <time>2015-10-08T10:16:26Z</time>
      </trkpt>
      <trkpt lat="44.32661" lon="4.8359">
        <ele>95.307739</ele>
        <time>2015-10-08T10:16:30Z</time>
      </trkpt>
      <trkpt lat="44.32666" lon="4.83594">
        <ele>95.788452</ele>
        <time>2015-10-08T10:16:36Z</time>
      </trkpt>
      <trkpt lat="44.32668" lon="4.83597">
        <ele>96.269287</ele>
        <time>2015-10-08T10:16:39Z</time>
      </trkpt>
      <trkpt lat="44.3267" lon="4.836">
        <ele>96.269287</ele>
        <time>2015-10-08T10:16:41Z</time>
      </trkpt>
      <trkpt lat="44.3268" lon="4.83606">
        <ele>98.191895</ele>
        <time>2015-10-08T10:16:50Z</time>
      </trkpt>
      <trkpt lat="44.32683" lon="4.83604">
        <ele>98.672485</ele>
        <time>2015-10-08T10:16:53Z</time>
      </trkpt>
      <trkpt lat="44.32687" lon="4.83601">
        <ele>99.633789</ele>
        <time>2015-10-08T10:16:59Z</time>
      </trkpt>
      <trkpt lat="44.32694" lon="4.83599">
        <ele>101.075684</ele>
        <time>2015-10-08T10:17:08Z</time>
      </trkpt>
      <trkpt lat="44.327" lon="4.83601">
        <ele>101.556396</ele>
        <time>2015-10-08T10:17:16Z</time>
      </trkpt>
      <trkpt lat="44.32702" lon="4.83608">
        <ele>102.5177</ele>
        <time>2015-10-08T10:17:23Z</time>
      </trkpt>
      <trkpt lat="44.32709" lon="4.83618">
        <ele>103.479004</ele>
        <time>2015-10-08T10:17:33Z</time>
      </trkpt>
      <trkpt lat="44.3271" lon="4.83619">
        <ele>103.479004</ele>
        <time>2015-10-08T10:17:34Z</time>
      </trkpt>
      <trkpt lat="44.32719" lon="4.83622">
        <ele>102.998291</ele>
        <time>2015-10-08T10:17:44Z</time>
      </trkpt>
      <trkpt lat="44.32721" lon="4.83622">
        <ele>105.401733</ele>
        <time>2015-10-08T10:17:47Z</time>
      </trkpt>
      <trkpt lat="44.32721" lon="4.83623">
        <ele>104.44043</ele>
        <time>2015-10-08T10:18:06Z</time>
      </trkpt>
      <trkpt lat="44.32722" lon="4.8364">
        <ele>103.479004</ele>
        <time>2015-10-08T10:18:17Z</time>
      </trkpt>
      <trkpt lat="44.32724" lon="4.83664">
        <ele>105.882446</ele>
        <time>2015-10-08T10:18:32Z</time>
      </trkpt>
      <trkpt lat="44.32725" lon="4.83671">
        <ele>105.401733</ele>
        <time>2015-10-08T10:18:44Z</time>
      </trkpt>
      <trkpt lat="44.32725" lon="4.83678">
        <ele>105.882446</ele>
        <time>2015-10-08T10:18:48Z</time>
      </trkpt>
      <trkpt lat="44.32726" lon="4.83682">
        <ele>106.843628</ele>
        <time>2015-10-08T10:18:50Z</time>
      </trkpt>
      <trkpt lat="44.32726" lon="4.83698">
        <ele>107.324341</ele>
        <time>2015-10-08T10:18:58Z</time>
      </trkpt>
      <trkpt lat="44.32728" lon="4.83704">
        <ele>106.843628</ele>
        <time>2015-10-08T10:19:01Z</time>
      </trkpt>
      <trkpt lat="44.32727" lon="4.83728">
        <ele>107.324341</ele>
        <time>2015-10-08T10:19:14Z</time>
      </trkpt>
      <trkpt lat="44.32725" lon="4.83742">
        <ele>107.805054</ele>
        <time>2015-10-08T10:19:21Z</time>
      </trkpt>
      <trkpt lat="44.32726" lon="4.83744">
        <ele>108.285645</ele>
        <time>2015-10-08T10:19:23Z</time>
      </trkpt>
      <trkpt lat="44.32728" lon="4.8375">
        <ele>108.766235</ele>
        <time>2015-10-08T10:19:27Z</time>
      </trkpt>
      <trkpt lat="44.32735" lon="4.83771">
        <ele>110.208252</ele>
        <time>2015-10-08T10:19:40Z</time>
      </trkpt>
      <trkpt lat="44.32742" lon="4.83792">
        <ele>110.688843</ele>
        <time>2015-10-08T10:19:53Z</time>
      </trkpt>
      <trkpt lat="44.32748" lon="4.83812">
        <ele>111.169556</ele>
        <time>2015-10-08T10:20:05Z</time>
      </trkpt>
      <trkpt lat="44.32749" lon="4.83818">
        <ele>111.650269</ele>
        <time>2015-10-08T10:20:13Z</time>
      </trkpt>
      <trkpt lat="44.32751" lon="4.83825">
        <ele>111.169556</ele>
        <time>2015-10-08T10:20:30Z</time>
      </trkpt>
      <trkpt lat="44.32755" lon="4.83836">
        <ele>111.169556</ele>
        <time>2015-10-08T10:20:39Z</time>
      </trkpt>
      <trkpt lat="44.32753" lon="4.83834">
        <ele>111.650269</ele>
        <time>2015-10-08T10:20:45Z</time>
      </trkpt>
      <trkpt lat="44.32755" lon="4.83837">
        <ele>111.650269</ele>
        <time>2015-10-08T10:21:49Z</time>
      </trkpt>
      <trkpt lat="44.32761" lon="4.8385">
        <ele>111.650269</ele>
        <time>2015-10-08T10:21:58Z</time>
      </trkpt>
      <trkpt lat="44.32765" lon="4.83857">
        <ele>111.650269</ele>
        <time>2015-10-08T10:22:03Z</time>
      </trkpt>
      <trkpt lat="44.32773" lon="4.83869">
        <ele>111.169556</ele>
        <time>2015-10-08T10:22:11Z</time>
      </trkpt>
      <trkpt lat="44.3278" lon="4.83879">
        <ele>111.650269</ele>
        <time>2015-10-08T10:22:19Z</time>
      </trkpt>
      <trkpt lat="44.32781" lon="4.83881">
        <ele>111.650269</ele>
        <time>2015-10-08T10:22:20Z</time>
      </trkpt>
      <trkpt lat="44.32786" lon="4.83887">
        <ele>112.130981</ele>
        <time>2015-10-08T10:22:24Z</time>
      </trkpt>
      <trkpt lat="44.32795" lon="4.83898">
        <ele>111.169556</ele>
        <time>2015-10-08T10:22:33Z</time>
      </trkpt>
      <trkpt lat="44.32802" lon="4.83911">
        <ele>110.688843</ele>
        <time>2015-10-08T10:22:43Z</time>
      </trkpt>
      <trkpt lat="44.32816" lon="4.83924">
        <ele>111.169556</ele>
        <time>2015-10-08T10:22:54Z</time>
      </trkpt>
      <trkpt lat="44.32819" lon="4.83931">
        <ele>111.650269</ele>
        <time>2015-10-08T10:22:58Z</time>
      </trkpt>
      <trkpt lat="44.32824" lon="4.83935">
        <ele>112.130981</ele>
        <time>2015-10-08T10:23:02Z</time>
      </trkpt>
      <trkpt lat="44.32827" lon="4.83939">
        <ele>112.130981</ele>
        <time>2015-10-08T10:23:05Z</time>
      </trkpt>
      <trkpt lat="44.3283" lon="4.83943">
        <ele>111.650269</ele>
        <time>2015-10-08T10:23:08Z</time>
      </trkpt>
      <trkpt lat="44.32834" lon="4.83948">
        <ele>110.688843</ele>
        <time>2015-10-08T10:23:12Z</time>
      </trkpt>
      <trkpt lat="44.3284" lon="4.83952">
        <ele>111.169556</ele>
        <time>2015-10-08T10:23:20Z</time>
      </trkpt>
      <trkpt lat="44.32849" lon="4.8396">
        <ele>111.650269</ele>
        <time>2015-10-08T10:23:28Z</time>
      </trkpt>
      <trkpt lat="44.32858" lon="4.83973">
        <ele>111.169556</ele>
        <time>2015-10-08T10:23:34Z</time>
      </trkpt>
      <trkpt lat="44.32859" lon="4.83974">
        <ele>111.169556</ele>
        <time>2015-10-08T10:23:35Z</time>
      </trkpt>
      <trkpt lat="44.32861" lon="4.83977">
        <ele>110.688843</ele>
        <time>2015-10-08T10:23:37Z</time>
      </trkpt>
      <trkpt lat="44.32865" lon="4.83984">
        <ele>110.688843</ele>
        <time>2015-10-08T10:23:43Z</time>
      </trkpt>
      <trkpt lat="44.32867" lon="4.83991">
        <ele>110.208252</ele>
        <time>2015-10-08T10:23:47Z</time>
      </trkpt>
      <trkpt lat="44.32869" lon="4.84002">
        <ele>110.208252</ele>
        <time>2015-10-08T10:23:53Z</time>
      </trkpt>
      <trkpt lat="44.32868" lon="4.84014">
        <ele>110.208252</ele>
        <time>2015-10-08T10:24:00Z</time>
      </trkpt>
      <trkpt lat="44.32872" lon="4.84029">
        <ele>110.688843</ele>
        <time>2015-10-08T10:24:08Z</time>
      </trkpt>
      <trkpt lat="44.32873" lon="4.8403">
        <ele>110.688843</ele>
        <time>2015-10-08T10:24:09Z</time>
      </trkpt>
      <trkpt lat="44.32881" lon="4.8406">
        <ele>109.727661</ele>
        <time>2015-10-08T10:24:25Z</time>
      </trkpt>
      <trkpt lat="44.32888" lon="4.84077">
        <ele>109.727661</ele>
        <time>2015-10-08T10:24:35Z</time>
      </trkpt>
      <trkpt lat="44.32901" lon="4.84094">
        <ele>109.246948</ele>
        <time>2015-10-08T10:24:48Z</time>
      </trkpt>
      <trkpt lat="44.32914" lon="4.84112">
        <ele>108.766235</ele>
        <time>2015-10-08T10:25:01Z</time>
      </trkpt>
      <trkpt lat="44.32924" lon="4.84132">
        <ele>108.285645</ele>
        <time>2015-10-08T10:25:15Z</time>
      </trkpt>
      <trkpt lat="44.32931" lon="4.84151">
        <ele>108.766235</ele>
        <time>2015-10-08T10:25:26Z</time>
      </trkpt>
      <trkpt lat="44.32931" lon="4.84159">
        <ele>109.246948</ele>
        <time>2015-10-08T10:25:30Z</time>
      </trkpt>
      <trkpt lat="44.32936" lon="4.84181">
        <ele>109.727661</ele>
        <time>2015-10-08T10:25:42Z</time>
      </trkpt>
      <trkpt lat="44.32937" lon="4.84185">
        <ele>109.727661</ele>
        <time>2015-10-08T10:25:44Z</time>
      </trkpt>
      <trkpt lat="44.32941" lon="4.84205">
        <ele>109.727661</ele>
        <time>2015-10-08T10:25:55Z</time>
      </trkpt>
      <trkpt lat="44.32946" lon="4.84218">
        <ele>109.246948</ele>
        <time>2015-10-08T10:26:03Z</time>
      </trkpt>
      <trkpt lat="44.32954" lon="4.84236">
        <ele>109.246948</ele>
        <time>2015-10-08T10:26:14Z</time>
      </trkpt>
      <trkpt lat="44.32966" lon="4.84255">
        <ele>108.766235</ele>
        <time>2015-10-08T10:26:27Z</time>
      </trkpt>
      <trkpt lat="44.32977" lon="4.84274">
        <ele>109.246948</ele>
        <time>2015-10-08T10:26:39Z</time>
      </trkpt>
      <trkpt lat="44.3298" lon="4.84288">
        <ele>108.766235</ele>
        <time>2015-10-08T10:26:47Z</time>
      </trkpt>
      <trkpt lat="44.32985" lon="4.84302">
        <ele>108.285645</ele>
        <time>2015-10-08T10:26:56Z</time>
      </trkpt>
      <trkpt lat="44.32986" lon="4.84305">
        <ele>108.766235</ele>
        <time>2015-10-08T10:26:58Z</time>
      </trkpt>
      <trkpt lat="44.32995" lon="4.84322">
        <ele>108.766235</ele>
        <time>2015-10-08T10:27:10Z</time>
      </trkpt>
      <trkpt lat="44.33002" lon="4.84343">
        <ele>108.285645</ele>
        <time>2015-10-08T10:27:22Z</time>
      </trkpt>
      <trkpt lat="44.33002" lon="4.8436">
        <ele>108.285645</ele>
        <time>2015-10-08T10:27:32Z</time>
      </trkpt>
      <trkpt lat="44.33" lon="4.84378">
        <ele>108.285645</ele>
        <time>2015-10-08T10:27:41Z</time>
      </trkpt>
      <trkpt lat="44.32997" lon="4.84402">
        <ele>107.805054</ele>
        <time>2015-10-08T10:27:54Z</time>
      </trkpt>
      <trkpt lat="44.33002" lon="4.8442">
        <ele>107.805054</ele>
        <time>2015-10-08T10:28:06Z</time>
      </trkpt>
      <trkpt lat="44.33009" lon="4.84437">
        <ele>107.805054</ele>
        <time>2015-10-08T10:28:18Z</time>
      </trkpt>
      <trkpt lat="44.33015" lon="4.84451">
        <ele>108.285645</ele>
        <time>2015-10-08T10:28:26Z</time>
      </trkpt>
      <trkpt lat="44.33016" lon="4.84455">
        <ele>109.246948</ele>
        <time>2015-10-08T10:28:28Z</time>
      </trkpt>
      <trkpt lat="44.33021" lon="4.84466">
        <ele>108.766235</ele>
        <time>2015-10-08T10:28:35Z</time>
      </trkpt>
      <trkpt lat="44.33022" lon="4.84468">
        <ele>108.285645</ele>
        <time>2015-10-08T10:28:37Z</time>
      </trkpt>
      <trkpt lat="44.33029" lon="4.84478">
        <ele>107.805054</ele>
        <time>2015-10-08T10:28:44Z</time>
      </trkpt>
      <trkpt lat="44.33037" lon="4.84488">
        <ele>107.805054</ele>
        <time>2015-10-08T10:28:51Z</time>
      </trkpt>
      <trkpt lat="44.33045" lon="4.84496">
        <ele>107.324341</ele>
        <time>2015-10-08T10:28:58Z</time>
      </trkpt>
      <trkpt lat="44.33053" lon="4.84511">
        <ele>108.285645</ele>
        <time>2015-10-08T10:29:09Z</time>
      </trkpt>
      <trkpt lat="44.33057" lon="4.84522">
        <ele>107.805054</ele>
        <time>2015-10-08T10:29:16Z</time>
      </trkpt>
      <trkpt lat="44.33061" lon="4.84534">
        <ele>108.285645</ele>
        <time>2015-10-08T10:29:23Z</time>
      </trkpt>
      <trkpt lat="44.33064" lon="4.84546">
        <ele>108.285645</ele>
        <time>2015-10-08T10:29:30Z</time>
      </trkpt>
      <trkpt lat="44.33069" lon="4.84554">
        <ele>107.324341</ele>
        <time>2015-10-08T10:29:39Z</time>
      </trkpt>
      <trkpt lat="44.33071" lon="4.84556">
        <ele>107.805054</ele>
        <time>2015-10-08T10:29:41Z</time>
      </trkpt>
      <trkpt lat="44.33088" lon="4.84586">
        <ele>108.285645</ele>
        <time>2015-10-08T10:30:01Z</time>
      </trkpt>
      <trkpt lat="44.33096" lon="4.846">
        <ele>107.324341</ele>
        <time>2015-10-08T10:30:10Z</time>
      </trkpt>
      <trkpt lat="44.33108" lon="4.8461">
        <ele>108.285645</ele>
        <time>2015-10-08T10:30:19Z</time>
      </trkpt>
      <trkpt lat="44.33116" lon="4.84617">
        <ele>107.324341</ele>
        <time>2015-10-08T10:30:26Z</time>
      </trkpt>
      <trkpt lat="44.33126" lon="4.84628">
        <ele>108.285645</ele>
        <time>2015-10-08T10:30:33Z</time>
      </trkpt>
      <trkpt lat="44.33129" lon="4.84631">
        <ele>108.285645</ele>
        <time>2015-10-08T10:30:35Z</time>
      </trkpt>
      <trkpt lat="44.33139" lon="4.84638">
        <ele>108.766235</ele>
        <time>2015-10-08T10:30:44Z</time>
      </trkpt>
      <trkpt lat="44.33143" lon="4.8464">
        <ele>109.246948</ele>
        <time>2015-10-08T10:30:48Z</time>
      </trkpt>
      <trkpt lat="44.33148" lon="4.84649">
        <ele>108.766235</ele>
        <time>2015-10-08T10:30:57Z</time>
      </trkpt>
      <trkpt lat="44.33152" lon="4.84654">
        <ele>108.766235</ele>
        <time>2015-10-08T10:31:03Z</time>
      </trkpt>
      <trkpt lat="44.33157" lon="4.84662">
        <ele>108.766235</ele>
        <time>2015-10-08T10:31:09Z</time>
      </trkpt>
      <trkpt lat="44.33157" lon="4.84664">
        <ele>108.766235</ele>
        <time>2015-10-08T10:31:10Z</time>
      </trkpt>
      <trkpt lat="44.33165" lon="4.84676">
        <ele>108.766235</ele>
        <time>2015-10-08T10:31:17Z</time>
      </trkpt>
      <trkpt lat="44.33169" lon="4.84683">
        <ele>108.766235</ele>
        <time>2015-10-08T10:31:22Z</time>
      </trkpt>
      <trkpt lat="44.33172" lon="4.84688">
        <ele>108.766235</ele>
        <time>2015-10-08T10:31:28Z</time>
      </trkpt>
      <trkpt lat="44.33176" lon="4.84695">
        <ele>108.766235</ele>
        <time>2015-10-08T10:31:32Z</time>
      </trkpt>
      <trkpt lat="44.33179" lon="4.84704">
        <ele>109.246948</ele>
        <time>2015-10-08T10:31:37Z</time>
      </trkpt>
      <trkpt lat="44.33184" lon="4.8471">
        <ele>108.766235</ele>
        <time>2015-10-08T10:31:41Z</time>
      </trkpt>
      <trkpt lat="44.33185" lon="4.84717">
        <ele>109.246948</ele>
        <time>2015-10-08T10:31:45Z</time>
      </trkpt>
      <trkpt lat="44.33194" lon="4.8473">
        <ele>109.727661</ele>
        <time>2015-10-08T10:31:53Z</time>
      </trkpt>
      <trkpt lat="44.33199" lon="4.84733">
        <ele>109.727661</ele>
        <time>2015-10-08T10:31:57Z</time>
      </trkpt>
      <trkpt lat="44.33207" lon="4.84748">
        <ele>109.246948</ele>
        <time>2015-10-08T10:32:08Z</time>
      </trkpt>
      <trkpt lat="44.33214" lon="4.84771">
        <ele>109.246948</ele>
        <time>2015-10-08T10:32:20Z</time>
      </trkpt>
      <trkpt lat="44.33216" lon="4.84775">
        <ele>108.766235</ele>
        <time>2015-10-08T10:32:22Z</time>
      </trkpt>
      <trkpt lat="44.33221" lon="4.84792">
        <ele>108.766235</ele>
        <time>2015-10-08T10:32:29Z</time>
      </trkpt>
      <trkpt lat="44.33226" lon="4.84808">
        <ele>109.727661</ele>
        <time>2015-10-08T10:32:39Z</time>
      </trkpt>
      <trkpt lat="44.33228" lon="4.84816">
        <ele>109.246948</ele>
        <time>2015-10-08T10:32:45Z</time>
      </trkpt>
      <trkpt lat="44.33228" lon="4.84817">
        <ele>108.766235</ele>
        <time>2015-10-08T10:32:46Z</time>
      </trkpt>
      <trkpt lat="44.33229" lon="4.8483">
        <ele>109.246948</ele>
        <time>2015-10-08T10:32:53Z</time>
      </trkpt>
      <trkpt lat="44.3323" lon="4.84836">
        <ele>109.727661</ele>
        <time>2015-10-08T10:32:57Z</time>
      </trkpt>
      <trkpt lat="44.33235" lon="4.84852">
        <ele>109.246948</ele>
        <time>2015-10-08T10:33:06Z</time>
      </trkpt>
      <trkpt lat="44.33236" lon="4.84855">
        <ele>109.727661</ele>
        <time>2015-10-08T10:33:08Z</time>
      </trkpt>
      <trkpt lat="44.33254" lon="4.84881">
        <ele>109.727661</ele>
        <time>2015-10-08T10:33:26Z</time>
      </trkpt>
      <trkpt lat="44.33264" lon="4.84894">
        <ele>109.727661</ele>
        <time>2015-10-08T10:33:34Z</time>
      </trkpt>
      <trkpt lat="44.33269" lon="4.84905">
        <ele>109.727661</ele>
        <time>2015-10-08T10:33:42Z</time>
      </trkpt>
      <trkpt lat="44.33269" lon="4.84916">
        <ele>109.246948</ele>
        <time>2015-10-08T10:33:51Z</time>
      </trkpt>
      <trkpt lat="44.33273" lon="4.8493">
        <ele>109.246948</ele>
        <time>2015-10-08T10:33:59Z</time>
      </trkpt>
      <trkpt lat="44.33277" lon="4.84944">
        <ele>109.246948</ele>
        <time>2015-10-08T10:34:06Z</time>
      </trkpt>
      <trkpt lat="44.33281" lon="4.84959">
        <ele>109.246948</ele>
        <time>2015-10-08T10:34:14Z</time>
      </trkpt>
      <trkpt lat="44.33283" lon="4.84968">
        <ele>109.727661</ele>
        <time>2015-10-08T10:34:19Z</time>
      </trkpt>
      <trkpt lat="44.33283" lon="4.84976">
        <ele>109.727661</ele>
        <time>2015-10-08T10:34:23Z</time>
      </trkpt>
      <trkpt lat="44.33286" lon="4.84985">
        <ele>109.727661</ele>
        <time>2015-10-08T10:34:30Z</time>
      </trkpt>
      <trkpt lat="44.33298" lon="4.85003">
        <ele>109.727661</ele>
        <time>2015-10-08T10:34:41Z</time>
      </trkpt>
      <trkpt lat="44.33303" lon="4.85013">
        <ele>109.246948</ele>
        <time>2015-10-08T10:34:48Z</time>
      </trkpt>
      <trkpt lat="44.33306" lon="4.85017">
        <ele>109.246948</ele>
        <time>2015-10-08T10:34:50Z</time>
      </trkpt>
      <trkpt lat="44.33307" lon="4.85021">
        <ele>109.246948</ele>
        <time>2015-10-08T10:34:52Z</time>
      </trkpt>
      <trkpt lat="44.33318" lon="4.85036">
        <ele>109.246948</ele>
        <time>2015-10-08T10:34:59Z</time>
      </trkpt>
      <trkpt lat="44.33321" lon="4.85041">
        <ele>109.246948</ele>
        <time>2015-10-08T10:35:02Z</time>
      </trkpt>
      <trkpt lat="44.33326" lon="4.85049">
        <ele>108.766235</ele>
        <time>2015-10-08T10:35:09Z</time>
      </trkpt>
      <trkpt lat="44.33333" lon="4.85063">
        <ele>108.766235</ele>
        <time>2015-10-08T10:35:16Z</time>
      </trkpt>
      <trkpt lat="44.33337" lon="4.85074">
        <ele>109.727661</ele>
        <time>2015-10-08T10:35:22Z</time>
      </trkpt>
      <trkpt lat="44.3334" lon="4.85082">
        <ele>109.246948</ele>
        <time>2015-10-08T10:35:30Z</time>
      </trkpt>
      <trkpt lat="44.33345" lon="4.85087">
        <ele>109.246948</ele>
        <time>2015-10-08T10:35:36Z</time>
      </trkpt>
      <trkpt lat="44.33349" lon="4.85095">
        <ele>108.766235</ele>
        <time>2015-10-08T10:35:43Z</time>
      </trkpt>
      <trkpt lat="44.33351" lon="4.85109">
        <ele>109.246948</ele>
        <time>2015-10-08T10:35:52Z</time>
      </trkpt>
      <trkpt lat="44.33358" lon="4.85117">
        <ele>109.246948</ele>
        <time>2015-10-08T10:35:57Z</time>
      </trkpt>
      <trkpt lat="44.33368" lon="4.85131">
        <ele>109.727661</ele>
        <time>2015-10-08T10:36:04Z</time>
      </trkpt>
      <trkpt lat="44.33374" lon="4.85147">
        <ele>107.805054</ele>
        <time>2015-10-08T10:36:13Z</time>
      </trkpt>
      <trkpt lat="44.33381" lon="4.85164">
        <ele>108.285645</ele>
        <time>2015-10-08T10:36:21Z</time>
      </trkpt>
      <trkpt lat="44.33389" lon="4.85179">
        <ele>108.285645</ele>
        <time>2015-10-08T10:36:31Z</time>
      </trkpt>
      <trkpt lat="44.33397" lon="4.85192">
        <ele>108.285645</ele>
        <time>2015-10-08T10:36:39Z</time>
      </trkpt>
      <trkpt lat="44.33401" lon="4.85203">
        <ele>107.805054</ele>
        <time>2015-10-08T10:36:47Z</time>
      </trkpt>
      <trkpt lat="44.33409" lon="4.85215">
        <ele>108.285645</ele>
        <time>2015-10-08T10:36:55Z</time>
      </trkpt>
      <trkpt lat="44.33412" lon="4.85224">
        <ele>108.285645</ele>
        <time>2015-10-08T10:37:00Z</time>
      </trkpt>
      <trkpt lat="44.33417" lon="4.8524">
        <ele>108.766235</ele>
        <time>2015-10-08T10:37:10Z</time>
      </trkpt>
      <trkpt lat="44.33423" lon="4.85256">
        <ele>107.805054</ele>
        <time>2015-10-08T10:37:20Z</time>
      </trkpt>
      <trkpt lat="44.33425" lon="4.8526">
        <ele>107.805054</ele>
        <time>2015-10-08T10:37:23Z</time>
      </trkpt>
      <trkpt lat="44.33426" lon="4.85274">
        <ele>107.805054</ele>
        <time>2015-10-08T10:37:31Z</time>
      </trkpt>
      <trkpt lat="44.33428" lon="4.85284">
        <ele>107.324341</ele>
        <time>2015-10-08T10:37:37Z</time>
      </trkpt>
      <trkpt lat="44.3343" lon="4.85294">
        <ele>107.324341</ele>
        <time>2015-10-08T10:37:43Z</time>
      </trkpt>
      <trkpt lat="44.3343" lon="4.853">
        <ele>106.843628</ele>
        <time>2015-10-08T10:37:47Z</time>
      </trkpt>
      <trkpt lat="44.33431" lon="4.85307">
        <ele>107.324341</ele>
        <time>2015-10-08T10:37:51Z</time>
      </trkpt>
      <trkpt lat="44.33431" lon="4.85313">
        <ele>107.805054</ele>
        <time>2015-10-08T10:37:55Z</time>
      </trkpt>
      <trkpt lat="44.33432" lon="4.85324">
        <ele>107.324341</ele>
        <time>2015-10-08T10:37:59Z</time>
      </trkpt>
      <trkpt lat="44.33436" lon="4.85334">
        <ele>108.285645</ele>
        <time>2015-10-08T10:38:05Z</time>
      </trkpt>
      <trkpt lat="44.33448" lon="4.85363">
        <ele>108.766235</ele>
        <time>2015-10-08T10:38:22Z</time>
      </trkpt>
      <trkpt lat="44.33456" lon="4.85386">
        <ele>108.766235</ele>
        <time>2015-10-08T10:38:36Z</time>
      </trkpt>
      <trkpt lat="44.33459" lon="4.85393">
        <ele>109.246948</ele>
        <time>2015-10-08T10:38:40Z</time>
      </trkpt>
      <trkpt lat="44.3346" lon="4.854">
        <ele>108.766235</ele>
        <time>2015-10-08T10:38:43Z</time>
      </trkpt>
      <trkpt lat="44.33463" lon="4.85407">
        <ele>108.285645</ele>
        <time>2015-10-08T10:38:47Z</time>
      </trkpt>
      <trkpt lat="44.33464" lon="4.85412">
        <ele>108.766235</ele>
        <time>2015-10-08T10:38:50Z</time>
      </trkpt>
      <trkpt lat="44.33465" lon="4.85418">
        <ele>108.766235</ele>
        <time>2015-10-08T10:38:53Z</time>
      </trkpt>
      <trkpt lat="44.33469" lon="4.85425">
        <ele>108.285645</ele>
        <time>2015-10-08T10:38:58Z</time>
      </trkpt>
      <trkpt lat="44.3347" lon="4.85428">
        <ele>108.766235</ele>
        <time>2015-10-08T10:39:00Z</time>
      </trkpt>
      <trkpt lat="44.33473" lon="4.85437">
        <ele>108.766235</ele>
        <time>2015-10-08T10:39:06Z</time>
      </trkpt>
      <trkpt lat="44.33474" lon="4.85439">
        <ele>108.766235</ele>
        <time>2015-10-08T10:39:07Z</time>
      </trkpt>
      <trkpt lat="44.33476" lon="4.85447">
        <ele>108.766235</ele>
        <time>2015-10-08T10:39:14Z</time>
      </trkpt>
      <trkpt lat="44.33482" lon="4.85463">
        <ele>109.246948</ele>
        <time>2015-10-08T10:39:21Z</time>
      </trkpt>
      <trkpt lat="44.33483" lon="4.85467">
        <ele>109.727661</ele>
        <time>2015-10-08T10:39:23Z</time>
      </trkpt>
      <trkpt lat="44.33488" lon="4.8548">
        <ele>109.727661</ele>
        <time>2015-10-08T10:39:32Z</time>
      </trkpt>
      <trkpt lat="44.33488" lon="4.85484">
        <ele>109.727661</ele>
        <time>2015-10-08T10:39:36Z</time>
      </trkpt>
      <trkpt lat="44.33488" lon="4.85497">
        <ele>110.208252</ele>
        <time>2015-10-08T10:39:42Z</time>
      </trkpt>
      <trkpt lat="44.3349" lon="4.85503">
        <ele>110.208252</ele>
        <time>2015-10-08T10:39:45Z</time>
      </trkpt>
      <trkpt lat="44.33492" lon="4.85507">
        <ele>110.688843</ele>
        <time>2015-10-08T10:39:48Z</time>
      </trkpt>
      <trkpt lat="44.33491" lon="4.85517">
        <ele>110.688843</ele>
        <time>2015-10-08T10:39:52Z</time>
      </trkpt>
      <trkpt lat="44.33492" lon="4.85528">
        <ele>111.169556</ele>
        <time>2015-10-08T10:39:56Z</time>
      </trkpt>
      <trkpt lat="44.33488" lon="4.85534">
        <ele>112.130981</ele>
        <time>2015-10-08T10:40:04Z</time>
      </trkpt>
      <trkpt lat="44.33487" lon="4.85538">
        <ele>112.130981</ele>
        <time>2015-10-08T10:40:07Z</time>
      </trkpt>
      <trkpt lat="44.33485" lon="4.85555">
        <ele>112.611572</ele>
        <time>2015-10-08T10:40:19Z</time>
      </trkpt>
      <trkpt lat="44.33481" lon="4.8557">
        <ele>112.130981</ele>
        <time>2015-10-08T10:40:27Z</time>
      </trkpt>
      <trkpt lat="44.33481" lon="4.85576">
        <ele>112.130981</ele>
        <time>2015-10-08T10:40:31Z</time>
      </trkpt>
      <trkpt lat="44.33478" lon="4.85591">
        <ele>112.611572</ele>
        <time>2015-10-08T10:40:38Z</time>
      </trkpt>
      <trkpt lat="44.33477" lon="4.856">
        <ele>112.611572</ele>
        <time>2015-10-08T10:40:44Z</time>
      </trkpt>
      <trkpt lat="44.33478" lon="4.85613">
        <ele>113.092285</ele>
        <time>2015-10-08T10:40:51Z</time>
      </trkpt>
      <trkpt lat="44.33478" lon="4.85625">
        <ele>113.092285</ele>
        <time>2015-10-08T10:40:57Z</time>
      </trkpt>
      <trkpt lat="44.33472" lon="4.85635">
        <ele>113.092285</ele>
        <time>2015-10-08T10:41:02Z</time>
      </trkpt>
      <trkpt lat="44.33473" lon="4.85645">
        <ele>113.092285</ele>
        <time>2015-10-08T10:41:09Z</time>
      </trkpt>
      <trkpt lat="44.33474" lon="4.85653">
        <ele>113.092285</ele>
        <time>2015-10-08T10:41:14Z</time>
      </trkpt>
      <trkpt lat="44.3347" lon="4.85663">
        <ele>113.092285</ele>
        <time>2015-10-08T10:41:19Z</time>
      </trkpt>
      <trkpt lat="44.33467" lon="4.85669">
        <ele>112.611572</ele>
        <time>2015-10-08T10:41:22Z</time>
      </trkpt>
      <trkpt lat="44.33462" lon="4.85677">
        <ele>112.130981</ele>
        <time>2015-10-08T10:41:27Z</time>
      </trkpt>
      <trkpt lat="44.33462" lon="4.8568">
        <ele>112.611572</ele>
        <time>2015-10-08T10:41:29Z</time>
      </trkpt>
      <trkpt lat="44.3346" lon="4.85686">
        <ele>112.130981</ele>
        <time>2015-10-08T10:41:34Z</time>
      </trkpt>
      <trkpt lat="44.33456" lon="4.85695">
        <ele>111.650269</ele>
        <time>2015-10-08T10:41:42Z</time>
      </trkpt>
      <trkpt lat="44.33455" lon="4.85696">
        <ele>111.169556</ele>
        <time>2015-10-08T10:41:43Z</time>
      </trkpt>
      <trkpt lat="44.33452" lon="4.85703">
        <ele>111.650269</ele>
        <time>2015-10-08T10:41:47Z</time>
      </trkpt>
      <trkpt lat="44.33447" lon="4.85712">
        <ele>111.650269</ele>
        <time>2015-10-08T10:41:54Z</time>
      </trkpt>
      <trkpt lat="44.33444" lon="4.85716">
        <ele>111.650269</ele>
        <time>2015-10-08T10:41:57Z</time>
      </trkpt>
      <trkpt lat="44.33435" lon="4.85726">
        <ele>112.130981</ele>
        <time>2015-10-08T10:42:05Z</time>
      </trkpt>
      <trkpt lat="44.33422" lon="4.85742">
        <ele>112.130981</ele>
        <time>2015-10-08T10:42:19Z</time>
      </trkpt>
      <trkpt lat="44.33415" lon="4.85757">
        <ele>112.130981</ele>
        <time>2015-10-08T10:42:29Z</time>
      </trkpt>
      <trkpt lat="44.33409" lon="4.8577">
        <ele>110.688843</ele>
        <time>2015-10-08T10:42:37Z</time>
      </trkpt>
      <trkpt lat="44.33409" lon="4.85775">
        <ele>110.688843</ele>
        <time>2015-10-08T10:42:40Z</time>
      </trkpt>
      <trkpt lat="44.33408" lon="4.8578">
        <ele>110.208252</ele>
        <time>2015-10-08T10:42:43Z</time>
      </trkpt>
      <trkpt lat="44.33406" lon="4.85784">
        <ele>110.208252</ele>
        <time>2015-10-08T10:42:45Z</time>
      </trkpt>
      <trkpt lat="44.334" lon="4.85797">
        <ele>110.688843</ele>
        <time>2015-10-08T10:42:56Z</time>
      </trkpt>
      <trkpt lat="44.33392" lon="4.85799">
        <ele>111.169556</ele>
        <time>2015-10-08T10:43:02Z</time>
      </trkpt>
      <trkpt lat="44.33386" lon="4.85797">
        <ele>112.130981</ele>
        <time>2015-10-08T10:43:08Z</time>
      </trkpt>
      <trkpt lat="44.33384" lon="4.85797">
        <ele>111.169556</ele>
        <time>2015-10-08T10:43:11Z</time>
      </trkpt>
      <trkpt lat="44.33381" lon="4.85798">
        <ele>110.688843</ele>
        <time>2015-10-08T10:43:14Z</time>
      </trkpt>
      <trkpt lat="44.33368" lon="4.85802">
        <ele>110.688843</ele>
        <time>2015-10-08T10:43:23Z</time>
      </trkpt>
      <trkpt lat="44.33356" lon="4.85805">
        <ele>111.169556</ele>
        <time>2015-10-08T10:43:29Z</time>
      </trkpt>
      <trkpt lat="44.33347" lon="4.8581">
        <ele>111.169556</ele>
        <time>2015-10-08T10:43:34Z</time>
      </trkpt>
      <trkpt lat="44.33336" lon="4.85809">
        <ele>110.688843</ele>
        <time>2015-10-08T10:43:41Z</time>
      </trkpt>
      <trkpt lat="44.33327" lon="4.85812">
        <ele>110.208252</ele>
        <time>2015-10-08T10:43:48Z</time>
      </trkpt>
      <trkpt lat="44.33317" lon="4.85814">
        <ele>110.208252</ele>
        <time>2015-10-08T10:43:57Z</time>
      </trkpt>
      <trkpt lat="44.33307" lon="4.8582">
        <ele>110.208252</ele>
        <time>2015-10-08T10:44:06Z</time>
      </trkpt>
      <trkpt lat="44.33294" lon="4.85823">
        <ele>110.208252</ele>
        <time>2015-10-08T10:44:15Z</time>
      </trkpt>
      <trkpt lat="44.33286" lon="4.85822">
        <ele>110.208252</ele>
        <time>2015-10-08T10:44:21Z</time>
      </trkpt>
      <trkpt lat="44.33276" lon="4.85819">
        <ele>110.208252</ele>
        <time>2015-10-08T10:44:28Z</time>
      </trkpt>
      <trkpt lat="44.33275" lon="4.85818">
        <ele>110.208252</ele>
        <time>2015-10-08T10:44:29Z</time>
      </trkpt>
      <trkpt lat="44.33257" lon="4.85818">
        <ele>109.727661</ele>
        <time>2015-10-08T10:44:44Z</time>
      </trkpt>
      <trkpt lat="44.33255" lon="4.85819">
        <ele>109.727661</ele>
        <time>2015-10-08T10:44:46Z</time>
      </trkpt>
      <trkpt lat="44.33249" lon="4.85819">
        <ele>109.727661</ele>
        <time>2015-10-08T10:44:50Z</time>
      </trkpt>
      <trkpt lat="44.33239" lon="4.85818">
        <ele>110.688843</ele>
        <time>2015-10-08T10:44:56Z</time>
      </trkpt>
      <trkpt lat="44.33235" lon="4.85816">
        <ele>111.169556</ele>
        <time>2015-10-08T10:45:00Z</time>
      </trkpt>
      <trkpt lat="44.33227" lon="4.85813">
        <ele>111.169556</ele>
        <time>2015-10-08T10:45:06Z</time>
      </trkpt>
      <trkpt lat="44.3322" lon="4.8581">
        <ele>111.169556</ele>
        <time>2015-10-08T10:45:11Z</time>
      </trkpt>
      <trkpt lat="44.33216" lon="4.8581">
        <ele>111.169556</ele>
        <time>2015-10-08T10:45:14Z</time>
      </trkpt>
      <trkpt lat="44.33212" lon="4.8581">
        <ele>110.688843</ele>
        <time>2015-10-08T10:45:17Z</time>
      </trkpt>
      <trkpt lat="44.33202" lon="4.85808">
        <ele>110.688843</ele>
        <time>2015-10-08T10:45:24Z</time>
      </trkpt>
      <trkpt lat="44.33193" lon="4.85812">
        <ele>110.688843</ele>
        <time>2015-10-08T10:45:32Z</time>
      </trkpt>
      <trkpt lat="44.3319" lon="4.85812">
        <ele>110.688843</ele>
        <time>2015-10-08T10:45:34Z</time>
      </trkpt>
      <trkpt lat="44.33188" lon="4.85812">
        <ele>110.208252</ele>
        <time>2015-10-08T10:45:36Z</time>
      </trkpt>
      <trkpt lat="44.33185" lon="4.85811">
        <ele>110.208252</ele>
        <time>2015-10-08T10:45:39Z</time>
      </trkpt>
      <trkpt lat="44.33181" lon="4.8581">
        <ele>110.208252</ele>
        <time>2015-10-08T10:45:42Z</time>
      </trkpt>
      <trkpt lat="44.33174" lon="4.85806">
        <ele>110.688843</ele>
        <time>2015-10-08T10:45:47Z</time>
      </trkpt>
      <trkpt lat="44.33163" lon="4.85801">
        <ele>110.208252</ele>
        <time>2015-10-08T10:45:55Z</time>
      </trkpt>
      <trkpt lat="44.33144" lon="4.85795">
        <ele>108.766235</ele>
        <time>2015-10-08T10:46:09Z</time>
      </trkpt>
      <trkpt lat="44.33136" lon="4.85791">
        <ele>109.246948</ele>
        <time>2015-10-08T10:46:15Z</time>
      </trkpt>
      <trkpt lat="44.33128" lon="4.85786">
        <ele>108.285645</ele>
        <time>2015-10-08T10:46:22Z</time>
      </trkpt>
      <trkpt lat="44.33119" lon="4.85781">
        <ele>110.208252</ele>
        <time>2015-10-08T10:46:30Z</time>
      </trkpt>
      <trkpt lat="44.33118" lon="4.85781">
        <ele>109.727661</ele>
        <time>2015-10-08T10:46:31Z</time>
      </trkpt>
      <trkpt lat="44.33113" lon="4.85778">
        <ele>108.285645</ele>
        <time>2015-10-08T10:46:36Z</time>
      </trkpt>
      <trkpt lat="44.33102" lon="4.85777">
        <ele>109.727661</ele>
        <time>2015-10-08T10:46:44Z</time>
      </trkpt>
      <trkpt lat="44.33094" lon="4.85776">
        <ele>108.766235</ele>
        <time>2015-10-08T10:46:50Z</time>
      </trkpt>
      <trkpt lat="44.33085" lon="4.85772">
        <ele>108.766235</ele>
        <time>2015-10-08T10:46:57Z</time>
      </trkpt>
      <trkpt lat="44.33076" lon="4.85767">
        <ele>107.805054</ele>
        <time>2015-10-08T10:47:04Z</time>
      </trkpt>
      <trkpt lat="44.3307" lon="4.85763">
        <ele>107.805054</ele>
        <time>2015-10-08T10:47:08Z</time>
      </trkpt>
      <trkpt lat="44.33068" lon="4.8576">
        <ele>107.805054</ele>
        <time>2015-10-08T10:47:10Z</time>
      </trkpt>
      <trkpt lat="44.33055" lon="4.85758">
        <ele>108.285645</ele>
        <time>2015-10-08T10:47:19Z</time>
      </trkpt>
      <trkpt lat="44.33044" lon="4.85755">
        <ele>108.285645</ele>
        <time>2015-10-08T10:47:27Z</time>
      </trkpt>
      <trkpt lat="44.33034" lon="4.85753">
        <ele>107.805054</ele>
        <time>2015-10-08T10:47:35Z</time>
      </trkpt>
      <trkpt lat="44.33026" lon="4.8575">
        <ele>107.805054</ele>
        <time>2015-10-08T10:47:42Z</time>
      </trkpt>
      <trkpt lat="44.33011" lon="4.8575">
        <ele>108.285645</ele>
        <time>2015-10-08T10:47:53Z</time>
      </trkpt>
      <trkpt lat="44.33003" lon="4.85748">
        <ele>107.324341</ele>
        <time>2015-10-08T10:47:59Z</time>
      </trkpt>
      <trkpt lat="44.32989" lon="4.85749">
        <ele>106.843628</ele>
        <time>2015-10-08T10:48:09Z</time>
      </trkpt>
      <trkpt lat="44.32971" lon="4.85753">
        <ele>106.363037</ele>
        <time>2015-10-08T10:48:23Z</time>
      </trkpt>
      <trkpt lat="44.32969" lon="4.85752">
        <ele>105.882446</ele>
        <time>2015-10-08T10:48:25Z</time>
      </trkpt>
      <trkpt lat="44.32962" lon="4.85755">
        <ele>105.882446</ele>
        <time>2015-10-08T10:48:32Z</time>
      </trkpt>
      <trkpt lat="44.32956" lon="4.85756">
        <ele>105.401733</ele>
        <time>2015-10-08T10:48:37Z</time>
      </trkpt>
      <trkpt lat="44.32948" lon="4.85755">
        <ele>105.401733</ele>
        <time>2015-10-08T10:48:42Z</time>
      </trkpt>
      <trkpt lat="44.32946" lon="4.85756">
        <ele>105.882446</ele>
        <time>2015-10-08T10:48:50Z</time>
      </trkpt>
      <trkpt lat="44.32944" lon="4.85758">
        <ele>105.882446</ele>
        <time>2015-10-08T10:49:13Z</time>
      </trkpt>
      <trkpt lat="44.32942" lon="4.85764">
        <ele>104.921021</ele>
        <time>2015-10-08T10:49:18Z</time>
      </trkpt>
      <trkpt lat="44.32939" lon="4.8578">
        <ele>104.44043</ele>
        <time>2015-10-08T10:49:26Z</time>
      </trkpt>
      <trkpt lat="44.32936" lon="4.85793">
        <ele>104.44043</ele>
        <time>2015-10-08T10:49:32Z</time>
      </trkpt>
      <trkpt lat="44.32932" lon="4.85809">
        <ele>104.44043</ele>
        <time>2015-10-08T10:49:40Z</time>
      </trkpt>
      <trkpt lat="44.3293" lon="4.85818">
        <ele>103.959717</ele>
        <time>2015-10-08T10:49:46Z</time>
      </trkpt>
      <trkpt lat="44.32927" lon="4.85833">
        <ele>102.998291</ele>
        <time>2015-10-08T10:49:54Z</time>
      </trkpt>
      <trkpt lat="44.32926" lon="4.85838">
        <ele>103.479004</ele>
        <time>2015-10-08T10:49:58Z</time>
      </trkpt>
      <trkpt lat="44.32924" lon="4.85847">
        <ele>103.479004</ele>
        <time>2015-10-08T10:50:04Z</time>
      </trkpt>
      <trkpt lat="44.32923" lon="4.85861">
        <ele>103.479004</ele>
        <time>2015-10-08T10:50:12Z</time>
      </trkpt>
      <trkpt lat="44.32921" lon="4.85872">
        <ele>102.998291</ele>
        <time>2015-10-08T10:50:19Z</time>
      </trkpt>
      <trkpt lat="44.3292" lon="4.85875">
        <ele>102.998291</ele>
        <time>2015-10-08T10:50:21Z</time>
      </trkpt>
      <trkpt lat="44.32918" lon="4.85882">
        <ele>103.479004</ele>
        <time>2015-10-08T10:50:26Z</time>
      </trkpt>
      <trkpt lat="44.32917" lon="4.8589">
        <ele>103.959717</ele>
        <time>2015-10-08T10:50:30Z</time>
      </trkpt>
      <trkpt lat="44.32911" lon="4.85921">
        <ele>102.998291</ele>
        <time>2015-10-08T10:50:49Z</time>
      </trkpt>
      <trkpt lat="44.32908" lon="4.85936">
        <ele>102.998291</ele>
        <time>2015-10-08T10:50:57Z</time>
      </trkpt>
      <trkpt lat="44.32904" lon="4.85951">
        <ele>102.5177</ele>
        <time>2015-10-08T10:51:05Z</time>
      </trkpt>
      <trkpt lat="44.32902" lon="4.85963">
        <ele>104.44043</ele>
        <time>2015-10-08T10:51:11Z</time>
      </trkpt>
      <trkpt lat="44.32901" lon="4.85965">
        <ele>103.959717</ele>
        <time>2015-10-08T10:51:12Z</time>
      </trkpt>
      <trkpt lat="44.32891" lon="4.85976">
        <ele>102.998291</ele>
        <time>2015-10-08T10:51:22Z</time>
      </trkpt>
      <trkpt lat="44.32881" lon="4.85979">
        <ele>102.998291</ele>
        <time>2015-10-08T10:51:31Z</time>
      </trkpt>
      <trkpt lat="44.32871" lon="4.85983">
        <ele>102.998291</ele>
        <time>2015-10-08T10:51:39Z</time>
      </trkpt>
      <trkpt lat="44.32868" lon="4.85985">
        <ele>102.998291</ele>
        <time>2015-10-08T10:51:42Z</time>
      </trkpt>
      <trkpt lat="44.32866" lon="4.85994">
        <ele>103.479004</ele>
        <time>2015-10-08T10:51:48Z</time>
      </trkpt>
      <trkpt lat="44.32863" lon="4.86002">
        <ele>102.998291</ele>
        <time>2015-10-08T10:51:52Z</time>
      </trkpt>
      <trkpt lat="44.32862" lon="4.86011">
        <ele>103.959717</ele>
        <time>2015-10-08T10:51:59Z</time>
      </trkpt>
      <trkpt lat="44.32858" lon="4.8602">
        <ele>105.401733</ele>
        <time>2015-10-08T10:52:06Z</time>
      </trkpt>
      <trkpt lat="44.32858" lon="4.86021">
        <ele>103.959717</ele>
        <time>2015-10-08T10:52:18Z</time>
      </trkpt>
      <trkpt lat="44.32855" lon="4.86027">
        <ele>105.401733</ele>
        <time>2015-10-08T10:52:25Z</time>
      </trkpt>
      <trkpt lat="44.3285" lon="4.86042">
        <ele>105.401733</ele>
        <time>2015-10-08T10:52:37Z</time>
      </trkpt>
      <trkpt lat="44.32848" lon="4.86053">
        <ele>104.921021</ele>
        <time>2015-10-08T10:52:44Z</time>
      </trkpt>
      <trkpt lat="44.32849" lon="4.86058">
        <ele>104.44043</ele>
        <time>2015-10-08T10:52:50Z</time>
      </trkpt>
      <trkpt lat="44.32856" lon="4.86066">
        <ele>104.921021</ele>
        <time>2015-10-08T10:53:03Z</time>
      </trkpt>
      <trkpt lat="44.32864" lon="4.86076">
        <ele>103.959717</ele>
        <time>2015-10-08T10:53:11Z</time>
      </trkpt>
      <trkpt lat="44.32864" lon="4.86081">
        <ele>104.44043</ele>
        <time>2015-10-08T10:53:14Z</time>
      </trkpt>
      <trkpt lat="44.32864" lon="4.86087">
        <ele>104.921021</ele>
        <time>2015-10-08T10:53:20Z</time>
      </trkpt>
      <trkpt lat="44.32859" lon="4.86098">
        <ele>105.882446</ele>
        <time>2015-10-08T10:53:30Z</time>
      </trkpt>
      <trkpt lat="44.32856" lon="4.86107">
        <ele>105.401733</ele>
        <time>2015-10-08T10:53:40Z</time>
      </trkpt>
      <trkpt lat="44.32854" lon="4.8611">
        <ele>105.401733</ele>
        <time>2015-10-08T10:53:42Z</time>
      </trkpt>
      <trkpt lat="44.32849" lon="4.86131">
        <ele>105.882446</ele>
        <time>2015-10-08T10:53:54Z</time>
      </trkpt>
      <trkpt lat="44.32845" lon="4.86149">
        <ele>106.363037</ele>
        <time>2015-10-08T10:54:05Z</time>
      </trkpt>
      <trkpt lat="44.32841" lon="4.86168">
        <ele>106.363037</ele>
        <time>2015-10-08T10:54:16Z</time>
      </trkpt>
      <trkpt lat="44.32841" lon="4.86169">
        <ele>106.363037</ele>
        <time>2015-10-08T10:54:23Z</time>
      </trkpt>
      <trkpt lat="44.3284" lon="4.86175">
        <ele>105.882446</ele>
        <time>2015-10-08T10:54:30Z</time>
      </trkpt>
      <trkpt lat="44.32836" lon="4.86188">
        <ele>105.882446</ele>
        <time>2015-10-08T10:54:40Z</time>
      </trkpt>
      <trkpt lat="44.32837" lon="4.86189">
        <ele>106.363037</ele>
        <time>2015-10-08T10:54:48Z</time>
      </trkpt>
      <trkpt lat="44.32835" lon="4.86188">
        <ele>105.882446</ele>
        <time>2015-10-08T10:54:55Z</time>
      </trkpt>
      <trkpt lat="44.32832" lon="4.86189">
        <ele>105.882446</ele>
        <time>2015-10-08T10:54:59Z</time>
      </trkpt>
      <trkpt lat="44.32821" lon="4.86188">
        <ele>105.882446</ele>
        <time>2015-10-08T10:55:09Z</time>
      </trkpt>
      <trkpt lat="44.3281" lon="4.86184">
        <ele>105.882446</ele>
        <time>2015-10-08T10:55:19Z</time>
      </trkpt>
      <trkpt lat="44.32809" lon="4.86184">
        <ele>105.882446</ele>
        <time>2015-10-08T10:55:20Z</time>
      </trkpt>
      <trkpt lat="44.328" lon="4.8619">
        <ele>105.882446</ele>
        <time>2015-10-08T10:55:27Z</time>
      </trkpt>
      <trkpt lat="44.328" lon="4.86192">
        <ele>105.882446</ele>
        <time>2015-10-08T10:55:29Z</time>
      </trkpt>
      <trkpt lat="44.32799" lon="4.86211">
        <ele>105.882446</ele>
        <time>2015-10-08T10:55:41Z</time>
      </trkpt>
      <trkpt lat="44.32798" lon="4.86231">
        <ele>105.401733</ele>
        <time>2015-10-08T10:55:52Z</time>
      </trkpt>
      <trkpt lat="44.32798" lon="4.86233">
        <ele>105.401733</ele>
        <time>2015-10-08T10:55:53Z</time>
      </trkpt>
      <trkpt lat="44.32797" lon="4.8625">
        <ele>105.882446</ele>
        <time>2015-10-08T10:56:00Z</time>
      </trkpt>
      <trkpt lat="44.32794" lon="4.86266">
        <ele>105.401733</ele>
        <time>2015-10-08T10:56:08Z</time>
      </trkpt>
      <trkpt lat="44.32794" lon="4.86267">
        <ele>105.401733</ele>
        <time>2015-10-08T10:56:09Z</time>
      </trkpt>
      <trkpt lat="44.32793" lon="4.86278">
        <ele>106.363037</ele>
        <time>2015-10-08T10:56:17Z</time>
      </trkpt>
      <trkpt lat="44.32793" lon="4.86308">
        <ele>106.363037</ele>
        <time>2015-10-08T10:56:34Z</time>
      </trkpt>
      <trkpt lat="44.32792" lon="4.86331">
        <ele>106.363037</ele>
        <time>2015-10-08T10:56:47Z</time>
      </trkpt>
      <trkpt lat="44.32797" lon="4.86349">
        <ele>106.363037</ele>
        <time>2015-10-08T10:56:58Z</time>
      </trkpt>
      <trkpt lat="44.32804" lon="4.86354">
        <ele>106.363037</ele>
        <time>2015-10-08T10:57:05Z</time>
      </trkpt>
      <trkpt lat="44.32815" lon="4.86359">
        <ele>106.363037</ele>
        <time>2015-10-08T10:57:14Z</time>
      </trkpt>
      <trkpt lat="44.32816" lon="4.86359">
        <ele>106.363037</ele>
        <time>2015-10-08T10:57:15Z</time>
      </trkpt>
      <trkpt lat="44.32827" lon="4.86361">
        <ele>105.882446</ele>
        <time>2015-10-08T10:57:23Z</time>
      </trkpt>
      <trkpt lat="44.32831" lon="4.86363">
        <ele>105.882446</ele>
        <time>2015-10-08T10:57:26Z</time>
      </trkpt>
      <trkpt lat="44.3284" lon="4.86364">
        <ele>106.363037</ele>
        <time>2015-10-08T10:57:34Z</time>
      </trkpt>
      <trkpt lat="44.32847" lon="4.86367">
        <ele>106.363037</ele>
        <time>2015-10-08T10:57:41Z</time>
      </trkpt>
      <trkpt lat="44.32851" lon="4.86372">
        <ele>107.805054</ele>
        <time>2015-10-08T10:57:44Z</time>
      </trkpt>
      <trkpt lat="44.32854" lon="4.86384">
        <ele>106.843628</ele>
        <time>2015-10-08T10:57:51Z</time>
      </trkpt>
      <trkpt lat="44.32854" lon="4.86385">
        <ele>107.805054</ele>
        <time>2015-10-08T10:57:52Z</time>
      </trkpt>
      <trkpt lat="44.32854" lon="4.86396">
        <ele>107.324341</ele>
        <time>2015-10-08T10:57:59Z</time>
      </trkpt>
      <trkpt lat="44.32854" lon="4.86419">
        <ele>106.843628</ele>
        <time>2015-10-08T10:58:14Z</time>
      </trkpt>
      <trkpt lat="44.32854" lon="4.86436">
        <ele>105.882446</ele>
        <time>2015-10-08T10:58:22Z</time>
      </trkpt>
      <trkpt lat="44.32855" lon="4.86443">
        <ele>106.363037</ele>
        <time>2015-10-08T10:58:25Z</time>
      </trkpt>
      <trkpt lat="44.32856" lon="4.86449">
        <ele>106.363037</ele>
        <time>2015-10-08T10:58:28Z</time>
      </trkpt>
      <trkpt lat="44.32855" lon="4.86462">
        <ele>105.401733</ele>
        <time>2015-10-08T10:58:34Z</time>
      </trkpt>
      <trkpt lat="44.32857" lon="4.86476">
        <ele>105.401733</ele>
        <time>2015-10-08T10:58:40Z</time>
      </trkpt>
      <trkpt lat="44.32856" lon="4.86479">
        <ele>105.882446</ele>
        <time>2015-10-08T10:58:42Z</time>
      </trkpt>
      <trkpt lat="44.32856" lon="4.86485">
        <ele>105.882446</ele>
        <time>2015-10-08T10:58:46Z</time>
      </trkpt>
      <trkpt lat="44.32856" lon="4.86491">
        <ele>105.882446</ele>
        <time>2015-10-08T10:58:49Z</time>
      </trkpt>
      <trkpt lat="44.32858" lon="4.86498">
        <ele>106.843628</ele>
        <time>2015-10-08T10:58:55Z</time>
      </trkpt>
      <trkpt lat="44.32854" lon="4.86504">
        <ele>107.324341</ele>
        <time>2015-10-08T10:59:00Z</time>
      </trkpt>
      <trkpt lat="44.32851" lon="4.86512">
        <ele>107.324341</ele>
        <time>2015-10-08T10:59:04Z</time>
      </trkpt>
      <trkpt lat="44.3285" lon="4.86532">
        <ele>107.324341</ele>
        <time>2015-10-08T10:59:13Z</time>
      </trkpt>
      <trkpt lat="44.32849" lon="4.86543">
        <ele>107.324341</ele>
        <time>2015-10-08T10:59:18Z</time>
      </trkpt>
      <trkpt lat="44.32849" lon="4.8656">
        <ele>106.843628</ele>
        <time>2015-10-08T10:59:25Z</time>
      </trkpt>
      <trkpt lat="44.32849" lon="4.86562">
        <ele>107.324341</ele>
        <time>2015-10-08T10:59:26Z</time>
      </trkpt>
      <trkpt lat="44.32849" lon="4.86565">
        <ele>107.324341</ele>
        <time>2015-10-08T10:59:29Z</time>
      </trkpt>
      <trkpt lat="44.3285" lon="4.86576">
        <ele>107.324341</ele>
        <time>2015-10-08T10:59:37Z</time>
      </trkpt>
      <trkpt lat="44.32849" lon="4.86584">
        <ele>106.843628</ele>
        <time>2015-10-08T10:59:43Z</time>
      </trkpt>
      <trkpt lat="44.3285" lon="4.86596">
        <ele>107.324341</ele>
        <time>2015-10-08T10:59:51Z</time>
      </trkpt>
      <trkpt lat="44.32849" lon="4.8661">
        <ele>107.324341</ele>
        <time>2015-10-08T10:59:59Z</time>
      </trkpt>
      <trkpt lat="44.32848" lon="4.8662">
        <ele>107.324341</ele>
        <time>2015-10-08T11:00:04Z</time>
      </trkpt>
      <trkpt lat="44.32847" lon="4.86629">
        <ele>107.324341</ele>
        <time>2015-10-08T11:00:09Z</time>
      </trkpt>
      <trkpt lat="44.32848" lon="4.86632">
        <ele>107.324341</ele>
        <time>2015-10-08T11:00:11Z</time>
      </trkpt>
      <trkpt lat="44.32847" lon="4.86638">
        <ele>107.324341</ele>
        <time>2015-10-08T11:00:17Z</time>
      </trkpt>
      <trkpt lat="44.32849" lon="4.86638">
        <ele>107.805054</ele>
        <time>2015-10-08T11:00:20Z</time>
      </trkpt>
      <trkpt lat="44.32851" lon="4.86638">
        <ele>107.324341</ele>
        <time>2015-10-08T11:00:29Z</time>
      </trkpt>
      <trkpt lat="44.3285" lon="4.86641">
        <ele>107.324341</ele>
        <time>2015-10-08T11:00:31Z</time>
      </trkpt>
      <trkpt lat="44.32849" lon="4.8665">
        <ele>107.324341</ele>
        <time>2015-10-08T11:00:38Z</time>
      </trkpt>
      <trkpt lat="44.32849" lon="4.86655">
        <ele>108.766235</ele>
        <time>2015-10-08T11:00:41Z</time>
      </trkpt>
      <trkpt lat="44.32847" lon="4.86659">
        <ele>107.805054</ele>
        <time>2015-10-08T11:00:43Z</time>
      </trkpt>
      <trkpt lat="44.32846" lon="4.86669">
        <ele>108.766235</ele>
        <time>2015-10-08T11:00:48Z</time>
      </trkpt>
      <trkpt lat="44.32848" lon="4.86672">
        <ele>107.324341</ele>
        <time>2015-10-08T11:00:50Z</time>
      </trkpt>
      <trkpt lat="44.32848" lon="4.86673">
        <ele>107.324341</ele>
        <time>2015-10-08T11:00:51Z</time>
      </trkpt>
      <trkpt lat="44.32848" lon="4.86677">
        <ele>107.324341</ele>
        <time>2015-10-08T11:00:54Z</time>
      </trkpt>
      <trkpt lat="44.3286" lon="4.86676">
        <ele>106.843628</ele>
        <time>2015-10-08T11:01:05Z</time>
      </trkpt>
      <trkpt lat="44.32869" lon="4.86674">
        <ele>106.363037</ele>
        <time>2015-10-08T11:01:12Z</time>
      </trkpt>
      <trkpt lat="44.32879" lon="4.86671">
        <ele>106.843628</ele>
        <time>2015-10-08T11:01:20Z</time>
      </trkpt>
      <trkpt lat="44.3288" lon="4.86671">
        <ele>107.324341</ele>
        <time>2015-10-08T11:01:21Z</time>
      </trkpt>
      <trkpt lat="44.32886" lon="4.86668">
        <ele>106.843628</ele>
        <time>2015-10-08T11:01:25Z</time>
      </trkpt>
      <trkpt lat="44.32896" lon="4.86668">
        <ele>106.843628</ele>
        <time>2015-10-08T11:01:34Z</time>
      </trkpt>
      <trkpt lat="44.32909" lon="4.8667">
        <ele>107.324341</ele>
        <time>2015-10-08T11:01:42Z</time>
      </trkpt>
      <trkpt lat="44.32912" lon="4.8667">
        <ele>107.324341</ele>
        <time>2015-10-08T11:01:45Z</time>
      </trkpt>
      <trkpt lat="44.32917" lon="4.86671">
        <ele>107.324341</ele>
        <time>2015-10-08T11:01:49Z</time>
      </trkpt>
      <trkpt lat="44.32929" lon="4.86668">
        <ele>107.324341</ele>
        <time>2015-10-08T11:01:58Z</time>
      </trkpt>
      <trkpt lat="44.3294" lon="4.86668">
        <ele>107.324341</ele>
        <time>2015-10-08T11:02:07Z</time>
      </trkpt>
      <trkpt lat="44.32955" lon="4.86667">
        <ele>106.363037</ele>
        <time>2015-10-08T11:02:18Z</time>
      </trkpt>
      <trkpt lat="44.32963" lon="4.86668">
        <ele>106.843628</ele>
        <time>2015-10-08T11:02:25Z</time>
      </trkpt>
      <trkpt lat="44.32973" lon="4.8666">
        <ele>107.324341</ele>
        <time>2015-10-08T11:02:33Z</time>
      </trkpt>
      <trkpt lat="44.3298" lon="4.86656">
        <ele>107.805054</ele>
        <time>2015-10-08T11:02:37Z</time>
      </trkpt>
      <trkpt lat="44.3299" lon="4.86645">
        <ele>107.805054</ele>
        <time>2015-10-08T11:02:45Z</time>
      </trkpt>
      <trkpt lat="44.33001" lon="4.86636">
        <ele>107.324341</ele>
        <time>2015-10-08T11:02:53Z</time>
      </trkpt>
      <trkpt lat="44.33009" lon="4.86629">
        <ele>107.324341</ele>
        <time>2015-10-08T11:03:00Z</time>
      </trkpt>
      <trkpt lat="44.33018" lon="4.86624">
        <ele>107.805054</ele>
        <time>2015-10-08T11:03:08Z</time>
      </trkpt>
      <trkpt lat="44.33027" lon="4.86621">
        <ele>106.843628</ele>
        <time>2015-10-08T11:03:16Z</time>
      </trkpt>
      <trkpt lat="44.33029" lon="4.86621">
        <ele>107.805054</ele>
        <time>2015-10-08T11:03:18Z</time>
      </trkpt>
      <trkpt lat="44.33037" lon="4.8662">
        <ele>107.805054</ele>
        <time>2015-10-08T11:03:25Z</time>
      </trkpt>
      <trkpt lat="44.33047" lon="4.86622">
        <ele>107.805054</ele>
        <time>2015-10-08T11:03:33Z</time>
      </trkpt>
      <trkpt lat="44.33061" lon="4.86627">
        <ele>108.285645</ele>
        <time>2015-10-08T11:03:44Z</time>
      </trkpt>
      <trkpt lat="44.33067" lon="4.8663">
        <ele>108.285645</ele>
        <time>2015-10-08T11:03:48Z</time>
      </trkpt>
      <trkpt lat="44.33072" lon="4.86632">
        <ele>108.285645</ele>
        <time>2015-10-08T11:03:52Z</time>
      </trkpt>
      <trkpt lat="44.3308" lon="4.86635">
        <ele>107.324341</ele>
        <time>2015-10-08T11:03:57Z</time>
      </trkpt>
      <trkpt lat="44.33094" lon="4.86643">
        <ele>107.805054</ele>
        <time>2015-10-08T11:04:08Z</time>
      </trkpt>
      <trkpt lat="44.33102" lon="4.86647">
        <ele>108.766235</ele>
        <time>2015-10-08T11:04:16Z</time>
      </trkpt>
      <trkpt lat="44.33111" lon="4.86649">
        <ele>107.805054</ele>
        <time>2015-10-08T11:04:23Z</time>
      </trkpt>
      <trkpt lat="44.3312" lon="4.86658">
        <ele>107.805054</ele>
        <time>2015-10-08T11:04:31Z</time>
      </trkpt>
      <trkpt lat="44.3313" lon="4.86669">
        <ele>108.766235</ele>
        <time>2015-10-08T11:04:38Z</time>
      </trkpt>
      <trkpt lat="44.33141" lon="4.86678">
        <ele>108.766235</ele>
        <time>2015-10-08T11:04:45Z</time>
      </trkpt>
      <trkpt lat="44.33152" lon="4.86682">
        <ele>108.766235</ele>
        <time>2015-10-08T11:04:53Z</time>
      </trkpt>
      <trkpt lat="44.33153" lon="4.86682">
        <ele>108.766235</ele>
        <time>2015-10-08T11:04:54Z</time>
      </trkpt>
      <trkpt lat="44.33158" lon="4.86686">
        <ele>109.246948</ele>
        <time>2015-10-08T11:04:59Z</time>
      </trkpt>
      <trkpt lat="44.33166" lon="4.8668">
        <ele>108.766235</ele>
        <time>2015-10-08T11:05:06Z</time>
      </trkpt>
      <trkpt lat="44.33181" lon="4.86668">
        <ele>108.766235</ele>
        <time>2015-10-08T11:05:18Z</time>
      </trkpt>
      <trkpt lat="44.33189" lon="4.86661">
        <ele>108.766235</ele>
        <time>2015-10-08T11:05:24Z</time>
      </trkpt>
      <trkpt lat="44.33192" lon="4.8666">
        <ele>108.766235</ele>
        <time>2015-10-08T11:05:26Z</time>
      </trkpt>
      <trkpt lat="44.33199" lon="4.86655">
        <ele>108.766235</ele>
        <time>2015-10-08T11:05:33Z</time>
      </trkpt>
      <trkpt lat="44.3321" lon="4.86648">
        <ele>109.246948</ele>
        <time>2015-10-08T11:05:40Z</time>
      </trkpt>
      <trkpt lat="44.33221" lon="4.86644">
        <ele>108.285645</ele>
        <time>2015-10-08T11:05:47Z</time>
      </trkpt>
      <trkpt lat="44.33231" lon="4.86644">
        <ele>108.766235</ele>
        <time>2015-10-08T11:05:55Z</time>
      </trkpt>
      <trkpt lat="44.3324" lon="4.86643">
        <ele>108.766235</ele>
        <time>2015-10-08T11:06:03Z</time>
      </trkpt>
      <trkpt lat="44.3325" lon="4.86643">
        <ele>109.246948</ele>
        <time>2015-10-08T11:06:09Z</time>
      </trkpt>
      <trkpt lat="44.33263" lon="4.86647">
        <ele>108.766235</ele>
        <time>2015-10-08T11:06:18Z</time>
      </trkpt>
      <trkpt lat="44.33271" lon="4.86649">
        <ele>108.285645</ele>
        <time>2015-10-08T11:06:22Z</time>
      </trkpt>
      <trkpt lat="44.33281" lon="4.86651">
        <ele>108.766235</ele>
        <time>2015-10-08T11:06:30Z</time>
      </trkpt>
      <trkpt lat="44.33287" lon="4.86649">
        <ele>109.246948</ele>
        <time>2015-10-08T11:06:35Z</time>
      </trkpt>
      <trkpt lat="44.33288" lon="4.86649">
        <ele>109.246948</ele>
        <time>2015-10-08T11:06:37Z</time>
      </trkpt>
      <trkpt lat="44.33292" lon="4.86649">
        <ele>109.727661</ele>
        <time>2015-10-08T11:06:41Z</time>
      </trkpt>
      <trkpt lat="44.33305" lon="4.86651">
        <ele>110.208252</ele>
        <time>2015-10-08T11:06:51Z</time>
      </trkpt>
      <trkpt lat="44.3332" lon="4.86651">
        <ele>109.727661</ele>
        <time>2015-10-08T11:07:02Z</time>
      </trkpt>
      <trkpt lat="44.33326" lon="4.86652">
        <ele>108.285645</ele>
        <time>2015-10-08T11:07:07Z</time>
      </trkpt>
      <trkpt lat="44.33333" lon="4.86652">
        <ele>109.727661</ele>
        <time>2015-10-08T11:07:11Z</time>
      </trkpt>
      <trkpt lat="44.33339" lon="4.86654">
        <ele>109.727661</ele>
        <time>2015-10-08T11:07:16Z</time>
      </trkpt>
      <trkpt lat="44.3335" lon="4.86654">
        <ele>109.246948</ele>
        <time>2015-10-08T11:07:24Z</time>
      </trkpt>
      <trkpt lat="44.33352" lon="4.86655">
        <ele>109.727661</ele>
        <time>2015-10-08T11:07:26Z</time>
      </trkpt>
      <trkpt lat="44.33364" lon="4.86658">
        <ele>109.727661</ele>
        <time>2015-10-08T11:07:34Z</time>
      </trkpt>
      <trkpt lat="44.33375" lon="4.86659">
        <ele>110.208252</ele>
        <time>2015-10-08T11:07:45Z</time>
      </trkpt>
      <trkpt lat="44.33384" lon="4.8666">
        <ele>110.688843</ele>
        <time>2015-10-08T11:07:52Z</time>
      </trkpt>
      <trkpt lat="44.33392" lon="4.8666">
        <ele>110.688843</ele>
        <time>2015-10-08T11:07:58Z</time>
      </trkpt>
      <trkpt lat="44.33398" lon="4.86663">
        <ele>111.169556</ele>
        <time>2015-10-08T11:08:04Z</time>
      </trkpt>
      <trkpt lat="44.33406" lon="4.86663">
        <ele>111.169556</ele>
        <time>2015-10-08T11:08:11Z</time>
      </trkpt>
      <trkpt lat="44.33413" lon="4.86663">
        <ele>111.169556</ele>
        <time>2015-10-08T11:08:17Z</time>
      </trkpt>
      <trkpt lat="44.33424" lon="4.86663">
        <ele>111.169556</ele>
        <time>2015-10-08T11:08:24Z</time>
      </trkpt>
      <trkpt lat="44.33437" lon="4.86663">
        <ele>111.650269</ele>
        <time>2015-10-08T11:08:32Z</time>
      </trkpt>
      <trkpt lat="44.33438" lon="4.86663">
        <ele>111.650269</ele>
        <time>2015-10-08T11:08:33Z</time>
      </trkpt>
      <trkpt lat="44.33447" lon="4.86663">
        <ele>112.130981</ele>
        <time>2015-10-08T11:08:41Z</time>
      </trkpt>
      <trkpt lat="44.33458" lon="4.86664">
        <ele>110.688843</ele>
        <time>2015-10-08T11:08:48Z</time>
      </trkpt>
      <trkpt lat="44.33464" lon="4.86665">
        <ele>111.650269</ele>
        <time>2015-10-08T11:08:53Z</time>
      </trkpt>
      <trkpt lat="44.33468" lon="4.86667">
        <ele>112.130981</ele>
        <time>2015-10-08T11:08:56Z</time>
      </trkpt>
      <trkpt lat="44.3348" lon="4.86668">
        <ele>112.130981</ele>
        <time>2015-10-08T11:09:03Z</time>
      </trkpt>
      <trkpt lat="44.33485" lon="4.86669">
        <ele>112.130981</ele>
        <time>2015-10-08T11:09:07Z</time>
      </trkpt>
      <trkpt lat="44.33494" lon="4.86668">
        <ele>112.130981</ele>
        <time>2015-10-08T11:09:15Z</time>
      </trkpt>
      <trkpt lat="44.33495" lon="4.86667">
        <ele>112.611572</ele>
        <time>2015-10-08T11:09:19Z</time>
      </trkpt>
      <trkpt lat="44.33498" lon="4.86663">
        <ele>111.650269</ele>
        <time>2015-10-08T11:09:23Z</time>
      </trkpt>
      <trkpt lat="44.33508" lon="4.86652">
        <ele>111.650269</ele>
        <time>2015-10-08T11:09:33Z</time>
      </trkpt>
      <trkpt lat="44.33511" lon="4.86649">
        <ele>111.650269</ele>
        <time>2015-10-08T11:09:36Z</time>
      </trkpt>
      <trkpt lat="44.33516" lon="4.86647">
        <ele>111.650269</ele>
        <time>2015-10-08T11:09:42Z</time>
      </trkpt>
      <trkpt lat="44.33522" lon="4.86641">
        <ele>111.169556</ele>
        <time>2015-10-08T11:09:48Z</time>
      </trkpt>
      <trkpt lat="44.33533" lon="4.86631">
        <ele>111.169556</ele>
        <time>2015-10-08T11:09:56Z</time>
      </trkpt>
      <trkpt lat="44.33539" lon="4.86615">
        <ele>111.169556</ele>
        <time>2015-10-08T11:10:03Z</time>
      </trkpt>
      <trkpt lat="44.33541" lon="4.86611">
        <ele>111.169556</ele>
        <time>2015-10-08T11:10:05Z</time>
      </trkpt>
      <trkpt lat="44.33545" lon="4.86605">
        <ele>111.650269</ele>
        <time>2015-10-08T11:10:09Z</time>
      </trkpt>
      <trkpt lat="44.33548" lon="4.86596">
        <ele>112.130981</ele>
        <time>2015-10-08T11:10:15Z</time>
      </trkpt>
      <trkpt lat="44.33555" lon="4.86579">
        <ele>111.650269</ele>
        <time>2015-10-08T11:10:27Z</time>
      </trkpt>
      <trkpt lat="44.33557" lon="4.86571">
        <ele>112.130981</ele>
        <time>2015-10-08T11:10:31Z</time>
      </trkpt>
      <trkpt lat="44.33561" lon="4.86565">
        <ele>111.650269</ele>
        <time>2015-10-08T11:10:36Z</time>
      </trkpt>
      <trkpt lat="44.33563" lon="4.86562">
        <ele>111.650269</ele>
        <time>2015-10-08T11:10:39Z</time>
      </trkpt>
      <trkpt lat="44.33566" lon="4.86549">
        <ele>112.130981</ele>
        <time>2015-10-08T11:10:48Z</time>
      </trkpt>
      <trkpt lat="44.33568" lon="4.86543">
        <ele>111.650269</ele>
        <time>2015-10-08T11:10:54Z</time>
      </trkpt>
      <trkpt lat="44.3357" lon="4.86537">
        <ele>111.650269</ele>
        <time>2015-10-08T11:10:57Z</time>
      </trkpt>
      <trkpt lat="44.33574" lon="4.86531">
        <ele>111.650269</ele>
        <time>2015-10-08T11:11:01Z</time>
      </trkpt>
      <trkpt lat="44.33578" lon="4.86525">
        <ele>112.130981</ele>
        <time>2015-10-08T11:11:06Z</time>
      </trkpt>
      <trkpt lat="44.33587" lon="4.86528">
        <ele>112.611572</ele>
        <time>2015-10-08T11:11:15Z</time>
      </trkpt>
      <trkpt lat="44.33595" lon="4.86532">
        <ele>112.611572</ele>
        <time>2015-10-08T11:11:34Z</time>
      </trkpt>
      <trkpt lat="44.33601" lon="4.86535">
        <ele>112.130981</ele>
        <time>2015-10-08T11:11:40Z</time>
      </trkpt>
      <trkpt lat="44.33605" lon="4.86536">
        <ele>112.611572</ele>
        <time>2015-10-08T11:11:43Z</time>
      </trkpt>
      <trkpt lat="44.33613" lon="4.86539">
        <ele>113.092285</ele>
        <time>2015-10-08T11:11:49Z</time>
      </trkpt>
      <trkpt lat="44.33617" lon="4.86542">
        <ele>113.092285</ele>
        <time>2015-10-08T11:11:55Z</time>
      </trkpt>
      <trkpt lat="44.33619" lon="4.86541">
        <ele>112.611572</ele>
        <time>2015-10-08T11:11:57Z</time>
      </trkpt>
      <trkpt lat="44.3363" lon="4.86539">
        <ele>114.053589</ele>
        <time>2015-10-08T11:12:04Z</time>
      </trkpt>
      <trkpt lat="44.33639" lon="4.86544">
        <ele>113.092285</ele>
        <time>2015-10-08T11:12:11Z</time>
      </trkpt>
      <trkpt lat="44.33642" lon="4.86547">
        <ele>113.092285</ele>
        <time>2015-10-08T11:12:14Z</time>
      </trkpt>
      <trkpt lat="44.33647" lon="4.86551">
        <ele>114.053589</ele>
        <time>2015-10-08T11:12:21Z</time>
      </trkpt>
      <trkpt lat="44.33653" lon="4.86555">
        <ele>113.572998</ele>
        <time>2015-10-08T11:12:27Z</time>
      </trkpt>
      <trkpt lat="44.33657" lon="4.86556">
        <ele>113.572998</ele>
        <time>2015-10-08T11:12:29Z</time>
      </trkpt>
      <trkpt lat="44.3366" lon="4.86558">
        <ele>113.572998</ele>
        <time>2015-10-08T11:12:31Z</time>
      </trkpt>
      <trkpt lat="44.33665" lon="4.86563">
        <ele>114.053589</ele>
        <time>2015-10-08T11:12:35Z</time>
      </trkpt>
      <trkpt lat="44.33674" lon="4.86568">
        <ele>114.53418</ele>
        <time>2015-10-08T11:12:44Z</time>
      </trkpt>
      <trkpt lat="44.33682" lon="4.86571">
        <ele>114.53418</ele>
        <time>2015-10-08T11:12:50Z</time>
      </trkpt>
      <trkpt lat="44.33688" lon="4.86573">
        <ele>114.053589</ele>
        <time>2015-10-08T11:12:53Z</time>
      </trkpt>
      <trkpt lat="44.33696" lon="4.86576">
        <ele>115.014893</ele>
        <time>2015-10-08T11:12:59Z</time>
      </trkpt>
      <trkpt lat="44.33699" lon="4.86577">
        <ele>115.014893</ele>
        <time>2015-10-08T11:13:01Z</time>
      </trkpt>
      <trkpt lat="44.33709" lon="4.86582">
        <ele>115.014893</ele>
        <time>2015-10-08T11:13:10Z</time>
      </trkpt>
      <trkpt lat="44.3371" lon="4.86583">
        <ele>115.495605</ele>
        <time>2015-10-08T11:13:12Z</time>
      </trkpt>
      <trkpt lat="44.33721" lon="4.86589">
        <ele>115.495605</ele>
        <time>2015-10-08T11:13:20Z</time>
      </trkpt>
      <trkpt lat="44.33726" lon="4.86597">
        <ele>115.495605</ele>
        <time>2015-10-08T11:13:26Z</time>
      </trkpt>
      <trkpt lat="44.33733" lon="4.866">
        <ele>115.495605</ele>
        <time>2015-10-08T11:13:33Z</time>
      </trkpt>
      <trkpt lat="44.33741" lon="4.86605">
        <ele>115.976196</ele>
        <time>2015-10-08T11:13:41Z</time>
      </trkpt>
      <trkpt lat="44.33743" lon="4.86606">
        <ele>115.976196</ele>
        <time>2015-10-08T11:13:43Z</time>
      </trkpt>
      <trkpt lat="44.33754" lon="4.86613">
        <ele>115.976196</ele>
        <time>2015-10-08T11:13:51Z</time>
      </trkpt>
      <trkpt lat="44.33759" lon="4.86615">
        <ele>116.456787</ele>
        <time>2015-10-08T11:13:57Z</time>
      </trkpt>
      <trkpt lat="44.3376" lon="4.86617">
        <ele>116.9375</ele>
        <time>2015-10-08T11:13:59Z</time>
      </trkpt>
      <trkpt lat="44.33762" lon="4.86619">
        <ele>116.9375</ele>
        <time>2015-10-08T11:14:01Z</time>
      </trkpt>
      <trkpt lat="44.33775" lon="4.86623">
        <ele>117.418213</ele>
        <time>2015-10-08T11:14:11Z</time>
      </trkpt>
      <trkpt lat="44.33784" lon="4.8663">
        <ele>117.898804</ele>
        <time>2015-10-08T11:14:21Z</time>
      </trkpt>
      <trkpt lat="44.33789" lon="4.86632">
        <ele>117.898804</ele>
        <time>2015-10-08T11:14:26Z</time>
      </trkpt>
      <trkpt lat="44.33797" lon="4.86639">
        <ele>117.418213</ele>
        <time>2015-10-08T11:14:34Z</time>
      </trkpt>
      <trkpt lat="44.33805" lon="4.86642">
        <ele>117.898804</ele>
        <time>2015-10-08T11:14:41Z</time>
      </trkpt>
      <trkpt lat="44.33813" lon="4.86644">
        <ele>116.9375</ele>
        <time>2015-10-08T11:14:49Z</time>
      </trkpt>
      <trkpt lat="44.3382" lon="4.86652">
        <ele>116.456787</ele>
        <time>2015-10-08T11:14:55Z</time>
      </trkpt>
      <trkpt lat="44.33828" lon="4.86653">
        <ele>116.456787</ele>
        <time>2015-10-08T11:15:02Z</time>
      </trkpt>
      <trkpt lat="44.3383" lon="4.86657">
        <ele>116.456787</ele>
        <time>2015-10-08T11:15:09Z</time>
      </trkpt>
      <trkpt lat="44.33831" lon="4.86664">
        <ele>115.976196</ele>
        <time>2015-10-08T11:15:16Z</time>
      </trkpt>
      <trkpt lat="44.33836" lon="4.86667">
        <ele>116.456787</ele>
        <time>2015-10-08T11:15:21Z</time>
      </trkpt>
      <trkpt lat="44.33842" lon="4.8667">
        <ele>116.456787</ele>
        <time>2015-10-08T11:15:28Z</time>
      </trkpt>
      <trkpt lat="44.33846" lon="4.86673">
        <ele>115.976196</ele>
        <time>2015-10-08T11:15:36Z</time>
      </trkpt>
      <trkpt lat="44.33849" lon="4.86678">
        <ele>115.976196</ele>
        <time>2015-10-08T11:15:44Z</time>
      </trkpt>
      <trkpt lat="44.33855" lon="4.8669">
        <ele>115.495605</ele>
        <time>2015-10-08T11:15:54Z</time>
      </trkpt>
      <trkpt lat="44.33858" lon="4.86697">
        <ele>115.495605</ele>
        <time>2015-10-08T11:15:59Z</time>
      </trkpt>
      <trkpt lat="44.33864" lon="4.8671">
        <ele>114.53418</ele>
        <time>2015-10-08T11:16:06Z</time>
      </trkpt>
      <trkpt lat="44.33862" lon="4.86716">
        <ele>115.014893</ele>
        <time>2015-10-08T11:16:10Z</time>
      </trkpt>
      <trkpt lat="44.33863" lon="4.86721">
        <ele>115.014893</ele>
        <time>2015-10-08T11:16:16Z</time>
      </trkpt>
      <trkpt lat="44.33868" lon="4.86717">
        <ele>115.014893</ele>
        <time>2015-10-08T11:16:20Z</time>
      </trkpt>
      <trkpt lat="44.33881" lon="4.86718">
        <ele>115.014893</ele>
        <time>2015-10-08T11:16:29Z</time>
      </trkpt>
      <trkpt lat="44.33883" lon="4.86719">
        <ele>115.014893</ele>
        <time>2015-10-08T11:16:31Z</time>
      </trkpt>
      <trkpt lat="44.33889" lon="4.86717">
        <ele>114.53418</ele>
        <time>2015-10-08T11:16:37Z</time>
      </trkpt>
      <trkpt lat="44.33895" lon="4.86714">
        <ele>114.53418</ele>
        <time>2015-10-08T11:16:44Z</time>
      </trkpt>
      <trkpt lat="44.33902" lon="4.86713">
        <ele>115.014893</ele>
        <time>2015-10-08T11:16:51Z</time>
      </trkpt>
      <trkpt lat="44.33908" lon="4.86711">
        <ele>114.053589</ele>
        <time>2015-10-08T11:16:59Z</time>
      </trkpt>
      <trkpt lat="44.33919" lon="4.86711">
        <ele>114.053589</ele>
        <time>2015-10-08T11:17:14Z</time>
      </trkpt>
      <trkpt lat="44.33919" lon="4.86711">
        <ele>114.053589</ele>
        <time>2015-10-08T11:17:22Z</time>
      </trkpt>
      <trkpt lat="44.33918" lon="4.86711">
        <ele>114.053589</ele>
        <time>2015-10-08T11:17:32Z</time>
      </trkpt>
      <trkpt lat="44.33918" lon="4.8671">
        <ele>114.53418</ele>
        <time>2015-10-08T11:17:41Z</time>
      </trkpt>
      <trkpt lat="44.33917" lon="4.86709">
        <ele>114.53418</ele>
        <time>2015-10-08T11:17:46Z</time>
      </trkpt>
      <trkpt lat="44.33917" lon="4.86711">
        <ele>114.053589</ele>
        <time>2015-10-08T11:17:59Z</time>
      </trkpt>
      <trkpt lat="44.33917" lon="4.86711">
        <ele>114.053589</ele>
        <time>2015-10-08T11:18:06Z</time>
      </trkpt>
    </trkseg>
  </trk>
</gpx>